<?xml version="1.0" encoding="UTF-8" standalone="no" ?>
<gpx xmlns="http://www.topografix.com/GPX/1/1" xmlns:xsi="http://www.w3.org/2001/XMLSchema-instance" xsi:schemaLocation="http://www.topografix.com/GPX/1/1 http://www.topografix.com/GPX/1/1/gpx.xsd" version="1.1" creator="VisuGPX - https://www.visugpx.com">
  <metadata>
    <name>Collines Cadarache avec Thierry</name>
    <desc><![CDATA[Très grosse chaleur, pas mal de petits dénivelés, assez progressif.]]></desc>
  </metadata>
  <trk>
    <name><![CDATA[Digifit Workout]]></name>
    <trkseg>
      <trkpt lat="43.69419" lon="5.73601">
        <ele>357.980741456</ele>
        <time>2013-07-25T11:15:38Z</time>
      </trkpt>
      <trkpt lat="43.69414" lon="5.73598">
        <ele>357.903840416</ele>
        <time>2013-07-25T11:15:40Z</time>
      </trkpt>
      <trkpt lat="43.69408" lon="5.73596">
        <ele>357.884607536</ele>
        <time>2013-07-25T11:15:43Z</time>
      </trkpt>
      <trkpt lat="43.69404" lon="5.73593">
        <ele>357.934625216</ele>
        <time>2013-07-25T11:15:46Z</time>
      </trkpt>
      <trkpt lat="43.69399" lon="5.73589">
        <ele>358.026888176</ele>
        <time>2013-07-25T11:15:49Z</time>
      </trkpt>
      <trkpt lat="43.69395" lon="5.73584">
        <ele>358.207665056</ele>
        <time>2013-07-25T11:15:52Z</time>
      </trkpt>
      <trkpt lat="43.6939" lon="5.7358">
        <ele>358.434558175</ele>
        <time>2013-07-25T11:15:55Z</time>
      </trkpt>
      <trkpt lat="43.69385" lon="5.73576">
        <ele>358.669223695</ele>
        <time>2013-07-25T11:15:58Z</time>
      </trkpt>
      <trkpt lat="43.69381" lon="5.73572">
        <ele>358.865392975</ele>
        <time>2013-07-25T11:16:01Z</time>
      </trkpt>
      <trkpt lat="43.6938" lon="5.73566">
        <ele>359.096157054</ele>
        <time>2013-07-25T11:16:04Z</time>
      </trkpt>
      <trkpt lat="43.69378" lon="5.73558">
        <ele>359.376938814</ele>
        <time>2013-07-25T11:16:07Z</time>
      </trkpt>
      <trkpt lat="43.69376" lon="5.73552">
        <ele>359.653880093</ele>
        <time>2013-07-25T11:16:10Z</time>
      </trkpt>
      <trkpt lat="43.69371" lon="5.73547">
        <ele>359.876963213</ele>
        <time>2013-07-25T11:16:13Z</time>
      </trkpt>
      <trkpt lat="43.69367" lon="5.73544">
        <ele>360.107696813</ele>
        <time>2013-07-25T11:16:16Z</time>
      </trkpt>
      <trkpt lat="43.69361" lon="5.73542">
        <ele>360.342331852</ele>
        <time>2013-07-25T11:16:19Z</time>
      </trkpt>
      <trkpt lat="43.69355" lon="5.73541">
        <ele>360.599979292</ele>
        <time>2013-07-25T11:16:22Z</time>
      </trkpt>
      <trkpt lat="43.69349" lon="5.73541">
        <ele>360.896153451</ele>
        <time>2013-07-25T11:16:25Z</time>
      </trkpt>
      <trkpt lat="43.69344" lon="5.73542">
        <ele>361.253866731</ele>
        <time>2013-07-25T11:16:28Z</time>
      </trkpt>
      <trkpt lat="43.69338" lon="5.73543">
        <ele>361.69229105</ele>
        <time>2013-07-25T11:16:31Z</time>
      </trkpt>
      <trkpt lat="43.69334" lon="5.73544">
        <ele>362.14610777</ele>
        <time>2013-07-25T11:16:34Z</time>
      </trkpt>
      <trkpt lat="43.69328" lon="5.73546">
        <ele>362.680787929</ele>
        <time>2013-07-25T11:16:37Z</time>
      </trkpt>
      <trkpt lat="43.69323" lon="5.73546">
        <ele>363.242199048</ele>
        <time>2013-07-25T11:16:40Z</time>
      </trkpt>
      <trkpt lat="43.69317" lon="5.73547">
        <ele>363.861522167</ele>
        <time>2013-07-25T11:16:43Z</time>
      </trkpt>
      <trkpt lat="43.69311" lon="5.73547">
        <ele>364.523090566</ele>
        <time>2013-07-25T11:16:46Z</time>
      </trkpt>
      <trkpt lat="43.69305" lon="5.73546">
        <ele>365.142291765</ele>
        <time>2013-07-25T11:16:49Z</time>
      </trkpt>
      <trkpt lat="43.69299" lon="5.73545">
        <ele>365.711566724</ele>
        <time>2013-07-25T11:16:52Z</time>
      </trkpt>
      <trkpt lat="43.69293" lon="5.73545">
        <ele>366.219241603</ele>
        <time>2013-07-25T11:16:55Z</time>
      </trkpt>
      <trkpt lat="43.69287" lon="5.73543">
        <ele>366.761541763</ele>
        <time>2013-07-25T11:16:58Z</time>
      </trkpt>
      <trkpt lat="43.69281" lon="5.73542">
        <ele>367.307651922</ele>
        <time>2013-07-25T11:17:01Z</time>
      </trkpt>
      <trkpt lat="43.69276" lon="5.73541">
        <ele>367.896159761</ele>
        <time>2013-07-25T11:17:04Z</time>
      </trkpt>
      <trkpt lat="43.6927" lon="5.7354">
        <ele>368.48841664</ele>
        <time>2013-07-25T11:17:07Z</time>
      </trkpt>
      <trkpt lat="43.69263" lon="5.73538">
        <ele>368.988441039</ele>
        <time>2013-07-25T11:17:10Z</time>
      </trkpt>
      <trkpt lat="43.69258" lon="5.73536">
        <ele>369.453809678</ele>
        <time>2013-07-25T11:17:13Z</time>
      </trkpt>
      <trkpt lat="43.69252" lon="5.73534">
        <ele>369.923018798</ele>
        <time>2013-07-25T11:17:16Z</time>
      </trkpt>
      <trkpt lat="43.69246" lon="5.73534">
        <ele>370.392288877</ele>
        <time>2013-07-25T11:17:19Z</time>
      </trkpt>
      <trkpt lat="43.6924" lon="5.73533">
        <ele>370.788467916</ele>
        <time>2013-07-25T11:17:22Z</time>
      </trkpt>
      <trkpt lat="43.69234" lon="5.73535">
        <ele>371.084611596</ele>
        <time>2013-07-25T11:17:25Z</time>
      </trkpt>
      <trkpt lat="43.69229" lon="5.73536">
        <ele>371.346160476</ele>
        <time>2013-07-25T11:17:28Z</time>
      </trkpt>
      <trkpt lat="43.69222" lon="5.73537">
        <ele>371.546109275</ele>
        <time>2013-07-25T11:17:31Z</time>
      </trkpt>
      <trkpt lat="43.69216" lon="5.73537">
        <ele>371.757670955</ele>
        <time>2013-07-25T11:17:34Z</time>
      </trkpt>
      <trkpt lat="43.69211" lon="5.73534">
        <ele>371.999956475</ele>
        <time>2013-07-25T11:17:37Z</time>
      </trkpt>
      <trkpt lat="43.69207" lon="5.73532">
        <ele>372.223070074</ele>
        <time>2013-07-25T11:17:40Z</time>
      </trkpt>
      <trkpt lat="43.69201" lon="5.73529">
        <ele>372.426889834</ele>
        <time>2013-07-25T11:17:43Z</time>
      </trkpt>
      <trkpt lat="43.69196" lon="5.73526">
        <ele>372.661585834</ele>
        <time>2013-07-25T11:17:46Z</time>
      </trkpt>
      <trkpt lat="43.69191" lon="5.73524">
        <ele>372.965349513</ele>
        <time>2013-07-25T11:17:49Z</time>
      </trkpt>
      <trkpt lat="43.69186" lon="5.73521">
        <ele>373.280726073</ele>
        <time>2013-07-25T11:17:52Z</time>
      </trkpt>
      <trkpt lat="43.69181" lon="5.73518">
        <ele>373.619267432</ele>
        <time>2013-07-25T11:17:55Z</time>
      </trkpt>
      <trkpt lat="43.69176" lon="5.73515">
        <ele>373.965367832</ele>
        <time>2013-07-25T11:17:58Z</time>
      </trkpt>
      <trkpt lat="43.6917" lon="5.73513">
        <ele>374.276995351</ele>
        <time>2013-07-25T11:18:01Z</time>
      </trkpt>
      <trkpt lat="43.69165" lon="5.7351">
        <ele>374.603862871</ele>
        <time>2013-07-25T11:18:04Z</time>
      </trkpt>
      <trkpt lat="43.6916" lon="5.73507">
        <ele>374.95383423</ele>
        <time>2013-07-25T11:18:07Z</time>
      </trkpt>
      <trkpt lat="43.69155" lon="5.73504">
        <ele>375.29228415</ele>
        <time>2013-07-25T11:18:10Z</time>
      </trkpt>
      <trkpt lat="43.6915" lon="5.73503">
        <ele>375.638506469</ele>
        <time>2013-07-25T11:18:13Z</time>
      </trkpt>
      <trkpt lat="43.69145" lon="5.73501">
        <ele>375.965404469</ele>
        <time>2013-07-25T11:18:16Z</time>
      </trkpt>
      <trkpt lat="43.69139" lon="5.73499">
        <ele>376.276910068</ele>
        <time>2013-07-25T11:18:19Z</time>
      </trkpt>
      <trkpt lat="43.69134" lon="5.73497">
        <ele>376.553912308</ele>
        <time>2013-07-25T11:18:22Z</time>
      </trkpt>
      <trkpt lat="43.69129" lon="5.73494">
        <ele>376.811529267</ele>
        <time>2013-07-25T11:18:25Z</time>
      </trkpt>
      <trkpt lat="43.69123" lon="5.73492">
        <ele>377.061526227</ele>
        <time>2013-07-25T11:18:28Z</time>
      </trkpt>
      <trkpt lat="43.69117" lon="5.73489">
        <ele>377.288449827</ele>
        <time>2013-07-25T11:18:31Z</time>
      </trkpt>
      <trkpt lat="43.69112" lon="5.73487">
        <ele>377.526894866</ele>
        <time>2013-07-25T11:18:34Z</time>
      </trkpt>
      <trkpt lat="43.69107" lon="5.73485">
        <ele>377.780762786</ele>
        <time>2013-07-25T11:18:37Z</time>
      </trkpt>
      <trkpt lat="43.69102" lon="5.73484">
        <ele>378.023078785</ele>
        <time>2013-07-25T11:18:40Z</time>
      </trkpt>
      <trkpt lat="43.69097" lon="5.73483">
        <ele>378.296179585</ele>
        <time>2013-07-25T11:18:43Z</time>
      </trkpt>
      <trkpt lat="43.69091" lon="5.73483">
        <ele>378.573120865</ele>
        <time>2013-07-25T11:18:46Z</time>
      </trkpt>
      <trkpt lat="43.69086" lon="5.73481">
        <ele>378.903859344</ele>
        <time>2013-07-25T11:18:49Z</time>
      </trkpt>
      <trkpt lat="43.69081" lon="5.73478">
        <ele>379.265413104</ele>
        <time>2013-07-25T11:18:52Z</time>
      </trkpt>
      <trkpt lat="43.69076" lon="5.73478">
        <ele>379.573078223</ele>
        <time>2013-07-25T11:18:55Z</time>
      </trkpt>
      <trkpt lat="43.6907" lon="5.73478">
        <ele>379.803903263</ele>
        <time>2013-07-25T11:18:58Z</time>
      </trkpt>
      <trkpt lat="43.69063" lon="5.73477">
        <ele>380.000011582</ele>
        <time>2013-07-25T11:19:01Z</time>
      </trkpt>
      <trkpt lat="43.69056" lon="5.73477">
        <ele>380.149973182</ele>
        <time>2013-07-25T11:19:04Z</time>
      </trkpt>
      <trkpt lat="43.6905" lon="5.73476">
        <ele>380.315357662</ele>
        <time>2013-07-25T11:19:07Z</time>
      </trkpt>
      <trkpt lat="43.69044" lon="5.73475">
        <ele>380.484521662</ele>
        <time>2013-07-25T11:19:10Z</time>
      </trkpt>
      <trkpt lat="43.69039" lon="5.73475">
        <ele>380.638384701</ele>
        <time>2013-07-25T11:19:13Z</time>
      </trkpt>
      <trkpt lat="43.69034" lon="5.73476">
        <ele>380.734640541</ele>
        <time>2013-07-25T11:19:16Z</time>
      </trkpt>
      <trkpt lat="43.69029" lon="5.73479">
        <ele>380.819283501</ele>
        <time>2013-07-25T11:19:19Z</time>
      </trkpt>
      <trkpt lat="43.69024" lon="5.73483">
        <ele>380.950012221</ele>
        <time>2013-07-25T11:19:22Z</time>
      </trkpt>
      <trkpt lat="43.69019" lon="5.73488">
        <ele>381.111495261</ele>
        <time>2013-07-25T11:19:25Z</time>
      </trkpt>
      <trkpt lat="43.69013" lon="5.73494">
        <ele>381.28846214</ele>
        <time>2013-07-25T11:19:28Z</time>
      </trkpt>
      <trkpt lat="43.69008" lon="5.735">
        <ele>381.45000614</ele>
        <time>2013-07-25T11:19:32Z</time>
      </trkpt>
      <trkpt lat="43.69003" lon="5.73507">
        <ele>381.56540342</ele>
        <time>2013-07-25T11:19:35Z</time>
      </trkpt>
      <trkpt lat="43.68996" lon="5.73513">
        <ele>381.65766638</ele>
        <time>2013-07-25T11:19:38Z</time>
      </trkpt>
      <trkpt lat="43.6899" lon="5.73518">
        <ele>381.73465886</ele>
        <time>2013-07-25T11:19:41Z</time>
      </trkpt>
      <trkpt lat="43.68983" lon="5.73521">
        <ele>381.81540038</ele>
        <time>2013-07-25T11:19:44Z</time>
      </trkpt>
      <trkpt lat="43.68977" lon="5.73524">
        <ele>381.90388382</ele>
        <time>2013-07-25T11:19:47Z</time>
      </trkpt>
      <trkpt lat="43.6897" lon="5.73528">
        <ele>381.992336779</ele>
        <time>2013-07-25T11:19:50Z</time>
      </trkpt>
      <trkpt lat="43.68963" lon="5.73532">
        <ele>382.103863099</ele>
        <time>2013-07-25T11:19:53Z</time>
      </trkpt>
      <trkpt lat="43.68955" lon="5.73534">
        <ele>382.265407099</ele>
        <time>2013-07-25T11:19:56Z</time>
      </trkpt>
      <trkpt lat="43.68949" lon="5.73538">
        <ele>382.503882619</ele>
        <time>2013-07-25T11:19:59Z</time>
      </trkpt>
      <trkpt lat="43.68942" lon="5.73542">
        <ele>382.796216298</ele>
        <time>2013-07-25T11:20:02Z</time>
      </trkpt>
      <trkpt lat="43.68935" lon="5.73546">
        <ele>383.103820458</ele>
        <time>2013-07-25T11:20:05Z</time>
      </trkpt>
      <trkpt lat="43.68928" lon="5.7355">
        <ele>383.442300857</ele>
        <time>2013-07-25T11:20:08Z</time>
      </trkpt>
      <trkpt lat="43.68921" lon="5.73553">
        <ele>383.815376057</ele>
        <time>2013-07-25T11:20:11Z</time>
      </trkpt>
      <trkpt lat="43.68915" lon="5.73556">
        <ele>384.230787976</ele>
        <time>2013-07-25T11:20:14Z</time>
      </trkpt>
      <trkpt lat="43.68908" lon="5.7356">
        <ele>384.676954215</ele>
        <time>2013-07-25T11:20:17Z</time>
      </trkpt>
      <trkpt lat="43.68901" lon="5.73563">
        <ele>385.107697575</ele>
        <time>2013-07-25T11:20:20Z</time>
      </trkpt>
      <trkpt lat="43.68894" lon="5.73568">
        <ele>385.519238534</ele>
        <time>2013-07-25T11:20:23Z</time>
      </trkpt>
      <trkpt lat="43.68888" lon="5.73572">
        <ele>385.880761813</ele>
        <time>2013-07-25T11:20:26Z</time>
      </trkpt>
      <trkpt lat="43.68883" lon="5.73576">
        <ele>386.188396453</ele>
        <time>2013-07-25T11:20:29Z</time>
      </trkpt>
      <trkpt lat="43.68877" lon="5.73582">
        <ele>386.334639493</ele>
        <time>2013-07-25T11:20:32Z</time>
      </trkpt>
      <trkpt lat="43.68871" lon="5.73587">
        <ele>386.134660213</ele>
        <time>2013-07-25T11:20:35Z</time>
      </trkpt>
      <trkpt lat="43.68865" lon="5.73593">
        <ele>385.615341974</ele>
        <time>2013-07-25T11:20:38Z</time>
      </trkpt>
      <trkpt lat="43.68858" lon="5.73598">
        <ele>384.892264935</ele>
        <time>2013-07-25T11:20:41Z</time>
      </trkpt>
      <trkpt lat="43.68851" lon="5.73602">
        <ele>384.042330136</ele>
        <time>2013-07-25T11:20:44Z</time>
      </trkpt>
      <trkpt lat="43.68843" lon="5.73606">
        <ele>383.057673738</ele>
        <time>2013-07-25T11:20:47Z</time>
      </trkpt>
      <trkpt lat="43.68836" lon="5.73609">
        <ele>382.015440619</ele>
        <time>2013-07-25T11:20:50Z</time>
      </trkpt>
      <trkpt lat="43.68828" lon="5.7361">
        <ele>380.961594621</ele>
        <time>2013-07-25T11:20:53Z</time>
      </trkpt>
      <trkpt lat="43.68821" lon="5.73611">
        <ele>379.961576302</ele>
        <time>2013-07-25T11:20:56Z</time>
      </trkpt>
      <trkpt lat="43.68815" lon="5.73605">
        <ele>379.234597824</ele>
        <time>2013-07-25T11:20:59Z</time>
      </trkpt>
      <trkpt lat="43.6881" lon="5.73597">
        <ele>378.761517744</ele>
        <time>2013-07-25T11:21:02Z</time>
      </trkpt>
      <trkpt lat="43.68807" lon="5.73589">
        <ele>378.430718305</ele>
        <time>2013-07-25T11:21:05Z</time>
      </trkpt>
      <trkpt lat="43.68805" lon="5.73581">
        <ele>378.119212705</ele>
        <time>2013-07-25T11:21:08Z</time>
      </trkpt>
      <trkpt lat="43.68804" lon="5.73573">
        <ele>377.873086706</ele>
        <time>2013-07-25T11:21:11Z</time>
      </trkpt>
      <trkpt lat="43.68802" lon="5.73565">
        <ele>377.626930226</ele>
        <time>2013-07-25T11:21:14Z</time>
      </trkpt>
      <trkpt lat="43.68801" lon="5.73557">
        <ele>377.326885106</ele>
        <time>2013-07-25T11:21:17Z</time>
      </trkpt>
      <trkpt lat="43.68799" lon="5.73548">
        <ele>376.988435187</ele>
        <time>2013-07-25T11:21:20Z</time>
      </trkpt>
      <trkpt lat="43.68795" lon="5.73539">
        <ele>376.615359988</ele>
        <time>2013-07-25T11:21:23Z</time>
      </trkpt>
      <trkpt lat="43.68792" lon="5.73531">
        <ele>376.196138068</ele>
        <time>2013-07-25T11:21:26Z</time>
      </trkpt>
      <trkpt lat="43.68789" lon="5.73521">
        <ele>375.869270549</ele>
        <time>2013-07-25T11:21:29Z</time>
      </trkpt>
      <trkpt lat="43.68788" lon="5.73514">
        <ele>375.584617829</ele>
        <time>2013-07-25T11:21:32Z</time>
      </trkpt>
      <trkpt lat="43.68785" lon="5.73508">
        <ele>375.32697039</ele>
        <time>2013-07-25T11:21:35Z</time>
      </trkpt>
      <trkpt lat="43.68783" lon="5.73501">
        <ele>375.04999863</ele>
        <time>2013-07-25T11:21:38Z</time>
      </trkpt>
      <trkpt lat="43.6878" lon="5.73495">
        <ele>374.83459647</ele>
        <time>2013-07-25T11:21:41Z</time>
      </trkpt>
      <trkpt lat="43.68776" lon="5.73489">
        <ele>374.69615631</ele>
        <time>2013-07-25T11:21:44Z</time>
      </trkpt>
      <trkpt lat="43.6877" lon="5.73483">
        <ele>374.530771831</ele>
        <time>2013-07-25T11:21:47Z</time>
      </trkpt>
      <trkpt lat="43.68766" lon="5.73476">
        <ele>374.357645431</ele>
        <time>2013-07-25T11:21:50Z</time>
      </trkpt>
      <trkpt lat="43.68761" lon="5.7347">
        <ele>374.165377591</ele>
        <time>2013-07-25T11:21:53Z</time>
      </trkpt>
      <trkpt lat="43.68757" lon="5.73466">
        <ele>373.926932552</ele>
        <time>2013-07-25T11:21:56Z</time>
      </trkpt>
      <trkpt lat="43.68753" lon="5.7346">
        <ele>373.776909992</ele>
        <time>2013-07-25T11:21:59Z</time>
      </trkpt>
      <trkpt lat="43.68749" lon="5.73453">
        <ele>373.738444232</ele>
        <time>2013-07-25T11:22:02Z</time>
      </trkpt>
      <trkpt lat="43.68745" lon="5.73447">
        <ele>373.765419032</ele>
        <time>2013-07-25T11:22:05Z</time>
      </trkpt>
      <trkpt lat="43.68741" lon="5.73441">
        <ele>373.819216232</ele>
        <time>2013-07-25T11:22:08Z</time>
      </trkpt>
      <trkpt lat="43.68736" lon="5.73432">
        <ele>373.884595832</ele>
        <time>2013-07-25T11:22:11Z</time>
      </trkpt>
      <trkpt lat="43.68732" lon="5.73425">
        <ele>373.919190632</ele>
        <time>2013-07-25T11:22:14Z</time>
      </trkpt>
      <trkpt lat="43.68727" lon="5.73419">
        <ele>373.934613512</ele>
        <time>2013-07-25T11:22:17Z</time>
      </trkpt>
      <trkpt lat="43.68724" lon="5.73412">
        <ele>373.969208312</ele>
        <time>2013-07-25T11:22:20Z</time>
      </trkpt>
      <trkpt lat="43.68719" lon="5.73404">
        <ele>373.992251192</ele>
        <time>2013-07-25T11:22:23Z</time>
      </trkpt>
      <trkpt lat="43.68716" lon="5.73399">
        <ele>373.942294472</ele>
        <time>2013-07-25T11:22:26Z</time>
      </trkpt>
      <trkpt lat="43.68713" lon="5.73392">
        <ele>373.846160552</ele>
        <time>2013-07-25T11:22:29Z</time>
      </trkpt>
      <trkpt lat="43.68709" lon="5.73387">
        <ele>373.769259512</ele>
        <time>2013-07-25T11:22:32Z</time>
      </trkpt>
      <trkpt lat="43.68704" lon="5.73382">
        <ele>373.680715112</ele>
        <time>2013-07-25T11:22:35Z</time>
      </trkpt>
      <trkpt lat="43.68699" lon="5.73377">
        <ele>373.673064632</ele>
        <time>2013-07-25T11:22:38Z</time>
      </trkpt>
      <trkpt lat="43.68693" lon="5.73373">
        <ele>373.773099992</ele>
        <time>2013-07-25T11:22:41Z</time>
      </trkpt>
      <trkpt lat="43.68688" lon="5.73369">
        <ele>373.919251592</ele>
        <time>2013-07-25T11:22:44Z</time>
      </trkpt>
      <trkpt lat="43.68684" lon="5.73365">
        <ele>374.130813271</ele>
        <time>2013-07-25T11:22:47Z</time>
      </trkpt>
      <trkpt lat="43.68679" lon="5.7336">
        <ele>374.349994951</ele>
        <time>2013-07-25T11:22:50Z</time>
      </trkpt>
      <trkpt lat="43.68675" lon="5.73354">
        <ele>374.642359111</ele>
        <time>2013-07-25T11:22:53Z</time>
      </trkpt>
      <trkpt lat="43.6867" lon="5.73348">
        <ele>374.89232559</ele>
        <time>2013-07-25T11:22:56Z</time>
      </trkpt>
      <trkpt lat="43.68666" lon="5.73343">
        <ele>375.15384399</ele>
        <time>2013-07-25T11:22:59Z</time>
      </trkpt>
      <trkpt lat="43.68661" lon="5.73338">
        <ele>375.396099029</ele>
        <time>2013-07-25T11:23:02Z</time>
      </trkpt>
      <trkpt lat="43.68656" lon="5.73333">
        <ele>375.642285989</ele>
        <time>2013-07-25T11:23:05Z</time>
      </trkpt>
      <trkpt lat="43.6865" lon="5.73327">
        <ele>375.900024869</ele>
        <time>2013-07-25T11:23:08Z</time>
      </trkpt>
      <trkpt lat="43.68645" lon="5.73321">
        <ele>376.123047028</ele>
        <time>2013-07-25T11:23:11Z</time>
      </trkpt>
      <trkpt lat="43.68641" lon="5.73316">
        <ele>376.315284388</ele>
        <time>2013-07-25T11:23:14Z</time>
      </trkpt>
      <trkpt lat="43.68637" lon="5.7331">
        <ele>376.484600788</ele>
        <time>2013-07-25T11:23:17Z</time>
      </trkpt>
      <trkpt lat="43.68635" lon="5.73305">
        <ele>376.661537187</ele>
        <time>2013-07-25T11:23:20Z</time>
      </trkpt>
      <trkpt lat="43.68632" lon="5.733">
        <ele>376.884650787</ele>
        <time>2013-07-25T11:23:23Z</time>
      </trkpt>
      <trkpt lat="43.6863" lon="5.73294">
        <ele>377.053845267</ele>
        <time>2013-07-25T11:23:26Z</time>
      </trkpt>
      <trkpt lat="43.68626" lon="5.73289">
        <ele>377.203867827</ele>
        <time>2013-07-25T11:23:29Z</time>
      </trkpt>
      <trkpt lat="43.68623" lon="5.73283">
        <ele>377.273118387</ele>
        <time>2013-07-25T11:23:32Z</time>
      </trkpt>
      <trkpt lat="43.6862" lon="5.73277">
        <ele>377.276928387</ele>
        <time>2013-07-25T11:23:35Z</time>
      </trkpt>
      <trkpt lat="43.68616" lon="5.7327">
        <ele>377.292290307</ele>
        <time>2013-07-25T11:23:38Z</time>
      </trkpt>
      <trkpt lat="43.68613" lon="5.73263">
        <ele>377.438441906</ele>
        <time>2013-07-25T11:23:41Z</time>
      </trkpt>
      <trkpt lat="43.68611" lon="5.73256">
        <ele>377.649942626</ele>
        <time>2013-07-25T11:23:44Z</time>
      </trkpt>
      <trkpt lat="43.68608" lon="5.73248">
        <ele>377.907711986</ele>
        <time>2013-07-25T11:23:47Z</time>
      </trkpt>
      <trkpt lat="43.68606" lon="5.73241">
        <ele>378.238450465</ele>
        <time>2013-07-25T11:23:50Z</time>
      </trkpt>
      <trkpt lat="43.68604" lon="5.73233">
        <ele>378.599973745</ele>
        <time>2013-07-25T11:23:53Z</time>
      </trkpt>
      <trkpt lat="43.68602" lon="5.73225">
        <ele>379.007674224</ele>
        <time>2013-07-25T11:23:56Z</time>
      </trkpt>
      <trkpt lat="43.68601" lon="5.73217">
        <ele>379.450030463</ele>
        <time>2013-07-25T11:23:59Z</time>
      </trkpt>
      <trkpt lat="43.68599" lon="5.7321">
        <ele>379.957674862</ele>
        <time>2013-07-25T11:24:02Z</time>
      </trkpt>
      <trkpt lat="43.68596" lon="5.73203">
        <ele>380.403871582</ele>
        <time>2013-07-25T11:24:05Z</time>
      </trkpt>
      <trkpt lat="43.68594" lon="5.73197">
        <ele>380.788437741</ele>
        <time>2013-07-25T11:24:08Z</time>
      </trkpt>
      <trkpt lat="43.68591" lon="5.73193">
        <ele>381.157672461</ele>
        <time>2013-07-25T11:24:11Z</time>
      </trkpt>
      <trkpt lat="43.68587" lon="5.73186">
        <ele>381.4269023</ele>
        <time>2013-07-25T11:24:14Z</time>
      </trkpt>
      <trkpt lat="43.68584" lon="5.7318">
        <ele>381.6000287</ele>
        <time>2013-07-25T11:24:17Z</time>
      </trkpt>
      <trkpt lat="43.6858" lon="5.73173">
        <ele>381.76151174</ele>
        <time>2013-07-25T11:24:20Z</time>
      </trkpt>
      <trkpt lat="43.68578" lon="5.73167">
        <ele>381.950000059</ele>
        <time>2013-07-25T11:24:23Z</time>
      </trkpt>
      <trkpt lat="43.68576" lon="5.73161">
        <ele>382.119194539</ele>
        <time>2013-07-25T11:24:26Z</time>
      </trkpt>
      <trkpt lat="43.68573" lon="5.73154">
        <ele>382.249984219</ele>
        <time>2013-07-25T11:24:29Z</time>
      </trkpt>
      <trkpt lat="43.6857" lon="5.73146">
        <ele>382.411558699</ele>
        <time>2013-07-25T11:24:32Z</time>
      </trkpt>
      <trkpt lat="43.68569" lon="5.7314">
        <ele>382.553839339</ele>
        <time>2013-07-25T11:24:35Z</time>
      </trkpt>
      <trkpt lat="43.68565" lon="5.73133">
        <ele>382.680819018</ele>
        <time>2013-07-25T11:24:38Z</time>
      </trkpt>
      <trkpt lat="43.68562" lon="5.73127">
        <ele>382.865375418</ele>
        <time>2013-07-25T11:24:41Z</time>
      </trkpt>
      <trkpt lat="43.6856" lon="5.7312">
        <ele>383.084648538</ele>
        <time>2013-07-25T11:24:44Z</time>
      </trkpt>
      <trkpt lat="43.68557" lon="5.73113">
        <ele>383.288407337</ele>
        <time>2013-07-25T11:24:47Z</time>
      </trkpt>
      <trkpt lat="43.68554" lon="5.73109">
        <ele>383.449920857</ele>
        <time>2013-07-25T11:24:50Z</time>
      </trkpt>
      <trkpt lat="43.68549" lon="5.73107">
        <ele>383.665414457</ele>
        <time>2013-07-25T11:24:53Z</time>
      </trkpt>
      <trkpt lat="43.68543" lon="5.73106">
        <ele>383.946165736</ele>
        <time>2013-07-25T11:24:56Z</time>
      </trkpt>
      <trkpt lat="43.68538" lon="5.73105">
        <ele>384.242309416</ele>
        <time>2013-07-25T11:24:59Z</time>
      </trkpt>
      <trkpt lat="43.68532" lon="5.73103">
        <ele>384.523121656</ele>
        <time>2013-07-25T11:25:02Z</time>
      </trkpt>
      <trkpt lat="43.68527" lon="5.731">
        <ele>384.830786775</ele>
        <time>2013-07-25T11:25:05Z</time>
      </trkpt>
      <trkpt lat="43.68521" lon="5.73101">
        <ele>385.134641895</ele>
        <time>2013-07-25T11:25:08Z</time>
      </trkpt>
      <trkpt lat="43.68514" lon="5.73101">
        <ele>385.465349894</ele>
        <time>2013-07-25T11:25:11Z</time>
      </trkpt>
      <trkpt lat="43.68506" lon="5.73098">
        <ele>385.850037974</ele>
        <time>2013-07-25T11:25:14Z</time>
      </trkpt>
      <trkpt lat="43.68499" lon="5.73097">
        <ele>386.292302773</ele>
        <time>2013-07-25T11:25:17Z</time>
      </trkpt>
      <trkpt lat="43.68495" lon="5.73095">
        <ele>386.765352372</ele>
        <time>2013-07-25T11:25:20Z</time>
      </trkpt>
      <trkpt lat="43.68493" lon="5.73093">
        <ele>387.219230051</ele>
        <time>2013-07-25T11:25:23Z</time>
      </trkpt>
      <trkpt lat="43.68493" lon="5.73092">
        <ele>387.703892531</ele>
        <time>2013-07-25T11:25:26Z</time>
      </trkpt>
      <trkpt lat="43.68496" lon="5.73095">
        <ele>388.21540789</ele>
        <time>2013-07-25T11:25:29Z</time>
      </trkpt>
      <trkpt lat="43.685" lon="5.73097">
        <ele>388.738475169</ele>
        <time>2013-07-25T11:25:32Z</time>
      </trkpt>
      <trkpt lat="43.68505" lon="5.731">
        <ele>389.276934848</ele>
        <time>2013-07-25T11:25:35Z</time>
      </trkpt>
      <trkpt lat="43.6851" lon="5.73102">
        <ele>389.823075487</ele>
        <time>2013-07-25T11:25:38Z</time>
      </trkpt>
      <trkpt lat="43.68515" lon="5.73104">
        <ele>390.365375647</ele>
        <time>2013-07-25T11:25:41Z</time>
      </trkpt>
      <trkpt lat="43.68521" lon="5.73105">
        <ele>390.942301086</ele>
        <time>2013-07-25T11:25:44Z</time>
      </trkpt>
      <trkpt lat="43.68527" lon="5.73107">
        <ele>391.515325085</ele>
        <time>2013-07-25T11:25:47Z</time>
      </trkpt>
      <trkpt lat="43.68532" lon="5.73111">
        <ele>392.138458204</ele>
        <time>2013-07-25T11:25:50Z</time>
      </trkpt>
      <trkpt lat="43.68537" lon="5.73113">
        <ele>392.807677083</ele>
        <time>2013-07-25T11:25:53Z</time>
      </trkpt>
      <trkpt lat="43.68542" lon="5.73116">
        <ele>393.526913642</ele>
        <time>2013-07-25T11:25:56Z</time>
      </trkpt>
      <trkpt lat="43.68548" lon="5.73122">
        <ele>394.299977881</ele>
        <time>2013-07-25T11:25:59Z</time>
      </trkpt>
      <trkpt lat="43.68553" lon="5.73129">
        <ele>395.142353639</ele>
        <time>2013-07-25T11:26:02Z</time>
      </trkpt>
      <trkpt lat="43.68557" lon="5.73138">
        <ele>395.988478438</ele>
        <time>2013-07-25T11:26:05Z</time>
      </trkpt>
      <trkpt lat="43.68562" lon="5.73149">
        <ele>396.511484757</ele>
        <time>2013-07-25T11:26:08Z</time>
      </trkpt>
      <trkpt lat="43.68567" lon="5.73159">
        <ele>396.450006597</ele>
        <time>2013-07-25T11:26:11Z</time>
      </trkpt>
      <trkpt lat="43.68571" lon="5.73168">
        <ele>396.126979558</ele>
        <time>2013-07-25T11:26:14Z</time>
      </trkpt>
      <trkpt lat="43.68576" lon="5.73175">
        <ele>395.599949879</ele>
        <time>2013-07-25T11:26:17Z</time>
      </trkpt>
      <trkpt lat="43.68581" lon="5.73185">
        <ele>394.84224756</ele>
        <time>2013-07-25T11:26:20Z</time>
      </trkpt>
      <trkpt lat="43.68586" lon="5.73193">
        <ele>393.876915481</ele>
        <time>2013-07-25T11:26:23Z</time>
      </trkpt>
      <trkpt lat="43.68592" lon="5.732">
        <ele>392.726905083</ele>
        <time>2013-07-25T11:26:26Z</time>
      </trkpt>
      <trkpt lat="43.68596" lon="5.73209">
        <ele>391.411601645</ele>
        <time>2013-07-25T11:26:29Z</time>
      </trkpt>
      <trkpt lat="43.68599" lon="5.7322">
        <ele>389.923141327</ele>
        <time>2013-07-25T11:26:32Z</time>
      </trkpt>
      <trkpt lat="43.68602" lon="5.73229">
        <ele>388.900049649</ele>
        <time>2013-07-25T11:26:35Z</time>
      </trkpt>
      <trkpt lat="43.68605" lon="5.7324">
        <ele>388.21150645</ele>
        <time>2013-07-25T11:26:38Z</time>
      </trkpt>
      <trkpt lat="43.68608" lon="5.7325">
        <ele>387.622998611</ele>
        <time>2013-07-25T11:26:41Z</time>
      </trkpt>
      <trkpt lat="43.68612" lon="5.73258">
        <ele>387.099992292</ele>
        <time>2013-07-25T11:26:44Z</time>
      </trkpt>
      <trkpt lat="43.68615" lon="5.73268">
        <ele>386.653826052</ele>
        <time>2013-07-25T11:26:47Z</time>
      </trkpt>
      <trkpt lat="43.68618" lon="5.73277">
        <ele>386.207720773</ele>
        <time>2013-07-25T11:26:50Z</time>
      </trkpt>
      <trkpt lat="43.68622" lon="5.73286">
        <ele>385.711475894</ele>
        <time>2013-07-25T11:26:53Z</time>
      </trkpt>
      <trkpt lat="43.68625" lon="5.73294">
        <ele>385.176887175</ele>
        <time>2013-07-25T11:26:56Z</time>
      </trkpt>
      <trkpt lat="43.68628" lon="5.73304">
        <ele>384.653880855</ele>
        <time>2013-07-25T11:26:59Z</time>
      </trkpt>
      <trkpt lat="43.6863" lon="5.73313">
        <ele>384.061532536</ele>
        <time>2013-07-25T11:27:02Z</time>
      </trkpt>
      <trkpt lat="43.68633" lon="5.73322">
        <ele>383.465343737</ele>
        <time>2013-07-25T11:27:05Z</time>
      </trkpt>
      <trkpt lat="43.68637" lon="5.73332">
        <ele>382.857694458</ele>
        <time>2013-07-25T11:27:08Z</time>
      </trkpt>
      <trkpt lat="43.68642" lon="5.7334">
        <ele>382.250014699</ele>
        <time>2013-07-25T11:27:11Z</time>
      </trkpt>
      <trkpt lat="43.68647" lon="5.73348">
        <ele>381.70771454</ele>
        <time>2013-07-25T11:27:14Z</time>
      </trkpt>
      <trkpt lat="43.68653" lon="5.73356">
        <ele>381.234603981</ele>
        <time>2013-07-25T11:27:17Z</time>
      </trkpt>
      <trkpt lat="43.68658" lon="5.73364">
        <ele>380.911485501</ele>
        <time>2013-07-25T11:27:20Z</time>
      </trkpt>
      <trkpt lat="43.68664" lon="5.73371">
        <ele>380.669230461</ele>
        <time>2013-07-25T11:27:23Z</time>
      </trkpt>
      <trkpt lat="43.68671" lon="5.73379">
        <ele>380.473030702</ele>
        <time>2013-07-25T11:27:26Z</time>
      </trkpt>
      <trkpt lat="43.68677" lon="5.73386">
        <ele>380.323130062</ele>
        <time>2013-07-25T11:27:29Z</time>
      </trkpt>
      <trkpt lat="43.68683" lon="5.73394">
        <ele>380.146132702</ele>
        <time>2013-07-25T11:27:32Z</time>
      </trkpt>
      <trkpt lat="43.68687" lon="5.73401">
        <ele>379.957644382</ele>
        <time>2013-07-25T11:27:35Z</time>
      </trkpt>
      <trkpt lat="43.6869" lon="5.73409">
        <ele>379.807652303</ele>
        <time>2013-07-25T11:27:38Z</time>
      </trkpt>
      <trkpt lat="43.68695" lon="5.73417">
        <ele>379.576949183</ele>
        <time>2013-07-25T11:27:41Z</time>
      </trkpt>
      <trkpt lat="43.68701" lon="5.73427">
        <ele>379.311590303</ele>
        <time>2013-07-25T11:27:44Z</time>
      </trkpt>
      <trkpt lat="43.68714" lon="5.73429">
        <ele>379.038459024</ele>
        <time>2013-07-25T11:27:47Z</time>
      </trkpt>
      <trkpt lat="43.68721" lon="5.73435">
        <ele>378.803793504</ele>
        <time>2013-07-25T11:27:50Z</time>
      </trkpt>
      <trkpt lat="43.68727" lon="5.73442">
        <ele>378.592262305</ele>
        <time>2013-07-25T11:27:53Z</time>
      </trkpt>
      <trkpt lat="43.68733" lon="5.73449">
        <ele>378.357688225</ele>
        <time>2013-07-25T11:27:56Z</time>
      </trkpt>
      <trkpt lat="43.68739" lon="5.73455">
        <ele>378.103789825</ele>
        <time>2013-07-25T11:27:59Z</time>
      </trkpt>
      <trkpt lat="43.68746" lon="5.73462">
        <ele>377.784603266</ele>
        <time>2013-07-25T11:28:02Z</time>
      </trkpt>
      <trkpt lat="43.68752" lon="5.73468">
        <ele>377.449963346</ele>
        <time>2013-07-25T11:28:05Z</time>
      </trkpt>
      <trkpt lat="43.68758" lon="5.73475">
        <ele>377.176953987</ele>
        <time>2013-07-25T11:28:08Z</time>
      </trkpt>
      <trkpt lat="43.68763" lon="5.73482">
        <ele>376.873037907</ele>
        <time>2013-07-25T11:28:11Z</time>
      </trkpt>
      <trkpt lat="43.6877" lon="5.7349">
        <ele>376.465306948</ele>
        <time>2013-07-25T11:28:14Z</time>
      </trkpt>
      <trkpt lat="43.68776" lon="5.73497">
        <ele>376.034655028</ele>
        <time>2013-07-25T11:28:17Z</time>
      </trkpt>
      <trkpt lat="43.68782" lon="5.73503">
        <ele>375.607691189</ele>
        <time>2013-07-25T11:28:20Z</time>
      </trkpt>
      <trkpt lat="43.68786" lon="5.73509">
        <ele>375.18846927</ele>
        <time>2013-07-25T11:28:23Z</time>
      </trkpt>
      <trkpt lat="43.68791" lon="5.73518">
        <ele>374.80000167</ele>
        <time>2013-07-25T11:28:26Z</time>
      </trkpt>
      <trkpt lat="43.68795" lon="5.73529">
        <ele>374.446159351</ele>
        <time>2013-07-25T11:28:29Z</time>
      </trkpt>
      <trkpt lat="43.68798" lon="5.7354">
        <ele>374.088446071</ele>
        <time>2013-07-25T11:28:32Z</time>
      </trkpt>
      <trkpt lat="43.68803" lon="5.73551">
        <ele>373.696107512</ele>
        <time>2013-07-25T11:28:35Z</time>
      </trkpt>
      <trkpt lat="43.68807" lon="5.73562">
        <ele>373.376859992</ele>
        <time>2013-07-25T11:28:38Z</time>
      </trkpt>
      <trkpt lat="43.68809" lon="5.7357">
        <ele>373.115372073</ele>
        <time>2013-07-25T11:28:41Z</time>
      </trkpt>
      <trkpt lat="43.6881" lon="5.7358">
        <ele>372.861534633</ele>
        <time>2013-07-25T11:28:44Z</time>
      </trkpt>
      <trkpt lat="43.68805" lon="5.73587">
        <ele>372.653843914</ele>
        <time>2013-07-25T11:28:47Z</time>
      </trkpt>
      <trkpt lat="43.68796" lon="5.73591">
        <ele>372.492360874</ele>
        <time>2013-07-25T11:28:50Z</time>
      </trkpt>
      <trkpt lat="43.68787" lon="5.73594">
        <ele>372.276897754</ele>
        <time>2013-07-25T11:28:53Z</time>
      </trkpt>
      <trkpt lat="43.68779" lon="5.73596">
        <ele>372.038422235</ele>
        <time>2013-07-25T11:28:56Z</time>
      </trkpt>
      <trkpt lat="43.68771" lon="5.73599">
        <ele>371.773032875</ele>
        <time>2013-07-25T11:28:59Z</time>
      </trkpt>
      <trkpt lat="43.68762" lon="5.73601">
        <ele>371.534648795</ele>
        <time>2013-07-25T11:29:02Z</time>
      </trkpt>
      <trkpt lat="43.68755" lon="5.73604">
        <ele>371.238444156</ele>
        <time>2013-07-25T11:29:05Z</time>
      </trkpt>
      <trkpt lat="43.68746" lon="5.73606">
        <ele>370.915417116</ele>
        <time>2013-07-25T11:29:08Z</time>
      </trkpt>
      <trkpt lat="43.68739" lon="5.73608">
        <ele>370.573065757</ele>
        <time>2013-07-25T11:29:11Z</time>
      </trkpt>
      <trkpt lat="43.68731" lon="5.73611">
        <ele>370.169266717</ele>
        <time>2013-07-25T11:29:14Z</time>
      </trkpt>
      <trkpt lat="43.68723" lon="5.73614">
        <ele>369.742333358</ele>
        <time>2013-07-25T11:29:17Z</time>
      </trkpt>
      <trkpt lat="43.68716" lon="5.73616">
        <ele>369.353835279</ele>
        <time>2013-07-25T11:29:20Z</time>
      </trkpt>
      <trkpt lat="43.68708" lon="5.73618">
        <ele>369.034679199</ele>
        <time>2013-07-25T11:29:23Z</time>
      </trkpt>
      <trkpt lat="43.687" lon="5.73621">
        <ele>368.67687448</ele>
        <time>2013-07-25T11:29:26Z</time>
      </trkpt>
      <trkpt lat="43.68692" lon="5.73624">
        <ele>368.33461456</ele>
        <time>2013-07-25T11:29:29Z</time>
      </trkpt>
      <trkpt lat="43.68684" lon="5.73625">
        <ele>368.023078481</ele>
        <time>2013-07-25T11:29:32Z</time>
      </trkpt>
      <trkpt lat="43.68676" lon="5.73623">
        <ele>367.738456241</ele>
        <time>2013-07-25T11:29:35Z</time>
      </trkpt>
      <trkpt lat="43.6867" lon="5.73618">
        <ele>367.492238801</ele>
        <time>2013-07-25T11:29:38Z</time>
      </trkpt>
      <trkpt lat="43.68664" lon="5.73613">
        <ele>367.261535682</ele>
        <time>2013-07-25T11:29:41Z</time>
      </trkpt>
      <trkpt lat="43.68658" lon="5.73604">
        <ele>367.073047362</ele>
        <time>2013-07-25T11:29:44Z</time>
      </trkpt>
      <trkpt lat="43.68654" lon="5.73595">
        <ele>366.938447682</ele>
        <time>2013-07-25T11:29:47Z</time>
      </trkpt>
      <trkpt lat="43.68651" lon="5.73587">
        <ele>366.861577122</ele>
        <time>2013-07-25T11:29:50Z</time>
      </trkpt>
      <trkpt lat="43.68647" lon="5.73579">
        <ele>366.869258082</ele>
        <time>2013-07-25T11:29:53Z</time>
      </trkpt>
      <trkpt lat="43.68643" lon="5.73571">
        <ele>366.911564322</ele>
        <time>2013-07-25T11:29:56Z</time>
      </trkpt>
      <trkpt lat="43.68638" lon="5.73563">
        <ele>367.023060162</ele>
        <time>2013-07-25T11:29:59Z</time>
      </trkpt>
      <trkpt lat="43.68634" lon="5.73556">
        <ele>367.157690322</ele>
        <time>2013-07-25T11:30:02Z</time>
      </trkpt>
      <trkpt lat="43.6863" lon="5.73549">
        <ele>367.319203842</ele>
        <time>2013-07-25T11:30:05Z</time>
      </trkpt>
      <trkpt lat="43.68626" lon="5.73542">
        <ele>367.584593201</ele>
        <time>2013-07-25T11:30:08Z</time>
      </trkpt>
      <trkpt lat="43.68622" lon="5.73535">
        <ele>367.903779761</ele>
        <time>2013-07-25T11:30:11Z</time>
      </trkpt>
      <trkpt lat="43.68619" lon="5.73526">
        <ele>368.257744</ele>
        <time>2013-07-25T11:30:14Z</time>
      </trkpt>
      <trkpt lat="43.68614" lon="5.73519">
        <ele>368.65386208</ele>
        <time>2013-07-25T11:30:17Z</time>
      </trkpt>
      <trkpt lat="43.6861" lon="5.73512">
        <ele>369.007704399</ele>
        <time>2013-07-25T11:30:20Z</time>
      </trkpt>
      <trkpt lat="43.68607" lon="5.73506">
        <ele>369.396141519</ele>
        <time>2013-07-25T11:30:23Z</time>
      </trkpt>
      <trkpt lat="43.68601" lon="5.73502">
        <ele>369.753824318</ele>
        <time>2013-07-25T11:30:26Z</time>
      </trkpt>
      <trkpt lat="43.68595" lon="5.735">
        <ele>370.126899517</ele>
        <time>2013-07-25T11:30:29Z</time>
      </trkpt>
      <trkpt lat="43.68591" lon="5.73505">
        <ele>370.415392717</ele>
        <time>2013-07-25T11:30:32Z</time>
      </trkpt>
      <trkpt lat="43.68586" lon="5.7351">
        <ele>370.557673357</ele>
        <time>2013-07-25T11:30:35Z</time>
      </trkpt>
      <trkpt lat="43.68582" lon="5.73517">
        <ele>370.630733917</ele>
        <time>2013-07-25T11:30:38Z</time>
      </trkpt>
      <trkpt lat="43.6858" lon="5.73524">
        <ele>370.630794877</ele>
        <time>2013-07-25T11:30:41Z</time>
      </trkpt>
      <trkpt lat="43.68578" lon="5.73533">
        <ele>370.530789997</ele>
        <time>2013-07-25T11:30:44Z</time>
      </trkpt>
      <trkpt lat="43.68577" lon="5.73538">
        <ele>370.411552237</ele>
        <time>2013-07-25T11:30:47Z</time>
      </trkpt>
      <trkpt lat="43.68575" lon="5.73543">
        <ele>370.207732477</ele>
        <time>2013-07-25T11:30:50Z</time>
      </trkpt>
      <trkpt lat="43.68573" lon="5.7355">
        <ele>369.953834078</ele>
        <time>2013-07-25T11:30:53Z</time>
      </trkpt>
      <trkpt lat="43.6857" lon="5.73558">
        <ele>369.607703198</ele>
        <time>2013-07-25T11:30:56Z</time>
      </trkpt>
      <trkpt lat="43.68567" lon="5.73565">
        <ele>369.330761919</ele>
        <time>2013-07-25T11:30:59Z</time>
      </trkpt>
      <trkpt lat="43.68565" lon="5.73572">
        <ele>369.088415439</ele>
        <time>2013-07-25T11:31:02Z</time>
      </trkpt>
      <trkpt lat="43.68561" lon="5.7358">
        <ele>368.792302239</ele>
        <time>2013-07-25T11:31:05Z</time>
      </trkpt>
      <trkpt lat="43.68555" lon="5.73585">
        <ele>368.50383952</ele>
        <time>2013-07-25T11:31:08Z</time>
      </trkpt>
      <trkpt lat="43.68551" lon="5.73593">
        <ele>368.23079968</ele>
        <time>2013-07-25T11:31:11Z</time>
      </trkpt>
      <trkpt lat="43.68546" lon="5.73599">
        <ele>367.965349361</ele>
        <time>2013-07-25T11:31:14Z</time>
      </trkpt>
      <trkpt lat="43.68539" lon="5.73606">
        <ele>367.700020961</ele>
        <time>2013-07-25T11:31:17Z</time>
      </trkpt>
      <trkpt lat="43.68533" lon="5.73612">
        <ele>367.461545441</ele>
        <time>2013-07-25T11:31:20Z</time>
      </trkpt>
      <trkpt lat="43.68528" lon="5.73618">
        <ele>367.238462322</ele>
        <time>2013-07-25T11:31:23Z</time>
      </trkpt>
      <trkpt lat="43.68524" lon="5.73625">
        <ele>367.023090642</ele>
        <time>2013-07-25T11:31:26Z</time>
      </trkpt>
      <trkpt lat="43.68521" lon="5.73633">
        <ele>366.853804722</ele>
        <time>2013-07-25T11:31:29Z</time>
      </trkpt>
      <trkpt lat="43.68518" lon="5.73641">
        <ele>366.730756963</ele>
        <time>2013-07-25T11:31:32Z</time>
      </trkpt>
      <trkpt lat="43.68515" lon="5.7365">
        <ele>366.642304003</ele>
        <time>2013-07-25T11:31:35Z</time>
      </trkpt>
      <trkpt lat="43.68515" lon="5.73658">
        <ele>366.599997763</ele>
        <time>2013-07-25T11:31:38Z</time>
      </trkpt>
      <trkpt lat="43.68513" lon="5.73667">
        <ele>366.576924403</ele>
        <time>2013-07-25T11:31:41Z</time>
      </trkpt>
      <trkpt lat="43.68512" lon="5.73676">
        <ele>366.657726883</ele>
        <time>2013-07-25T11:31:44Z</time>
      </trkpt>
      <trkpt lat="43.68512" lon="5.73687">
        <ele>366.826951842</ele>
        <time>2013-07-25T11:31:47Z</time>
      </trkpt>
      <trkpt lat="43.68512" lon="5.73695">
        <ele>367.069206882</ele>
        <time>2013-07-25T11:31:50Z</time>
      </trkpt>
      <trkpt lat="43.68512" lon="5.73702">
        <ele>367.300001442</ele>
        <time>2013-07-25T11:31:53Z</time>
      </trkpt>
      <trkpt lat="43.68513" lon="5.73709">
        <ele>367.526894561</ele>
        <time>2013-07-25T11:31:56Z</time>
      </trkpt>
      <trkpt lat="43.68513" lon="5.73715">
        <ele>367.769210561</ele>
        <time>2013-07-25T11:31:59Z</time>
      </trkpt>
      <trkpt lat="43.68513" lon="5.73723">
        <ele>367.988483681</ele>
        <time>2013-07-25T11:32:02Z</time>
      </trkpt>
      <trkpt lat="43.68514" lon="5.73733">
        <ele>368.13463528</ele>
        <time>2013-07-25T11:32:05Z</time>
      </trkpt>
      <trkpt lat="43.68515" lon="5.73743">
        <ele>368.20382488</ele>
        <time>2013-07-25T11:32:08Z</time>
      </trkpt>
      <trkpt lat="43.68516" lon="5.73754">
        <ele>368.16926056</ele>
        <time>2013-07-25T11:32:11Z</time>
      </trkpt>
      <trkpt lat="43.68516" lon="5.73765">
        <ele>368.049992321</ele>
        <time>2013-07-25T11:32:14Z</time>
      </trkpt>
      <trkpt lat="43.68516" lon="5.73776">
        <ele>367.915362161</ele>
        <time>2013-07-25T11:32:17Z</time>
      </trkpt>
      <trkpt lat="43.68517" lon="5.73786">
        <ele>367.815387761</ele>
        <time>2013-07-25T11:32:20Z</time>
      </trkpt>
      <trkpt lat="43.68518" lon="5.73795">
        <ele>367.711481441</ele>
        <time>2013-07-25T11:32:23Z</time>
      </trkpt>
      <trkpt lat="43.6852" lon="5.73805">
        <ele>367.569261761</ele>
        <time>2013-07-25T11:32:26Z</time>
      </trkpt>
      <trkpt lat="43.68521" lon="5.73815">
        <ele>367.430821602</ele>
        <time>2013-07-25T11:32:29Z</time>
      </trkpt>
      <trkpt lat="43.68521" lon="5.73825">
        <ele>367.361540562</ele>
        <time>2013-07-25T11:32:32Z</time>
      </trkpt>
      <trkpt lat="43.68521" lon="5.73835">
        <ele>367.326945762</ele>
        <time>2013-07-25T11:32:35Z</time>
      </trkpt>
      <trkpt lat="43.68521" lon="5.73845">
        <ele>367.284639522</ele>
        <time>2013-07-25T11:32:38Z</time>
      </trkpt>
      <trkpt lat="43.68522" lon="5.73856">
        <ele>367.276897602</ele>
        <time>2013-07-25T11:32:41Z</time>
      </trkpt>
      <trkpt lat="43.68521" lon="5.73868">
        <ele>367.307651922</ele>
        <time>2013-07-25T11:32:44Z</time>
      </trkpt>
      <trkpt lat="43.68519" lon="5.73879">
        <ele>367.323105282</ele>
        <time>2013-07-25T11:32:47Z</time>
      </trkpt>
      <trkpt lat="43.68516" lon="5.73888">
        <ele>367.403846802</ele>
        <time>2013-07-25T11:32:50Z</time>
      </trkpt>
      <trkpt lat="43.68512" lon="5.73899">
        <ele>367.507692161</ele>
        <time>2013-07-25T11:32:53Z</time>
      </trkpt>
      <trkpt lat="43.68509" lon="5.7391">
        <ele>367.661585681</ele>
        <time>2013-07-25T11:32:56Z</time>
      </trkpt>
      <trkpt lat="43.68505" lon="5.73919">
        <ele>367.784633441</ele>
        <time>2013-07-25T11:32:59Z</time>
      </trkpt>
      <trkpt lat="43.68501" lon="5.7393">
        <ele>367.949926481</ele>
        <time>2013-07-25T11:33:02Z</time>
      </trkpt>
      <trkpt lat="43.68499" lon="5.7394">
        <ele>368.13073384</ele>
        <time>2013-07-25T11:33:05Z</time>
      </trkpt>
      <trkpt lat="43.68496" lon="5.7395">
        <ele>368.33842456</ele>
        <time>2013-07-25T11:33:08Z</time>
      </trkpt>
      <trkpt lat="43.68493" lon="5.7396">
        <ele>368.59997344</ele>
        <time>2013-07-25T11:33:11Z</time>
      </trkpt>
      <trkpt lat="43.68488" lon="5.7397">
        <ele>368.888466639</ele>
        <time>2013-07-25T11:33:14Z</time>
      </trkpt>
      <trkpt lat="43.68484" lon="5.73977">
        <ele>369.130813119</ele>
        <time>2013-07-25T11:33:17Z</time>
      </trkpt>
      <trkpt lat="43.68479" lon="5.73982">
        <ele>369.349964319</ele>
        <time>2013-07-25T11:33:20Z</time>
      </trkpt>
      <trkpt lat="43.68475" lon="5.73991">
        <ele>369.565427438</ele>
        <time>2013-07-25T11:33:23Z</time>
      </trkpt>
      <trkpt lat="43.68472" lon="5.73999">
        <ele>369.803872478</ele>
        <time>2013-07-25T11:33:26Z</time>
      </trkpt>
      <trkpt lat="43.68469" lon="5.74009">
        <ele>370.000041758</ele>
        <time>2013-07-25T11:33:29Z</time>
      </trkpt>
      <trkpt lat="43.68467" lon="5.7402">
        <ele>370.096145197</ele>
        <time>2013-07-25T11:33:32Z</time>
      </trkpt>
      <trkpt lat="43.68464" lon="5.74032">
        <ele>370.046188478</ele>
        <time>2013-07-25T11:33:35Z</time>
      </trkpt>
      <trkpt lat="43.68465" lon="5.74043">
        <ele>369.915398798</ele>
        <time>2013-07-25T11:33:38Z</time>
      </trkpt>
      <trkpt lat="43.68468" lon="5.74052">
        <ele>369.796069598</ele>
        <time>2013-07-25T11:33:41Z</time>
      </trkpt>
      <trkpt lat="43.68471" lon="5.74063">
        <ele>369.755988398</ele>
        <time>2013-07-25T11:33:44Z</time>
      </trkpt>
      <trkpt lat="43.68472" lon="5.74073">
        <ele>369.767967038</ele>
        <time>2013-07-25T11:33:47Z</time>
      </trkpt>
      <trkpt lat="43.68472" lon="5.7408">
        <ele>369.783999518</ele>
        <time>2013-07-25T11:33:50Z</time>
      </trkpt>
      <trkpt lat="43.6847" lon="5.74086">
        <ele>369.763974158</ele>
        <time>2013-07-25T11:33:53Z</time>
      </trkpt>
      <trkpt lat="43.68465" lon="5.74087">
        <ele>369.791985278</ele>
        <time>2013-07-25T11:33:56Z</time>
      </trkpt>
      <trkpt lat="43.68461" lon="5.74087">
        <ele>369.936003278</ele>
        <time>2013-07-25T11:33:59Z</time>
      </trkpt>
      <trkpt lat="43.68457" lon="5.74088">
        <ele>370.124003917</ele>
        <time>2013-07-25T11:34:02Z</time>
      </trkpt>
      <trkpt lat="43.68452" lon="5.74087">
        <ele>370.248027037</ele>
        <time>2013-07-25T11:34:05Z</time>
      </trkpt>
      <trkpt lat="43.68447" lon="5.74085">
        <ele>370.263998557</ele>
        <time>2013-07-25T11:34:08Z</time>
      </trkpt>
      <trkpt lat="43.68442" lon="5.7408">
        <ele>370.179995677</ele>
        <time>2013-07-25T11:34:11Z</time>
      </trkpt>
      <trkpt lat="43.68436" lon="5.74077">
        <ele>370.091969437</ele>
        <time>2013-07-25T11:34:14Z</time>
      </trkpt>
      <trkpt lat="43.68431" lon="5.74076">
        <ele>370.067951197</ele>
        <time>2013-07-25T11:34:17Z</time>
      </trkpt>
      <trkpt lat="43.68427" lon="5.74076">
        <ele>370.052010158</ele>
        <time>2013-07-25T11:34:20Z</time>
      </trkpt>
      <trkpt lat="43.68421" lon="5.74075">
        <ele>369.980046878</ele>
        <time>2013-07-25T11:34:23Z</time>
      </trkpt>
      <trkpt lat="43.68417" lon="5.74072">
        <ele>369.959960558</ele>
        <time>2013-07-25T11:34:26Z</time>
      </trkpt>
      <trkpt lat="43.68413" lon="5.74073">
        <ele>370.035977678</ele>
        <time>2013-07-25T11:34:29Z</time>
      </trkpt>
      <trkpt lat="43.68409" lon="5.74072">
        <ele>370.143998797</ele>
        <time>2013-07-25T11:34:32Z</time>
      </trkpt>
      <trkpt lat="43.68403" lon="5.74071">
        <ele>370.331938477</ele>
        <time>2013-07-25T11:34:35Z</time>
      </trkpt>
      <trkpt lat="43.68397" lon="5.74069">
        <ele>370.543957357</ele>
        <time>2013-07-25T11:34:38Z</time>
      </trkpt>
      <trkpt lat="43.68393" lon="5.74068">
        <ele>370.748020956</ele>
        <time>2013-07-25T11:34:41Z</time>
      </trkpt>
      <trkpt lat="43.68388" lon="5.74067">
        <ele>371.035995996</ele>
        <time>2013-07-25T11:34:44Z</time>
      </trkpt>
      <trkpt lat="43.68384" lon="5.74066">
        <ele>371.488014395</ele>
        <time>2013-07-25T11:34:47Z</time>
      </trkpt>
      <trkpt lat="43.6838" lon="5.74065">
        <ele>371.971975835</ele>
        <time>2013-07-25T11:34:50Z</time>
      </trkpt>
      <trkpt lat="43.68378" lon="5.74067">
        <ele>372.412015594</ele>
        <time>2013-07-25T11:34:53Z</time>
      </trkpt>
      <trkpt lat="43.68376" lon="5.74069">
        <ele>372.880005513</ele>
        <time>2013-07-25T11:34:56Z</time>
      </trkpt>
      <trkpt lat="43.68374" lon="5.74072">
        <ele>373.356011672</ele>
        <time>2013-07-25T11:34:59Z</time>
      </trkpt>
      <trkpt lat="43.68372" lon="5.74075">
        <ele>373.863991352</ele>
        <time>2013-07-25T11:35:02Z</time>
      </trkpt>
      <trkpt lat="43.68368" lon="5.74078">
        <ele>374.375994391</ele>
        <time>2013-07-25T11:35:05Z</time>
      </trkpt>
      <trkpt lat="43.68365" lon="5.7408">
        <ele>374.88001167</ele>
        <time>2013-07-25T11:35:08Z</time>
      </trkpt>
      <trkpt lat="43.68359" lon="5.7408">
        <ele>375.30002607</ele>
        <time>2013-07-25T11:35:11Z</time>
      </trkpt>
      <trkpt lat="43.68354" lon="5.7408">
        <ele>375.656062949</ele>
        <time>2013-07-25T11:35:14Z</time>
      </trkpt>
      <trkpt lat="43.6835" lon="5.74081">
        <ele>376.024017508</ele>
        <time>2013-07-25T11:35:17Z</time>
      </trkpt>
      <trkpt lat="43.68346" lon="5.74081">
        <ele>376.387979188</ele>
        <time>2013-07-25T11:35:20Z</time>
      </trkpt>
      <trkpt lat="43.68341" lon="5.7408">
        <ele>376.795984467</ele>
        <time>2013-07-25T11:35:23Z</time>
      </trkpt>
      <trkpt lat="43.68337" lon="5.7408">
        <ele>377.251934787</ele>
        <time>2013-07-25T11:35:26Z</time>
      </trkpt>
      <trkpt lat="43.68332" lon="5.74079">
        <ele>377.683988786</ele>
        <time>2013-07-25T11:35:29Z</time>
      </trkpt>
      <trkpt lat="43.68326" lon="5.74078">
        <ele>378.100040785</ele>
        <time>2013-07-25T11:35:32Z</time>
      </trkpt>
      <trkpt lat="43.68322" lon="5.74078">
        <ele>378.535996225</ele>
        <time>2013-07-25T11:35:35Z</time>
      </trkpt>
      <trkpt lat="43.68318" lon="5.74078">
        <ele>378.983930304</ele>
        <time>2013-07-25T11:35:38Z</time>
      </trkpt>
      <trkpt lat="43.68312" lon="5.74081">
        <ele>379.432016783</ele>
        <time>2013-07-25T11:35:41Z</time>
      </trkpt>
      <trkpt lat="43.68309" lon="5.74084">
        <ele>379.887997583</ele>
        <time>2013-07-25T11:35:44Z</time>
      </trkpt>
      <trkpt lat="43.68305" lon="5.74088">
        <ele>380.360041342</ele>
        <time>2013-07-25T11:35:47Z</time>
      </trkpt>
      <trkpt lat="43.68299" lon="5.74088">
        <ele>380.872074861</ele>
        <time>2013-07-25T11:35:50Z</time>
      </trkpt>
      <trkpt lat="43.68294" lon="5.74088">
        <ele>381.37606166</ele>
        <time>2013-07-25T11:35:53Z</time>
      </trkpt>
      <trkpt lat="43.6829" lon="5.74088">
        <ele>381.87599462</ele>
        <time>2013-07-25T11:35:56Z</time>
      </trkpt>
      <trkpt lat="43.68285" lon="5.74088">
        <ele>382.371965179</ele>
        <time>2013-07-25T11:35:59Z</time>
      </trkpt>
      <trkpt lat="43.68282" lon="5.74087">
        <ele>382.899970218</ele>
        <time>2013-07-25T11:36:02Z</time>
      </trkpt>
      <trkpt lat="43.68278" lon="5.74086">
        <ele>383.439984377</ele>
        <time>2013-07-25T11:36:05Z</time>
      </trkpt>
      <trkpt lat="43.68274" lon="5.74086">
        <ele>383.991916216</ele>
        <time>2013-07-25T11:36:08Z</time>
      </trkpt>
      <trkpt lat="43.68271" lon="5.74087">
        <ele>384.535984216</ele>
        <time>2013-07-25T11:36:11Z</time>
      </trkpt>
      <trkpt lat="43.68269" lon="5.74089">
        <ele>385.023969015</ele>
        <time>2013-07-25T11:36:14Z</time>
      </trkpt>
      <trkpt lat="43.68267" lon="5.74091">
        <ele>385.471964054</ele>
        <time>2013-07-25T11:36:17Z</time>
      </trkpt>
      <trkpt lat="43.68263" lon="5.74094">
        <ele>385.940045413</ele>
        <time>2013-07-25T11:36:20Z</time>
      </trkpt>
      <trkpt lat="43.68261" lon="5.74099">
        <ele>386.371947013</ele>
        <time>2013-07-25T11:36:23Z</time>
      </trkpt>
      <trkpt lat="43.68257" lon="5.74103">
        <ele>386.751971652</ele>
        <time>2013-07-25T11:36:26Z</time>
      </trkpt>
      <trkpt lat="43.68253" lon="5.74108">
        <ele>387.072011652</ele>
        <time>2013-07-25T11:36:29Z</time>
      </trkpt>
      <trkpt lat="43.68249" lon="5.74112">
        <ele>387.351970451</ele>
        <time>2013-07-25T11:36:32Z</time>
      </trkpt>
      <trkpt lat="43.68246" lon="5.74115">
        <ele>387.595993331</ele>
        <time>2013-07-25T11:36:35Z</time>
      </trkpt>
      <trkpt lat="43.68244" lon="5.74117">
        <ele>387.824014211</ele>
        <time>2013-07-25T11:36:38Z</time>
      </trkpt>
      <trkpt lat="43.68242" lon="5.7412">
        <ele>388.09601773</ele>
        <time>2013-07-25T11:36:41Z</time>
      </trkpt>
      <trkpt lat="43.68239" lon="5.74122">
        <ele>388.37204461</ele>
        <time>2013-07-25T11:36:44Z</time>
      </trkpt>
      <trkpt lat="43.68238" lon="5.74125">
        <ele>388.660019649</ele>
        <time>2013-07-25T11:36:47Z</time>
      </trkpt>
      <trkpt lat="43.68234" lon="5.74127">
        <ele>388.944032289</ele>
        <time>2013-07-25T11:36:50Z</time>
      </trkpt>
      <trkpt lat="43.68228" lon="5.74129">
        <ele>389.284006208</ele>
        <time>2013-07-25T11:36:53Z</time>
      </trkpt>
      <trkpt lat="43.68222" lon="5.74131">
        <ele>389.808048847</ele>
        <time>2013-07-25T11:36:56Z</time>
      </trkpt>
      <trkpt lat="43.68217" lon="5.74133">
        <ele>390.352025407</ele>
        <time>2013-07-25T11:36:59Z</time>
      </trkpt>
      <trkpt lat="43.6821" lon="5.74135">
        <ele>390.931998846</ele>
        <time>2013-07-25T11:37:02Z</time>
      </trkpt>
      <trkpt lat="43.68205" lon="5.74137">
        <ele>391.515995645</ele>
        <time>2013-07-25T11:37:05Z</time>
      </trkpt>
      <trkpt lat="43.68202" lon="5.74139">
        <ele>392.091976204</ele>
        <time>2013-07-25T11:37:08Z</time>
      </trkpt>
      <trkpt lat="43.68197" lon="5.74142">
        <ele>392.660001483</ele>
        <time>2013-07-25T11:37:11Z</time>
      </trkpt>
      <trkpt lat="43.68194" lon="5.74143">
        <ele>393.203978042</ele>
        <time>2013-07-25T11:37:14Z</time>
      </trkpt>
      <trkpt lat="43.6819" lon="5.74145">
        <ele>393.763956601</ele>
        <time>2013-07-25T11:37:17Z</time>
      </trkpt>
      <trkpt lat="43.68184" lon="5.74145">
        <ele>394.175985241</ele>
        <time>2013-07-25T11:37:20Z</time>
      </trkpt>
      <trkpt lat="43.6818" lon="5.74145">
        <ele>394.59206772</ele>
        <time>2013-07-25T11:37:23Z</time>
      </trkpt>
      <trkpt lat="43.68175" lon="5.74145">
        <ele>395.03204652</ele>
        <time>2013-07-25T11:37:26Z</time>
      </trkpt>
      <trkpt lat="43.6817" lon="5.74145">
        <ele>395.476018199</ele>
        <time>2013-07-25T11:37:29Z</time>
      </trkpt>
      <trkpt lat="43.68166" lon="5.74145">
        <ele>396.019994758</ele>
        <time>2013-07-25T11:37:32Z</time>
      </trkpt>
      <trkpt lat="43.68161" lon="5.74144">
        <ele>396.667938597</ele>
        <time>2013-07-25T11:37:35Z</time>
      </trkpt>
      <trkpt lat="43.68157" lon="5.74143">
        <ele>397.387998116</ele>
        <time>2013-07-25T11:37:38Z</time>
      </trkpt>
      <trkpt lat="43.68154" lon="5.74142">
        <ele>398.124029155</ele>
        <time>2013-07-25T11:37:41Z</time>
      </trkpt>
      <trkpt lat="43.68149" lon="5.74143">
        <ele>398.875970754</ele>
        <time>2013-07-25T11:37:44Z</time>
      </trkpt>
      <trkpt lat="43.68144" lon="5.74145">
        <ele>399.604046513</ele>
        <time>2013-07-25T11:37:47Z</time>
      </trkpt>
      <trkpt lat="43.68138" lon="5.74147">
        <ele>400.256013712</ele>
        <time>2013-07-25T11:37:50Z</time>
      </trkpt>
      <trkpt lat="43.68133" lon="5.74149">
        <ele>400.871953551</ele>
        <time>2013-07-25T11:37:53Z</time>
      </trkpt>
      <trkpt lat="43.68128" lon="5.74149">
        <ele>401.42803067</ele>
        <time>2013-07-25T11:37:56Z</time>
      </trkpt>
      <trkpt lat="43.68122" lon="5.7415">
        <ele>401.900013469</ele>
        <time>2013-07-25T11:37:59Z</time>
      </trkpt>
      <trkpt lat="43.68117" lon="5.74152">
        <ele>402.324020748</ele>
        <time>2013-07-25T11:38:02Z</time>
      </trkpt>
      <trkpt lat="43.68111" lon="5.74151">
        <ele>402.728002668</ele>
        <time>2013-07-25T11:38:05Z</time>
      </trkpt>
      <trkpt lat="43.68106" lon="5.74151">
        <ele>403.164049547</ele>
        <time>2013-07-25T11:38:08Z</time>
      </trkpt>
      <trkpt lat="43.68101" lon="5.74151">
        <ele>403.616067947</ele>
        <time>2013-07-25T11:38:11Z</time>
      </trkpt>
      <trkpt lat="43.68096" lon="5.7415">
        <ele>404.123986666</ele>
        <time>2013-07-25T11:38:14Z</time>
      </trkpt>
      <trkpt lat="43.68091" lon="5.74149">
        <ele>404.664061785</ele>
        <time>2013-07-25T11:38:17Z</time>
      </trkpt>
      <trkpt lat="43.68086" lon="5.74148">
        <ele>405.176003864</ele>
        <time>2013-07-25T11:38:20Z</time>
      </trkpt>
      <trkpt lat="43.6808" lon="5.74149">
        <ele>405.631954183</ele>
        <time>2013-07-25T11:38:23Z</time>
      </trkpt>
      <trkpt lat="43.68075" lon="5.74149">
        <ele>406.083972583</ele>
        <time>2013-07-25T11:38:26Z</time>
      </trkpt>
      <trkpt lat="43.68069" lon="5.74151">
        <ele>406.583996982</ele>
        <time>2013-07-25T11:38:29Z</time>
      </trkpt>
      <trkpt lat="43.68064" lon="5.74154">
        <ele>407.060003141</ele>
        <time>2013-07-25T11:38:32Z</time>
      </trkpt>
      <trkpt lat="43.68059" lon="5.74158">
        <ele>407.512021541</ele>
        <time>2013-07-25T11:38:35Z</time>
      </trkpt>
      <trkpt lat="43.68052" lon="5.7416">
        <ele>407.9279821</ele>
        <time>2013-07-25T11:38:38Z</time>
      </trkpt>
      <trkpt lat="43.68047" lon="5.74161">
        <ele>408.307976259</ele>
        <time>2013-07-25T11:38:41Z</time>
      </trkpt>
      <trkpt lat="43.68042" lon="5.74161">
        <ele>408.715951059</ele>
        <time>2013-07-25T11:38:44Z</time>
      </trkpt>
      <trkpt lat="43.68037" lon="5.74159">
        <ele>409.140019298</ele>
        <time>2013-07-25T11:38:47Z</time>
      </trkpt>
      <trkpt lat="43.68032" lon="5.74157">
        <ele>409.640013217</ele>
        <time>2013-07-25T11:38:50Z</time>
      </trkpt>
      <trkpt lat="43.68027" lon="5.74154">
        <ele>410.111996017</ele>
        <time>2013-07-25T11:38:53Z</time>
      </trkpt>
      <trkpt lat="43.68023" lon="5.74151">
        <ele>410.559991056</ele>
        <time>2013-07-25T11:38:56Z</time>
      </trkpt>
      <trkpt lat="43.68018" lon="5.74148">
        <ele>411.024018575</ele>
        <time>2013-07-25T11:38:59Z</time>
      </trkpt>
      <trkpt lat="43.68013" lon="5.74147">
        <ele>411.452049215</ele>
        <time>2013-07-25T11:39:02Z</time>
      </trkpt>
      <trkpt lat="43.68008" lon="5.74147">
        <ele>411.927994414</ele>
        <time>2013-07-25T11:39:05Z</time>
      </trkpt>
      <trkpt lat="43.68002" lon="5.74147">
        <ele>412.399977213</ele>
        <time>2013-07-25T11:39:08Z</time>
      </trkpt>
      <trkpt lat="43.67997" lon="5.74148">
        <ele>412.775948013</ele>
        <time>2013-07-25T11:39:11Z</time>
      </trkpt>
      <trkpt lat="43.67993" lon="5.74151">
        <ele>413.128022492</ele>
        <time>2013-07-25T11:39:14Z</time>
      </trkpt>
      <trkpt lat="43.67989" lon="5.74153">
        <ele>413.500000411</ele>
        <time>2013-07-25T11:39:17Z</time>
      </trkpt>
      <trkpt lat="43.67984" lon="5.74154">
        <ele>413.895966091</ele>
        <time>2013-07-25T11:39:20Z</time>
      </trkpt>
      <trkpt lat="43.6798" lon="5.74154">
        <ele>414.32798961</ele>
        <time>2013-07-25T11:39:23Z</time>
      </trkpt>
      <trkpt lat="43.67975" lon="5.74153">
        <ele>414.884036249</ele>
        <time>2013-07-25T11:39:26Z</time>
      </trkpt>
      <trkpt lat="43.67971" lon="5.74154">
        <ele>415.487966968</ele>
        <time>2013-07-25T11:39:29Z</time>
      </trkpt>
      <trkpt lat="43.67966" lon="5.74156">
        <ele>416.047976008</ele>
        <time>2013-07-25T11:39:32Z</time>
      </trkpt>
      <trkpt lat="43.67962" lon="5.74159">
        <ele>416.683971687</ele>
        <time>2013-07-25T11:39:35Z</time>
      </trkpt>
      <trkpt lat="43.67958" lon="5.74163">
        <ele>417.348039446</ele>
        <time>2013-07-25T11:39:38Z</time>
      </trkpt>
      <trkpt lat="43.67954" lon="5.74167">
        <ele>417.932005765</ele>
        <time>2013-07-25T11:39:41Z</time>
      </trkpt>
      <trkpt lat="43.67949" lon="5.7417">
        <ele>418.496007684</ele>
        <time>2013-07-25T11:39:44Z</time>
      </trkpt>
      <trkpt lat="43.67945" lon="5.74174">
        <ele>418.979999603</ele>
        <time>2013-07-25T11:39:47Z</time>
      </trkpt>
      <trkpt lat="43.67942" lon="5.74177">
        <ele>419.388035363</ele>
        <time>2013-07-25T11:39:50Z</time>
      </trkpt>
      <trkpt lat="43.67937" lon="5.74181">
        <ele>419.696005282</ele>
        <time>2013-07-25T11:39:53Z</time>
      </trkpt>
      <trkpt lat="43.67932" lon="5.74184">
        <ele>419.967978322</ele>
        <time>2013-07-25T11:39:56Z</time>
      </trkpt>
      <trkpt lat="43.67928" lon="5.74187">
        <ele>420.192036801</ele>
        <time>2013-07-25T11:39:59Z</time>
      </trkpt>
      <trkpt lat="43.67924" lon="5.74189">
        <ele>420.339986721</ele>
        <time>2013-07-25T11:40:02Z</time>
      </trkpt>
      <trkpt lat="43.67923" lon="5.74191">
        <ele>420.468033201</ele>
        <time>2013-07-25T11:40:05Z</time>
      </trkpt>
      <trkpt lat="43.6792" lon="5.74193">
        <ele>420.603974001</ele>
        <time>2013-07-25T11:40:08Z</time>
      </trkpt>
      <trkpt lat="43.67917" lon="5.74194">
        <ele>420.72796664</ele>
        <time>2013-07-25T11:40:11Z</time>
      </trkpt>
      <trkpt lat="43.67914" lon="5.74196">
        <ele>420.86796128</ele>
        <time>2013-07-25T11:40:14Z</time>
      </trkpt>
      <trkpt lat="43.67909" lon="5.742">
        <ele>421.02401888</ele>
        <time>2013-07-25T11:40:17Z</time>
      </trkpt>
      <trkpt lat="43.67904" lon="5.74205">
        <ele>421.20004088</ele>
        <time>2013-07-25T11:40:20Z</time>
      </trkpt>
      <trkpt lat="43.67899" lon="5.74208">
        <ele>421.444033279</ele>
        <time>2013-07-25T11:40:23Z</time>
      </trkpt>
      <trkpt lat="43.67894" lon="5.74211">
        <ele>421.764012319</ele>
        <time>2013-07-25T11:40:26Z</time>
      </trkpt>
      <trkpt lat="43.67889" lon="5.74216">
        <ele>422.083960878</ele>
        <time>2013-07-25T11:40:29Z</time>
      </trkpt>
      <trkpt lat="43.67885" lon="5.74221">
        <ele>422.344016238</ele>
        <time>2013-07-25T11:40:32Z</time>
      </trkpt>
      <trkpt lat="43.67881" lon="5.74225">
        <ele>422.660002398</ele>
        <time>2013-07-25T11:40:35Z</time>
      </trkpt>
      <trkpt lat="43.67875" lon="5.74228">
        <ele>423.120037037</ele>
        <time>2013-07-25T11:40:38Z</time>
      </trkpt>
      <trkpt lat="43.67869" lon="5.74231">
        <ele>423.587996476</ele>
        <time>2013-07-25T11:40:41Z</time>
      </trkpt>
      <trkpt lat="43.67865" lon="5.74233">
        <ele>424.012003756</ele>
        <time>2013-07-25T11:40:44Z</time>
      </trkpt>
      <trkpt lat="43.67859" lon="5.74235">
        <ele>424.403976555</ele>
        <time>2013-07-25T11:40:47Z</time>
      </trkpt>
      <trkpt lat="43.67854" lon="5.74236">
        <ele>424.848039674</ele>
        <time>2013-07-25T11:40:50Z</time>
      </trkpt>
      <trkpt lat="43.6785" lon="5.74237">
        <ele>425.376075193</ele>
        <time>2013-07-25T11:40:53Z</time>
      </trkpt>
      <trkpt lat="43.67845" lon="5.74239">
        <ele>425.948001913</ele>
        <time>2013-07-25T11:40:56Z</time>
      </trkpt>
      <trkpt lat="43.67842" lon="5.74244">
        <ele>426.499964232</ele>
        <time>2013-07-25T11:40:59Z</time>
      </trkpt>
      <trkpt lat="43.67839" lon="5.74249">
        <ele>426.947959271</ele>
        <time>2013-07-25T11:41:02Z</time>
      </trkpt>
      <trkpt lat="43.67834" lon="5.74254">
        <ele>427.30798903</ele>
        <time>2013-07-25T11:41:05Z</time>
      </trkpt>
      <trkpt lat="43.67828" lon="5.74257">
        <ele>427.68795271</ele>
        <time>2013-07-25T11:41:08Z</time>
      </trkpt>
      <trkpt lat="43.67823" lon="5.74258">
        <ele>428.091934629</ele>
        <time>2013-07-25T11:41:11Z</time>
      </trkpt>
      <trkpt lat="43.67817" lon="5.7426">
        <ele>428.427915669</ele>
        <time>2013-07-25T11:41:14Z</time>
      </trkpt>
      <trkpt lat="43.67811" lon="5.74261">
        <ele>428.775997268</ele>
        <time>2013-07-25T11:41:17Z</time>
      </trkpt>
      <trkpt lat="43.67805" lon="5.74261">
        <ele>429.160045268</ele>
        <time>2013-07-25T11:41:20Z</time>
      </trkpt>
      <trkpt lat="43.678" lon="5.74259">
        <ele>429.564057667</ele>
        <time>2013-07-25T11:41:23Z</time>
      </trkpt>
      <trkpt lat="43.67795" lon="5.74257">
        <ele>429.955999986</ele>
        <time>2013-07-25T11:41:26Z</time>
      </trkpt>
      <trkpt lat="43.6779" lon="5.74255">
        <ele>430.284025746</ele>
        <time>2013-07-25T11:41:29Z</time>
      </trkpt>
      <trkpt lat="43.67785" lon="5.74251">
        <ele>430.643964065</ele>
        <time>2013-07-25T11:41:32Z</time>
      </trkpt>
      <trkpt lat="43.6778" lon="5.74248">
        <ele>431.067971345</ele>
        <time>2013-07-25T11:41:35Z</time>
      </trkpt>
      <trkpt lat="43.67774" lon="5.74248">
        <ele>431.508072064</ele>
        <time>2013-07-25T11:41:38Z</time>
      </trkpt>
      <trkpt lat="43.67769" lon="5.74249">
        <ele>431.864017504</ele>
        <time>2013-07-25T11:41:41Z</time>
      </trkpt>
      <trkpt lat="43.67763" lon="5.74252">
        <ele>432.131997663</ele>
        <time>2013-07-25T11:41:44Z</time>
      </trkpt>
      <trkpt lat="43.67758" lon="5.74254">
        <ele>432.447983823</ele>
        <time>2013-07-25T11:41:47Z</time>
      </trkpt>
      <trkpt lat="43.67752" lon="5.74255">
        <ele>432.859951502</ele>
        <time>2013-07-25T11:41:50Z</time>
      </trkpt>
      <trkpt lat="43.67747" lon="5.74255">
        <ele>433.367992141</ele>
        <time>2013-07-25T11:41:53Z</time>
      </trkpt>
      <trkpt lat="43.67743" lon="5.74255">
        <ele>433.91199918</ele>
        <time>2013-07-25T11:41:56Z</time>
      </trkpt>
      <trkpt lat="43.6774" lon="5.74256">
        <ele>434.2800147</ele>
        <time>2013-07-25T11:41:59Z</time>
      </trkpt>
      <trkpt lat="43.67737" lon="5.74257">
        <ele>434.591977499</ele>
        <time>2013-07-25T11:42:02Z</time>
      </trkpt>
      <trkpt lat="43.67735" lon="5.74258">
        <ele>434.903970779</ele>
        <time>2013-07-25T11:42:05Z</time>
      </trkpt>
      <trkpt lat="43.6773" lon="5.74259">
        <ele>435.167958059</ele>
        <time>2013-07-25T11:42:08Z</time>
      </trkpt>
      <trkpt lat="43.67725" lon="5.74262">
        <ele>435.355989178</ele>
        <time>2013-07-25T11:42:11Z</time>
      </trkpt>
      <trkpt lat="43.6772" lon="5.74268">
        <ele>435.419966698</ele>
        <time>2013-07-25T11:42:14Z</time>
      </trkpt>
      <trkpt lat="43.67717" lon="5.74273">
        <ele>435.403995178</ele>
        <time>2013-07-25T11:42:17Z</time>
      </trkpt>
      <trkpt lat="43.67715" lon="5.74277">
        <ele>435.340017658</ele>
        <time>2013-07-25T11:42:20Z</time>
      </trkpt>
      <trkpt lat="43.67713" lon="5.74284">
        <ele>435.299966938</ele>
        <time>2013-07-25T11:42:23Z</time>
      </trkpt>
      <trkpt lat="43.67709" lon="5.74289">
        <ele>435.296035018</ele>
        <time>2013-07-25T11:42:26Z</time>
      </trkpt>
      <trkpt lat="43.67703" lon="5.74295">
        <ele>435.315999418</ele>
        <time>2013-07-25T11:42:29Z</time>
      </trkpt>
      <trkpt lat="43.67701" lon="5.74301">
        <ele>435.363944458</ele>
        <time>2013-07-25T11:42:32Z</time>
      </trkpt>
      <trkpt lat="43.677" lon="5.74308">
        <ele>435.500007178</ele>
        <time>2013-07-25T11:42:35Z</time>
      </trkpt>
      <trkpt lat="43.677" lon="5.74314">
        <ele>435.627962218</ele>
        <time>2013-07-25T11:42:38Z</time>
      </trkpt>
      <trkpt lat="43.677" lon="5.74322">
        <ele>435.755978218</ele>
        <time>2013-07-25T11:42:41Z</time>
      </trkpt>
      <trkpt lat="43.67701" lon="5.7433">
        <ele>435.871954617</ele>
        <time>2013-07-25T11:42:44Z</time>
      </trkpt>
      <trkpt lat="43.67702" lon="5.74338">
        <ele>436.076018217</ele>
        <time>2013-07-25T11:42:47Z</time>
      </trkpt>
      <trkpt lat="43.67702" lon="5.74345">
        <ele>436.288006617</ele>
        <time>2013-07-25T11:42:50Z</time>
      </trkpt>
      <trkpt lat="43.67702" lon="5.74352">
        <ele>436.504079337</ele>
        <time>2013-07-25T11:42:53Z</time>
      </trkpt>
      <trkpt lat="43.67702" lon="5.74358">
        <ele>436.664038376</ele>
        <time>2013-07-25T11:42:56Z</time>
      </trkpt>
      <trkpt lat="43.67701" lon="5.74366">
        <ele>436.755996536</ele>
        <time>2013-07-25T11:42:59Z</time>
      </trkpt>
      <trkpt lat="43.67703" lon="5.74374">
        <ele>436.824058376</ele>
        <time>2013-07-25T11:43:02Z</time>
      </trkpt>
      <trkpt lat="43.67704" lon="5.74383">
        <ele>436.920009416</ele>
        <time>2013-07-25T11:43:05Z</time>
      </trkpt>
      <trkpt lat="43.67704" lon="5.74391">
        <ele>437.035955336</ele>
        <time>2013-07-25T11:43:08Z</time>
      </trkpt>
      <trkpt lat="43.67706" lon="5.74398">
        <ele>437.119958216</ele>
        <time>2013-07-25T11:43:11Z</time>
      </trkpt>
      <trkpt lat="43.67708" lon="5.74405">
        <ele>437.192012935</ele>
        <time>2013-07-25T11:43:14Z</time>
      </trkpt>
      <trkpt lat="43.67712" lon="5.74412">
        <ele>437.255990455</ele>
        <time>2013-07-25T11:43:17Z</time>
      </trkpt>
      <trkpt lat="43.67715" lon="5.7442">
        <ele>437.440028695</ele>
        <time>2013-07-25T11:43:20Z</time>
      </trkpt>
      <trkpt lat="43.67718" lon="5.74428">
        <ele>437.792042215</ele>
        <time>2013-07-25T11:43:23Z</time>
      </trkpt>
      <trkpt lat="43.67718" lon="5.74438">
        <ele>438.216019014</ele>
        <time>2013-07-25T11:43:26Z</time>
      </trkpt>
      <trkpt lat="43.67719" lon="5.74446">
        <ele>438.600006053</ele>
        <time>2013-07-25T11:43:29Z</time>
      </trkpt>
      <trkpt lat="43.67719" lon="5.74454">
        <ele>439.007950373</ele>
        <time>2013-07-25T11:43:32Z</time>
      </trkpt>
      <trkpt lat="43.67719" lon="5.74464">
        <ele>439.372033972</ele>
        <time>2013-07-25T11:43:35Z</time>
      </trkpt>
      <trkpt lat="43.67719" lon="5.74473">
        <ele>439.700029252</ele>
        <time>2013-07-25T11:43:38Z</time>
      </trkpt>
      <trkpt lat="43.6772" lon="5.7448">
        <ele>440.019977811</ele>
        <time>2013-07-25T11:43:41Z</time>
      </trkpt>
      <trkpt lat="43.67721" lon="5.74488">
        <ele>440.227942851</ele>
        <time>2013-07-25T11:43:44Z</time>
      </trkpt>
      <trkpt lat="43.67722" lon="5.74497">
        <ele>440.319901011</ele>
        <time>2013-07-25T11:43:47Z</time>
      </trkpt>
      <trkpt lat="43.67725" lon="5.74505">
        <ele>440.235928611</ele>
        <time>2013-07-25T11:43:50Z</time>
      </trkpt>
      <trkpt lat="43.6773" lon="5.7451">
        <ele>440.047988931</ele>
        <time>2013-07-25T11:43:53Z</time>
      </trkpt>
      <trkpt lat="43.67736" lon="5.74516">
        <ele>439.727979412</ele>
        <time>2013-07-25T11:43:56Z</time>
      </trkpt>
      <trkpt lat="43.67741" lon="5.74522">
        <ele>439.428025732</ele>
        <time>2013-07-25T11:43:59Z</time>
      </trkpt>
      <trkpt lat="43.67745" lon="5.74529">
        <ele>439.159984612</ele>
        <time>2013-07-25T11:44:02Z</time>
      </trkpt>
      <trkpt lat="43.67745" lon="5.74537">
        <ele>438.895875413</ele>
        <time>2013-07-25T11:44:05Z</time>
      </trkpt>
      <trkpt lat="43.67746" lon="5.74547">
        <ele>438.735946853</ele>
        <time>2013-07-25T11:44:08Z</time>
      </trkpt>
      <trkpt lat="43.67742" lon="5.74555">
        <ele>438.596013173</ele>
        <time>2013-07-25T11:44:11Z</time>
      </trkpt>
      <trkpt lat="43.67741" lon="5.74564">
        <ele>438.412005414</ele>
        <time>2013-07-25T11:44:14Z</time>
      </trkpt>
      <trkpt lat="43.67739" lon="5.74573">
        <ele>438.240037254</ele>
        <time>2013-07-25T11:44:17Z</time>
      </trkpt>
      <trkpt lat="43.67736" lon="5.74581">
        <ele>438.128023254</ele>
        <time>2013-07-25T11:44:20Z</time>
      </trkpt>
      <trkpt lat="43.67734" lon="5.74589">
        <ele>438.016009254</ele>
        <time>2013-07-25T11:44:23Z</time>
      </trkpt>
      <trkpt lat="43.6773" lon="5.74598">
        <ele>437.832031974</ele>
        <time>2013-07-25T11:44:26Z</time>
      </trkpt>
      <trkpt lat="43.67727" lon="5.74607">
        <ele>437.624036455</ele>
        <time>2013-07-25T11:44:29Z</time>
      </trkpt>
      <trkpt lat="43.67723" lon="5.74616">
        <ele>437.412048055</ele>
        <time>2013-07-25T11:44:32Z</time>
      </trkpt>
      <trkpt lat="43.6772" lon="5.74625">
        <ele>437.187989575</ele>
        <time>2013-07-25T11:44:35Z</time>
      </trkpt>
      <trkpt lat="43.67717" lon="5.74632">
        <ele>437.043941096</ele>
        <time>2013-07-25T11:44:38Z</time>
      </trkpt>
      <trkpt lat="43.67714" lon="5.7464">
        <ele>436.963961576</ele>
        <time>2013-07-25T11:44:41Z</time>
      </trkpt>
      <trkpt lat="43.67711" lon="5.74649">
        <ele>436.935919976</ele>
        <time>2013-07-25T11:44:44Z</time>
      </trkpt>
      <trkpt lat="43.67707" lon="5.74657">
        <ele>436.987979816</ele>
        <time>2013-07-25T11:44:47Z</time>
      </trkpt>
      <trkpt lat="43.67704" lon="5.74666">
        <ele>437.063935976</ele>
        <time>2013-07-25T11:44:50Z</time>
      </trkpt>
      <trkpt lat="43.67702" lon="5.74676">
        <ele>437.167964216</ele>
        <time>2013-07-25T11:44:53Z</time>
      </trkpt>
      <trkpt lat="43.67701" lon="5.74685">
        <ele>437.291987335</ele>
        <time>2013-07-25T11:44:56Z</time>
      </trkpt>
      <trkpt lat="43.67703" lon="5.74693">
        <ele>437.320028935</ele>
        <time>2013-07-25T11:44:59Z</time>
      </trkpt>
      <trkpt lat="43.67705" lon="5.74702">
        <ele>437.323960855</ele>
        <time>2013-07-25T11:45:02Z</time>
      </trkpt>
      <trkpt lat="43.67708" lon="5.74711">
        <ele>437.420003335</ele>
        <time>2013-07-25T11:45:05Z</time>
      </trkpt>
      <trkpt lat="43.6771" lon="5.74719">
        <ele>437.579992855</ele>
        <time>2013-07-25T11:45:08Z</time>
      </trkpt>
      <trkpt lat="43.67714" lon="5.74727">
        <ele>437.688044455</ele>
        <time>2013-07-25T11:45:11Z</time>
      </trkpt>
      <trkpt lat="43.67717" lon="5.74735">
        <ele>437.755984375</ele>
        <time>2013-07-25T11:45:14Z</time>
      </trkpt>
      <trkpt lat="43.6772" lon="5.74742">
        <ele>437.756045335</ele>
        <time>2013-07-25T11:45:17Z</time>
      </trkpt>
      <trkpt lat="43.67723" lon="5.74751">
        <ele>437.772047335</ele>
        <time>2013-07-25T11:45:20Z</time>
      </trkpt>
      <trkpt lat="43.67725" lon="5.7476">
        <ele>437.703985495</ele>
        <time>2013-07-25T11:45:23Z</time>
      </trkpt>
      <trkpt lat="43.67726" lon="5.7477">
        <ele>437.703985495</ele>
        <time>2013-07-25T11:45:26Z</time>
      </trkpt>
      <trkpt lat="43.67727" lon="5.7478">
        <ele>437.712032215</ele>
        <time>2013-07-25T11:45:29Z</time>
      </trkpt>
      <trkpt lat="43.67727" lon="5.74789">
        <ele>437.672042455</ele>
        <time>2013-07-25T11:45:32Z</time>
      </trkpt>
      <trkpt lat="43.67725" lon="5.74798">
        <ele>437.540003095</ele>
        <time>2013-07-25T11:45:35Z</time>
      </trkpt>
      <trkpt lat="43.67723" lon="5.74808">
        <ele>437.452007335</ele>
        <time>2013-07-25T11:45:38Z</time>
      </trkpt>
      <trkpt lat="43.6772" lon="5.74816">
        <ele>437.491997095</ele>
        <time>2013-07-25T11:45:41Z</time>
      </trkpt>
      <trkpt lat="43.67716" lon="5.74825">
        <ele>437.516015335</ele>
        <time>2013-07-25T11:45:44Z</time>
      </trkpt>
      <trkpt lat="43.67714" lon="5.74834">
        <ele>437.572098535</ele>
        <time>2013-07-25T11:45:47Z</time>
      </trkpt>
      <trkpt lat="43.67711" lon="5.74843">
        <ele>437.652047575</ele>
        <time>2013-07-25T11:45:50Z</time>
      </trkpt>
      <trkpt lat="43.67709" lon="5.74853">
        <ele>437.716025095</ele>
        <time>2013-07-25T11:45:53Z</time>
      </trkpt>
      <trkpt lat="43.67707" lon="5.74863">
        <ele>437.700053575</ele>
        <time>2013-07-25T11:45:56Z</time>
      </trkpt>
      <trkpt lat="43.67705" lon="5.74873">
        <ele>437.724010855</ele>
        <time>2013-07-25T11:45:59Z</time>
      </trkpt>
      <trkpt lat="43.67702" lon="5.74882">
        <ele>437.799997495</ele>
        <time>2013-07-25T11:46:02Z</time>
      </trkpt>
      <trkpt lat="43.67699" lon="5.74891">
        <ele>437.764061575</ele>
        <time>2013-07-25T11:46:05Z</time>
      </trkpt>
      <trkpt lat="43.67698" lon="5.74901">
        <ele>437.736080935</ele>
        <time>2013-07-25T11:46:08Z</time>
      </trkpt>
      <trkpt lat="43.67695" lon="5.7491">
        <ele>437.764061575</ele>
        <time>2013-07-25T11:46:11Z</time>
      </trkpt>
      <trkpt lat="43.67694" lon="5.74919">
        <ele>437.871991254</ele>
        <time>2013-07-25T11:46:14Z</time>
      </trkpt>
      <trkpt lat="43.67692" lon="5.74928">
        <ele>437.971996134</ele>
        <time>2013-07-25T11:46:17Z</time>
      </trkpt>
      <trkpt lat="43.6769" lon="5.74936">
        <ele>438.088003014</ele>
        <time>2013-07-25T11:46:20Z</time>
      </trkpt>
      <trkpt lat="43.67686" lon="5.74944">
        <ele>438.299991414</ele>
        <time>2013-07-25T11:46:23Z</time>
      </trkpt>
      <trkpt lat="43.67683" lon="5.74952">
        <ele>438.535998053</ele>
        <time>2013-07-25T11:46:26Z</time>
      </trkpt>
      <trkpt lat="43.67681" lon="5.7496">
        <ele>438.831989333</ele>
        <time>2013-07-25T11:46:29Z</time>
      </trkpt>
      <trkpt lat="43.67678" lon="5.74969">
        <ele>439.128072053</ele>
        <time>2013-07-25T11:46:32Z</time>
      </trkpt>
      <trkpt lat="43.67675" lon="5.74977">
        <ele>439.348015732</ele>
        <time>2013-07-25T11:46:35Z</time>
      </trkpt>
      <trkpt lat="43.67671" lon="5.74986">
        <ele>439.468015492</ele>
        <time>2013-07-25T11:46:38Z</time>
      </trkpt>
      <trkpt lat="43.67667" lon="5.74995">
        <ele>439.588015252</ele>
        <time>2013-07-25T11:46:41Z</time>
      </trkpt>
      <trkpt lat="43.67662" lon="5.75003">
        <ele>439.744011892</ele>
        <time>2013-07-25T11:46:44Z</time>
      </trkpt>
      <trkpt lat="43.67657" lon="5.7501">
        <ele>439.860049251</ele>
        <time>2013-07-25T11:46:47Z</time>
      </trkpt>
      <trkpt lat="43.67651" lon="5.75016">
        <ele>439.923996291</ele>
        <time>2013-07-25T11:46:50Z</time>
      </trkpt>
      <trkpt lat="43.67646" lon="5.75021">
        <ele>439.959932211</ele>
        <time>2013-07-25T11:46:53Z</time>
      </trkpt>
      <trkpt lat="43.6764" lon="5.75026">
        <ele>439.991905731</ele>
        <time>2013-07-25T11:46:56Z</time>
      </trkpt>
      <trkpt lat="43.67636" lon="5.75031">
        <ele>440.011992051</ele>
        <time>2013-07-25T11:46:59Z</time>
      </trkpt>
      <trkpt lat="43.67631" lon="5.75036">
        <ele>440.051981811</ele>
        <time>2013-07-25T11:47:02Z</time>
      </trkpt>
      <trkpt lat="43.67626" lon="5.75041">
        <ele>440.067953331</ele>
        <time>2013-07-25T11:47:05Z</time>
      </trkpt>
      <trkpt lat="43.67619" lon="5.75046">
        <ele>440.019947331</ele>
        <time>2013-07-25T11:47:08Z</time>
      </trkpt>
      <trkpt lat="43.67613" lon="5.7505">
        <ele>439.972002291</ele>
        <time>2013-07-25T11:47:11Z</time>
      </trkpt>
      <trkpt lat="43.67607" lon="5.75055">
        <ele>440.016015411</ele>
        <time>2013-07-25T11:47:14Z</time>
      </trkpt>
      <trkpt lat="43.67601" lon="5.7506">
        <ele>440.091971571</ele>
        <time>2013-07-25T11:47:17Z</time>
      </trkpt>
      <trkpt lat="43.67595" lon="5.75063">
        <ele>440.168080131</ele>
        <time>2013-07-25T11:47:20Z</time>
      </trkpt>
      <trkpt lat="43.67589" lon="5.75067">
        <ele>440.276070771</ele>
        <time>2013-07-25T11:47:23Z</time>
      </trkpt>
      <trkpt lat="43.67583" lon="5.75073">
        <ele>440.444046051</ele>
        <time>2013-07-25T11:47:26Z</time>
      </trkpt>
      <trkpt lat="43.67577" lon="5.75079">
        <ele>440.67200597</ele>
        <time>2013-07-25T11:47:29Z</time>
      </trkpt>
      <trkpt lat="43.67571" lon="5.75085">
        <ele>440.98393829</ele>
        <time>2013-07-25T11:47:32Z</time>
      </trkpt>
      <trkpt lat="43.67565" lon="5.75089">
        <ele>441.379964929</ele>
        <time>2013-07-25T11:47:35Z</time>
      </trkpt>
      <trkpt lat="43.67559" lon="5.75093">
        <ele>441.807965088</ele>
        <time>2013-07-25T11:47:38Z</time>
      </trkpt>
      <trkpt lat="43.67554" lon="5.75096">
        <ele>442.196005968</ele>
        <time>2013-07-25T11:47:41Z</time>
      </trkpt>
      <trkpt lat="43.67548" lon="5.75098">
        <ele>442.580053967</ele>
        <time>2013-07-25T11:47:44Z</time>
      </trkpt>
      <trkpt lat="43.67543" lon="5.75099">
        <ele>443.036004287</ele>
        <time>2013-07-25T11:47:47Z</time>
      </trkpt>
      <trkpt lat="43.67537" lon="5.75101">
        <ele>443.463973966</ele>
        <time>2013-07-25T11:47:50Z</time>
      </trkpt>
      <trkpt lat="43.67532" lon="5.751">
        <ele>443.863993485</ele>
        <time>2013-07-25T11:47:53Z</time>
      </trkpt>
      <trkpt lat="43.67525" lon="5.751">
        <ele>444.303972285</ele>
        <time>2013-07-25T11:47:56Z</time>
      </trkpt>
      <trkpt lat="43.67518" lon="5.75101">
        <ele>444.688020284</ele>
        <time>2013-07-25T11:47:59Z</time>
      </trkpt>
      <trkpt lat="43.67512" lon="5.75103">
        <ele>445.043965724</ele>
        <time>2013-07-25T11:48:02Z</time>
      </trkpt>
      <trkpt lat="43.67506" lon="5.75103">
        <ele>445.383970123</ele>
        <time>2013-07-25T11:48:05Z</time>
      </trkpt>
      <trkpt lat="43.675" lon="5.75104">
        <ele>445.711965403</ele>
        <time>2013-07-25T11:48:08Z</time>
      </trkpt>
      <trkpt lat="43.67495" lon="5.75106">
        <ele>445.995947562</ele>
        <time>2013-07-25T11:48:11Z</time>
      </trkpt>
      <trkpt lat="43.6749" lon="5.7511">
        <ele>446.232045642</ele>
        <time>2013-07-25T11:48:14Z</time>
      </trkpt>
      <trkpt lat="43.67487" lon="5.75115">
        <ele>446.463998441</ele>
        <time>2013-07-25T11:48:17Z</time>
      </trkpt>
      <trkpt lat="43.67483" lon="5.75121">
        <ele>446.635997081</ele>
        <time>2013-07-25T11:48:20Z</time>
      </trkpt>
      <trkpt lat="43.6748" lon="5.75128">
        <ele>446.744018201</ele>
        <time>2013-07-25T11:48:23Z</time>
      </trkpt>
      <trkpt lat="43.67476" lon="5.75134">
        <ele>446.800009961</ele>
        <time>2013-07-25T11:48:26Z</time>
      </trkpt>
      <trkpt lat="43.67471" lon="5.75139">
        <ele>446.795986601</ele>
        <time>2013-07-25T11:48:29Z</time>
      </trkpt>
      <trkpt lat="43.67467" lon="5.75144">
        <ele>446.771937881</ele>
        <time>2013-07-25T11:48:32Z</time>
      </trkpt>
      <trkpt lat="43.67461" lon="5.75149">
        <ele>446.695920761</ele>
        <time>2013-07-25T11:48:35Z</time>
      </trkpt>
      <trkpt lat="43.67454" lon="5.75153">
        <ele>446.627919881</ele>
        <time>2013-07-25T11:48:38Z</time>
      </trkpt>
      <trkpt lat="43.67447" lon="5.75155">
        <ele>446.507950601</ele>
        <time>2013-07-25T11:48:41Z</time>
      </trkpt>
      <trkpt lat="43.6744" lon="5.75157">
        <ele>446.408067641</ele>
        <time>2013-07-25T11:48:44Z</time>
      </trkpt>
      <trkpt lat="43.67434" lon="5.7516">
        <ele>446.320071882</ele>
        <time>2013-07-25T11:48:47Z</time>
      </trkpt>
      <trkpt lat="43.67427" lon="5.75163">
        <ele>446.264019162</ele>
        <time>2013-07-25T11:48:50Z</time>
      </trkpt>
      <trkpt lat="43.6742" lon="5.75165">
        <ele>446.200041642</ele>
        <time>2013-07-25T11:48:53Z</time>
      </trkpt>
      <trkpt lat="43.67415" lon="5.75167">
        <ele>446.127925962</ele>
        <time>2013-07-25T11:48:56Z</time>
      </trkpt>
      <trkpt lat="43.67408" lon="5.75169">
        <ele>446.084004282</ele>
        <time>2013-07-25T11:48:59Z</time>
      </trkpt>
      <trkpt lat="43.67401" lon="5.75173">
        <ele>445.987961802</ele>
        <time>2013-07-25T11:49:02Z</time>
      </trkpt>
      <trkpt lat="43.67395" lon="5.75178">
        <ele>445.923953802</ele>
        <time>2013-07-25T11:49:05Z</time>
      </trkpt>
      <trkpt lat="43.67388" lon="5.75184">
        <ele>445.876008762</ele>
        <time>2013-07-25T11:49:08Z</time>
      </trkpt>
      <trkpt lat="43.6738" lon="5.75187">
        <ele>445.807977402</ele>
        <time>2013-07-25T11:49:11Z</time>
      </trkpt>
      <trkpt lat="43.67375" lon="5.75187">
        <ele>445.703918683</ele>
        <time>2013-07-25T11:49:14Z</time>
      </trkpt>
      <trkpt lat="43.67369" lon="5.75189">
        <ele>445.611930043</ele>
        <time>2013-07-25T11:49:17Z</time>
      </trkpt>
      <trkpt lat="43.67363" lon="5.75192">
        <ele>445.504000363</ele>
        <time>2013-07-25T11:49:20Z</time>
      </trkpt>
      <trkpt lat="43.67357" lon="5.75196">
        <ele>445.444015723</ele>
        <time>2013-07-25T11:49:23Z</time>
      </trkpt>
      <trkpt lat="43.67351" lon="5.75199">
        <ele>445.376014843</ele>
        <time>2013-07-25T11:49:26Z</time>
      </trkpt>
      <trkpt lat="43.67346" lon="5.75205">
        <ele>445.343980363</ele>
        <time>2013-07-25T11:49:29Z</time>
      </trkpt>
      <trkpt lat="43.67341" lon="5.7521">
        <ele>445.336055563</ele>
        <time>2013-07-25T11:49:32Z</time>
      </trkpt>
      <trkpt lat="43.67336" lon="5.75215">
        <ele>445.320053563</ele>
        <time>2013-07-25T11:49:35Z</time>
      </trkpt>
      <trkpt lat="43.67331" lon="5.7522">
        <ele>445.267993723</ele>
        <time>2013-07-25T11:49:38Z</time>
      </trkpt>
      <trkpt lat="43.67327" lon="5.75224">
        <ele>445.188014203</ele>
        <time>2013-07-25T11:49:41Z</time>
      </trkpt>
      <trkpt lat="43.67322" lon="5.7523">
        <ele>445.163935003</ele>
        <time>2013-07-25T11:49:44Z</time>
      </trkpt>
      <trkpt lat="43.67317" lon="5.75236">
        <ele>445.103919883</ele>
        <time>2013-07-25T11:49:47Z</time>
      </trkpt>
      <trkpt lat="43.67312" lon="5.75241">
        <ele>445.023970844</ele>
        <time>2013-07-25T11:49:50Z</time>
      </trkpt>
      <trkpt lat="43.67306" lon="5.75246">
        <ele>444.935975084</ele>
        <time>2013-07-25T11:49:53Z</time>
      </trkpt>
      <trkpt lat="43.673" lon="5.75253">
        <ele>444.803966204</ele>
        <time>2013-07-25T11:49:56Z</time>
      </trkpt>
      <trkpt lat="43.67294" lon="5.75258">
        <ele>444.679943084</ele>
        <time>2013-07-25T11:49:59Z</time>
      </trkpt>
      <trkpt lat="43.6729" lon="5.75263">
        <ele>444.563997164</ele>
        <time>2013-07-25T11:50:02Z</time>
      </trkpt>
      <trkpt lat="43.67286" lon="5.75268">
        <ele>444.523976924</ele>
        <time>2013-07-25T11:50:05Z</time>
      </trkpt>
      <trkpt lat="43.67281" lon="5.75272">
        <ele>444.428056364</ele>
        <time>2013-07-25T11:50:08Z</time>
      </trkpt>
      <trkpt lat="43.67276" lon="5.75277">
        <ele>444.340030125</ele>
        <time>2013-07-25T11:50:11Z</time>
      </trkpt>
      <trkpt lat="43.67271" lon="5.75282">
        <ele>444.375996525</ele>
        <time>2013-07-25T11:50:14Z</time>
      </trkpt>
      <trkpt lat="43.67266" lon="5.75287">
        <ele>444.467924204</ele>
        <time>2013-07-25T11:50:17Z</time>
      </trkpt>
      <trkpt lat="43.67261" lon="5.75291">
        <ele>444.579968684</ele>
        <time>2013-07-25T11:50:20Z</time>
      </trkpt>
      <trkpt lat="43.67258" lon="5.75296">
        <ele>444.719963324</ele>
        <time>2013-07-25T11:50:23Z</time>
      </trkpt>
      <trkpt lat="43.67254" lon="5.75301">
        <ele>444.911987324</ele>
        <time>2013-07-25T11:50:26Z</time>
      </trkpt>
      <trkpt lat="43.67251" lon="5.75306">
        <ele>445.108034683</ele>
        <time>2013-07-25T11:50:29Z</time>
      </trkpt>
      <trkpt lat="43.67247" lon="5.75312">
        <ele>445.324046443</ele>
        <time>2013-07-25T11:50:32Z</time>
      </trkpt>
      <trkpt lat="43.67241" lon="5.75318">
        <ele>445.540027723</ele>
        <time>2013-07-25T11:50:35Z</time>
      </trkpt>
      <trkpt lat="43.67234" lon="5.75324">
        <ele>445.664020363</ele>
        <time>2013-07-25T11:50:38Z</time>
      </trkpt>
      <trkpt lat="43.6723" lon="5.7533">
        <ele>445.764086202</ele>
        <time>2013-07-25T11:50:41Z</time>
      </trkpt>
      <trkpt lat="43.67226" lon="5.75337">
        <ele>445.880032122</ele>
        <time>2013-07-25T11:50:44Z</time>
      </trkpt>
      <trkpt lat="43.67222" lon="5.75343">
        <ele>445.956049242</ele>
        <time>2013-07-25T11:50:47Z</time>
      </trkpt>
      <trkpt lat="43.6722" lon="5.7535">
        <ele>446.040021642</ele>
        <time>2013-07-25T11:50:50Z</time>
      </trkpt>
      <trkpt lat="43.67217" lon="5.75358">
        <ele>446.091990042</ele>
        <time>2013-07-25T11:50:53Z</time>
      </trkpt>
      <trkpt lat="43.67214" lon="5.75366">
        <ele>446.167976682</ele>
        <time>2013-07-25T11:50:56Z</time>
      </trkpt>
      <trkpt lat="43.67211" lon="5.75373">
        <ele>446.291969322</ele>
        <time>2013-07-25T11:50:59Z</time>
      </trkpt>
      <trkpt lat="43.67208" lon="5.7538">
        <ele>446.503957721</ele>
        <time>2013-07-25T11:51:02Z</time>
      </trkpt>
      <trkpt lat="43.67206" lon="5.75387">
        <ele>446.732070041</ele>
        <time>2013-07-25T11:51:05Z</time>
      </trkpt>
      <trkpt lat="43.67203" lon="5.75394">
        <ele>446.956037081</ele>
        <time>2013-07-25T11:51:08Z</time>
      </trkpt>
      <trkpt lat="43.67199" lon="5.75401">
        <ele>447.22807108</ele>
        <time>2013-07-25T11:51:11Z</time>
      </trkpt>
      <trkpt lat="43.67194" lon="5.75407">
        <ele>447.50806036</ele>
        <time>2013-07-25T11:51:14Z</time>
      </trkpt>
      <trkpt lat="43.6719" lon="5.75413">
        <ele>447.812037399</ele>
        <time>2013-07-25T11:51:17Z</time>
      </trkpt>
      <trkpt lat="43.67187" lon="5.75419">
        <ele>448.100012439</ele>
        <time>2013-07-25T11:51:20Z</time>
      </trkpt>
      <trkpt lat="43.67182" lon="5.75426">
        <ele>448.335958119</ele>
        <time>2013-07-25T11:51:23Z</time>
      </trkpt>
      <trkpt lat="43.67177" lon="5.75432">
        <ele>448.539899798</ele>
        <time>2013-07-25T11:51:26Z</time>
      </trkpt>
      <trkpt lat="43.67173" lon="5.75436">
        <ele>448.703973638</ele>
        <time>2013-07-25T11:51:29Z</time>
      </trkpt>
      <trkpt lat="43.67168" lon="5.75441">
        <ele>448.792030358</ele>
        <time>2013-07-25T11:51:32Z</time>
      </trkpt>
      <trkpt lat="43.67163" lon="5.75446">
        <ele>448.843998758</ele>
        <time>2013-07-25T11:51:35Z</time>
      </trkpt>
      <trkpt lat="43.67159" lon="5.75452">
        <ele>448.952019878</ele>
        <time>2013-07-25T11:51:38Z</time>
      </trkpt>
      <trkpt lat="43.67156" lon="5.75459">
        <ele>449.084028757</ele>
        <time>2013-07-25T11:51:41Z</time>
      </trkpt>
      <trkpt lat="43.67151" lon="5.75464">
        <ele>449.232009157</ele>
        <time>2013-07-25T11:51:44Z</time>
      </trkpt>
      <trkpt lat="43.67148" lon="5.7547">
        <ele>449.384012917</ele>
        <time>2013-07-25T11:51:47Z</time>
      </trkpt>
      <trkpt lat="43.67143" lon="5.75476">
        <ele>449.560095877</ele>
        <time>2013-07-25T11:51:50Z</time>
      </trkpt>
      <trkpt lat="43.67139" lon="5.75482">
        <ele>449.776016196</ele>
        <time>2013-07-25T11:51:53Z</time>
      </trkpt>
      <trkpt lat="43.67136" lon="5.75488">
        <ele>450.071946516</ele>
        <time>2013-07-25T11:51:56Z</time>
      </trkpt>
      <trkpt lat="43.67131" lon="5.75494">
        <ele>450.403934675</ele>
        <time>2013-07-25T11:51:59Z</time>
      </trkpt>
      <trkpt lat="43.67125" lon="5.755">
        <ele>450.684015395</ele>
        <time>2013-07-25T11:52:02Z</time>
      </trkpt>
      <trkpt lat="43.6712" lon="5.75507">
        <ele>450.884025155</ele>
        <time>2013-07-25T11:52:05Z</time>
      </trkpt>
      <trkpt lat="43.67115" lon="5.75512">
        <ele>451.164014434</ele>
        <time>2013-07-25T11:52:08Z</time>
      </trkpt>
      <trkpt lat="43.67111" lon="5.75515">
        <ele>451.435956994</ele>
        <time>2013-07-25T11:52:11Z</time>
      </trkpt>
      <trkpt lat="43.67107" lon="5.75519">
        <ele>451.672024593</ele>
        <time>2013-07-25T11:52:14Z</time>
      </trkpt>
      <trkpt lat="43.67103" lon="5.75523">
        <ele>451.916016993</ele>
        <time>2013-07-25T11:52:17Z</time>
      </trkpt>
      <trkpt lat="43.67097" lon="5.75527">
        <ele>452.136052113</ele>
        <time>2013-07-25T11:52:20Z</time>
      </trkpt>
      <trkpt lat="43.67092" lon="5.7553">
        <ele>452.332008032</ele>
        <time>2013-07-25T11:52:23Z</time>
      </trkpt>
      <trkpt lat="43.67087" lon="5.75533">
        <ele>452.536010672</ele>
        <time>2013-07-25T11:52:26Z</time>
      </trkpt>
      <trkpt lat="43.67082" lon="5.75538">
        <ele>452.724011312</ele>
        <time>2013-07-25T11:52:29Z</time>
      </trkpt>
      <trkpt lat="43.67076" lon="5.75542">
        <ele>452.855989712</ele>
        <time>2013-07-25T11:52:32Z</time>
      </trkpt>
      <trkpt lat="43.67072" lon="5.75548">
        <ele>453.000007711</ele>
        <time>2013-07-25T11:52:35Z</time>
      </trkpt>
      <trkpt lat="43.67066" lon="5.75554">
        <ele>453.147988111</ele>
        <time>2013-07-25T11:52:38Z</time>
      </trkpt>
      <trkpt lat="43.67061" lon="5.75559">
        <ele>453.244030591</ele>
        <time>2013-07-25T11:52:41Z</time>
      </trkpt>
      <trkpt lat="43.67056" lon="5.75566">
        <ele>453.280027471</ele>
        <time>2013-07-25T11:52:44Z</time>
      </trkpt>
      <trkpt lat="43.67052" lon="5.75572">
        <ele>453.323949151</ele>
        <time>2013-07-25T11:52:47Z</time>
      </trkpt>
      <trkpt lat="43.67049" lon="5.7558">
        <ele>453.388079071</ele>
        <time>2013-07-25T11:52:50Z</time>
      </trkpt>
      <trkpt lat="43.6705" lon="5.75588">
        <ele>453.440047471</ele>
        <time>2013-07-25T11:52:53Z</time>
      </trkpt>
      <trkpt lat="43.67054" lon="5.75595">
        <ele>453.399966271</ele>
        <time>2013-07-25T11:52:56Z</time>
      </trkpt>
      <trkpt lat="43.67057" lon="5.75601">
        <ele>453.239976751</ele>
        <time>2013-07-25T11:52:59Z</time>
      </trkpt>
      <trkpt lat="43.6706" lon="5.75608">
        <ele>452.991991471</ele>
        <time>2013-07-25T11:53:02Z</time>
      </trkpt>
      <trkpt lat="43.67064" lon="5.75616">
        <ele>452.760008192</ele>
        <time>2013-07-25T11:53:05Z</time>
      </trkpt>
      <trkpt lat="43.67068" lon="5.75624">
        <ele>452.495990432</ele>
        <time>2013-07-25T11:53:08Z</time>
      </trkpt>
      <trkpt lat="43.67072" lon="5.75633">
        <ele>452.216092593</ele>
        <time>2013-07-25T11:53:11Z</time>
      </trkpt>
      <trkpt lat="43.67076" lon="5.75639">
        <ele>451.900075953</ele>
        <time>2013-07-25T11:53:14Z</time>
      </trkpt>
      <trkpt lat="43.67082" lon="5.75643">
        <ele>451.460005714</ele>
        <time>2013-07-25T11:53:17Z</time>
      </trkpt>
      <trkpt lat="43.67088" lon="5.75642">
        <ele>450.939986435</ele>
        <time>2013-07-25T11:53:20Z</time>
      </trkpt>
      <trkpt lat="43.67094" lon="5.75644">
        <ele>450.379977395</ele>
        <time>2013-07-25T11:53:23Z</time>
      </trkpt>
      <trkpt lat="43.67098" lon="5.75651">
        <ele>449.824052676</ele>
        <time>2013-07-25T11:53:26Z</time>
      </trkpt>
      <trkpt lat="43.67096" lon="5.75658">
        <ele>449.119995157</ele>
        <time>2013-07-25T11:53:29Z</time>
      </trkpt>
      <trkpt lat="43.67093" lon="5.75664">
        <ele>448.343974359</ele>
        <time>2013-07-25T11:53:32Z</time>
      </trkpt>
      <trkpt lat="43.67089" lon="5.75668">
        <ele>447.55198204</ele>
        <time>2013-07-25T11:53:35Z</time>
      </trkpt>
      <trkpt lat="43.67086" lon="5.7567">
        <ele>446.724023321</ele>
        <time>2013-07-25T11:53:38Z</time>
      </trkpt>
      <trkpt lat="43.67081" lon="5.75676">
        <ele>445.955957802</ele>
        <time>2013-07-25T11:53:41Z</time>
      </trkpt>
      <trkpt lat="43.67077" lon="5.75683">
        <ele>445.279972363</ele>
        <time>2013-07-25T11:53:44Z</time>
      </trkpt>
      <trkpt lat="43.67073" lon="5.7569">
        <ele>444.607949324</ele>
        <time>2013-07-25T11:53:47Z</time>
      </trkpt>
      <trkpt lat="43.67068" lon="5.75696">
        <ele>443.927910045</ele>
        <time>2013-07-25T11:53:50Z</time>
      </trkpt>
      <trkpt lat="43.67061" lon="5.75698">
        <ele>443.272041406</ele>
        <time>2013-07-25T11:53:53Z</time>
      </trkpt>
      <trkpt lat="43.67054" lon="5.75701">
        <ele>442.679997887</ele>
        <time>2013-07-25T11:53:56Z</time>
      </trkpt>
      <trkpt lat="43.67047" lon="5.75703">
        <ele>442.128035568</ele>
        <time>2013-07-25T11:53:59Z</time>
      </trkpt>
      <trkpt lat="43.67039" lon="5.75703">
        <ele>441.544038769</ele>
        <time>2013-07-25T11:54:02Z</time>
      </trkpt>
      <trkpt lat="43.67033" lon="5.75702">
        <ele>440.94800237</ele>
        <time>2013-07-25T11:54:05Z</time>
      </trkpt>
      <trkpt lat="43.67027" lon="5.75699">
        <ele>440.336024931</ele>
        <time>2013-07-25T11:54:08Z</time>
      </trkpt>
      <trkpt lat="43.67021" lon="5.75698">
        <ele>439.823960931</ele>
        <time>2013-07-25T11:54:11Z</time>
      </trkpt>
      <trkpt lat="43.67015" lon="5.75696">
        <ele>439.343931412</ele>
        <time>2013-07-25T11:54:14Z</time>
      </trkpt>
      <trkpt lat="43.67008" lon="5.75697">
        <ele>438.983993093</ele>
        <time>2013-07-25T11:54:17Z</time>
      </trkpt>
      <trkpt lat="43.67004" lon="5.75701">
        <ele>438.691994693</ele>
        <time>2013-07-25T11:54:20Z</time>
      </trkpt>
      <trkpt lat="43.67003" lon="5.75707">
        <ele>438.388017654</ele>
        <time>2013-07-25T11:54:23Z</time>
      </trkpt>
      <trkpt lat="43.67005" lon="5.75715">
        <ele>438.012046854</ele>
        <time>2013-07-25T11:54:26Z</time>
      </trkpt>
      <trkpt lat="43.6701" lon="5.75719">
        <ele>437.507968615</ele>
        <time>2013-07-25T11:54:29Z</time>
      </trkpt>
      <trkpt lat="43.67015" lon="5.75725">
        <ele>436.983956456</ele>
        <time>2013-07-25T11:54:32Z</time>
      </trkpt>
      <trkpt lat="43.67022" lon="5.7573">
        <ele>436.408006377</ele>
        <time>2013-07-25T11:54:35Z</time>
      </trkpt>
      <trkpt lat="43.67028" lon="5.75736">
        <ele>435.884024697</ele>
        <time>2013-07-25T11:54:38Z</time>
      </trkpt>
      <trkpt lat="43.67033" lon="5.75742">
        <ele>435.435999178</ele>
        <time>2013-07-25T11:54:41Z</time>
      </trkpt>
      <trkpt lat="43.67037" lon="5.75752">
        <ele>434.947953419</ele>
        <time>2013-07-25T11:54:44Z</time>
      </trkpt>
      <trkpt lat="43.6704" lon="5.75763">
        <ele>434.44792902</ele>
        <time>2013-07-25T11:54:47Z</time>
      </trkpt>
      <trkpt lat="43.67043" lon="5.75772">
        <ele>433.90392198</ele>
        <time>2013-07-25T11:54:50Z</time>
      </trkpt>
      <trkpt lat="43.67046" lon="5.75779">
        <ele>433.464004141</ele>
        <time>2013-07-25T11:54:53Z</time>
      </trkpt>
      <trkpt lat="43.67052" lon="5.75784">
        <ele>433.048013102</ele>
        <time>2013-07-25T11:54:56Z</time>
      </trkpt>
      <trkpt lat="43.67057" lon="5.75788">
        <ele>432.664056542</ele>
        <time>2013-07-25T11:54:59Z</time>
      </trkpt>
      <trkpt lat="43.67062" lon="5.75795">
        <ele>432.296041023</ele>
        <time>2013-07-25T11:55:02Z</time>
      </trkpt>
      <trkpt lat="43.67068" lon="5.75805">
        <ele>431.792023744</ele>
        <time>2013-07-25T11:55:05Z</time>
      </trkpt>
      <trkpt lat="43.67073" lon="5.75814">
        <ele>431.268042064</ele>
        <time>2013-07-25T11:55:08Z</time>
      </trkpt>
      <trkpt lat="43.67078" lon="5.75818">
        <ele>430.768078625</ele>
        <time>2013-07-25T11:55:11Z</time>
      </trkpt>
      <trkpt lat="43.67083" lon="5.7582">
        <ele>430.284025746</ele>
        <time>2013-07-25T11:55:14Z</time>
      </trkpt>
      <trkpt lat="43.67089" lon="5.75821">
        <ele>429.843985987</ele>
        <time>2013-07-25T11:55:17Z</time>
      </trkpt>
      <trkpt lat="43.67096" lon="5.75821">
        <ele>429.416016307</ele>
        <time>2013-07-25T11:55:20Z</time>
      </trkpt>
      <trkpt lat="43.67103" lon="5.75821">
        <ele>428.947995908</ele>
        <time>2013-07-25T11:55:23Z</time>
      </trkpt>
      <trkpt lat="43.6711" lon="5.75822">
        <ele>428.376008229</ele>
        <time>2013-07-25T11:55:26Z</time>
      </trkpt>
      <trkpt lat="43.67116" lon="5.75823">
        <ele>427.71599431</ele>
        <time>2013-07-25T11:55:29Z</time>
      </trkpt>
      <trkpt lat="43.67122" lon="5.75822">
        <ele>426.995995751</ele>
        <time>2013-07-25T11:55:32Z</time>
      </trkpt>
      <trkpt lat="43.67127" lon="5.75821">
        <ele>426.236007432</ele>
        <time>2013-07-25T11:55:35Z</time>
      </trkpt>
      <trkpt lat="43.67134" lon="5.75821">
        <ele>425.448068953</ele>
        <time>2013-07-25T11:55:38Z</time>
      </trkpt>
      <trkpt lat="43.6714" lon="5.75822">
        <ele>424.624011675</ele>
        <time>2013-07-25T11:55:41Z</time>
      </trkpt>
      <trkpt lat="43.67146" lon="5.75822">
        <ele>423.775966636</ele>
        <time>2013-07-25T11:55:44Z</time>
      </trkpt>
      <trkpt lat="43.67152" lon="5.75822">
        <ele>422.960017037</ele>
        <time>2013-07-25T11:55:47Z</time>
      </trkpt>
      <trkpt lat="43.67159" lon="5.75824">
        <ele>422.120018718</ele>
        <time>2013-07-25T11:55:50Z</time>
      </trkpt>
      <trkpt lat="43.67165" lon="5.75828">
        <ele>421.324064</ele>
        <time>2013-07-25T11:55:53Z</time>
      </trkpt>
      <trkpt lat="43.67173" lon="5.75832">
        <ele>420.619976001</ele>
        <time>2013-07-25T11:55:56Z</time>
      </trkpt>
      <trkpt lat="43.67179" lon="5.75836">
        <ele>419.952037282</ele>
        <time>2013-07-25T11:55:59Z</time>
      </trkpt>
      <trkpt lat="43.67183" lon="5.75838">
        <ele>419.327989763</ele>
        <time>2013-07-25T11:56:02Z</time>
      </trkpt>
      <trkpt lat="43.67188" lon="5.75842">
        <ele>418.839974483</ele>
        <time>2013-07-25T11:56:05Z</time>
      </trkpt>
      <trkpt lat="43.67193" lon="5.75846">
        <ele>418.383963204</ele>
        <time>2013-07-25T11:56:08Z</time>
      </trkpt>
      <trkpt lat="43.67199" lon="5.7585">
        <ele>417.867997765</ele>
        <time>2013-07-25T11:56:11Z</time>
      </trkpt>
      <trkpt lat="43.67209" lon="5.75858">
        <ele>417.335969366</ele>
        <time>2013-07-25T11:56:14Z</time>
      </trkpt>
      <trkpt lat="43.67218" lon="5.7586">
        <ele>416.848015046</ele>
        <time>2013-07-25T11:56:17Z</time>
      </trkpt>
      <trkpt lat="43.67227" lon="5.75866">
        <ele>416.408036247</ele>
        <time>2013-07-25T11:56:20Z</time>
      </trkpt>
      <trkpt lat="43.67234" lon="5.75872">
        <ele>416.035997368</ele>
        <time>2013-07-25T11:56:23Z</time>
      </trkpt>
      <trkpt lat="43.67237" lon="5.7588">
        <ele>415.628022568</ele>
        <time>2013-07-25T11:56:26Z</time>
      </trkpt>
      <trkpt lat="43.6724" lon="5.75888">
        <ele>415.184020409</ele>
        <time>2013-07-25T11:56:29Z</time>
      </trkpt>
      <trkpt lat="43.6724" lon="5.75897">
        <ele>414.69603561</ele>
        <time>2013-07-25T11:56:32Z</time>
      </trkpt>
      <trkpt lat="43.67237" lon="5.75905">
        <ele>414.18796449</ele>
        <time>2013-07-25T11:56:35Z</time>
      </trkpt>
      <trkpt lat="43.67233" lon="5.75912">
        <ele>413.731922731</ele>
        <time>2013-07-25T11:56:39Z</time>
      </trkpt>
      <trkpt lat="43.67228" lon="5.7592">
        <ele>413.327971292</ele>
        <time>2013-07-25T11:56:42Z</time>
      </trkpt>
      <trkpt lat="43.67224" lon="5.75929">
        <ele>412.971995372</ele>
        <time>2013-07-25T11:56:45Z</time>
      </trkpt>
      <trkpt lat="43.67222" lon="5.75938">
        <ele>412.556034813</ele>
        <time>2013-07-25T11:56:48Z</time>
      </trkpt>
      <trkpt lat="43.67223" lon="5.75948">
        <ele>412.220023293</ele>
        <time>2013-07-25T11:56:51Z</time>
      </trkpt>
      <trkpt lat="43.67226" lon="5.75959">
        <ele>411.875995534</ele>
        <time>2013-07-25T11:56:54Z</time>
      </trkpt>
      <trkpt lat="43.6723" lon="5.75966">
        <ele>411.476006495</ele>
        <time>2013-07-25T11:56:57Z</time>
      </trkpt>
      <trkpt lat="43.67236" lon="5.75969">
        <ele>411.132009215</ele>
        <time>2013-07-25T11:57:00Z</time>
      </trkpt>
      <trkpt lat="43.67243" lon="5.75971">
        <ele>410.863998575</ele>
        <time>2013-07-25T11:57:03Z</time>
      </trkpt>
      <trkpt lat="43.67249" lon="5.75974">
        <ele>410.628022416</ele>
        <time>2013-07-25T11:57:06Z</time>
      </trkpt>
      <trkpt lat="43.67254" lon="5.75976">
        <ele>410.348002656</ele>
        <time>2013-07-25T11:57:09Z</time>
      </trkpt>
      <trkpt lat="43.67259" lon="5.75979">
        <ele>410.059997137</ele>
        <time>2013-07-25T11:57:12Z</time>
      </trkpt>
      <trkpt lat="43.67265" lon="5.75982">
        <ele>409.784000737</ele>
        <time>2013-07-25T11:57:15Z</time>
      </trkpt>
      <trkpt lat="43.67271" lon="5.75986">
        <ele>409.448019698</ele>
        <time>2013-07-25T11:57:18Z</time>
      </trkpt>
      <trkpt lat="43.67277" lon="5.75989">
        <ele>409.275960098</ele>
        <time>2013-07-25T11:57:21Z</time>
      </trkpt>
      <trkpt lat="43.67284" lon="5.75993">
        <ele>409.232038418</ele>
        <time>2013-07-25T11:57:24Z</time>
      </trkpt>
      <trkpt lat="43.67291" lon="5.75996">
        <ele>409.232038418</ele>
        <time>2013-07-25T11:57:27Z</time>
      </trkpt>
      <trkpt lat="43.67297" lon="5.75997">
        <ele>409.215975458</ele>
        <time>2013-07-25T11:57:30Z</time>
      </trkpt>
      <trkpt lat="43.67304" lon="5.75999">
        <ele>409.295985458</ele>
        <time>2013-07-25T11:57:33Z</time>
      </trkpt>
      <trkpt lat="43.6731" lon="5.75996">
        <ele>409.435949618</ele>
        <time>2013-07-25T11:57:36Z</time>
      </trkpt>
      <trkpt lat="43.67316" lon="5.75994">
        <ele>409.604016337</ele>
        <time>2013-07-25T11:57:39Z</time>
      </trkpt>
      <trkpt lat="43.67322" lon="5.75993">
        <ele>409.848039217</ele>
        <time>2013-07-25T11:57:42Z</time>
      </trkpt>
      <trkpt lat="43.67328" lon="5.7599">
        <ele>410.124066097</ele>
        <time>2013-07-25T11:57:45Z</time>
      </trkpt>
      <trkpt lat="43.67334" lon="5.75989">
        <ele>410.416034016</ele>
        <time>2013-07-25T11:57:48Z</time>
      </trkpt>
      <trkpt lat="43.67339" lon="5.75988">
        <ele>410.768017056</ele>
        <time>2013-07-25T11:57:51Z</time>
      </trkpt>
      <trkpt lat="43.67346" lon="5.75988">
        <ele>411.191963375</ele>
        <time>2013-07-25T11:57:54Z</time>
      </trkpt>
      <trkpt lat="43.67353" lon="5.75988">
        <ele>411.551993134</ele>
        <time>2013-07-25T11:57:57Z</time>
      </trkpt>
      <trkpt lat="43.67359" lon="5.7599">
        <ele>411.812048494</ele>
        <time>2013-07-25T11:58:00Z</time>
      </trkpt>
      <trkpt lat="43.67364" lon="5.75991">
        <ele>412.012027774</ele>
        <time>2013-07-25T11:58:03Z</time>
      </trkpt>
      <trkpt lat="43.6737" lon="5.75992">
        <ele>412.196035533</ele>
        <time>2013-07-25T11:58:06Z</time>
      </trkpt>
      <trkpt lat="43.67377" lon="5.75994">
        <ele>412.372027053</ele>
        <time>2013-07-25T11:58:09Z</time>
      </trkpt>
      <trkpt lat="43.67383" lon="5.75996">
        <ele>412.556034813</ele>
        <time>2013-07-25T11:58:12Z</time>
      </trkpt>
      <trkpt lat="43.67389" lon="5.75997">
        <ele>412.704076173</ele>
        <time>2013-07-25T11:58:15Z</time>
      </trkpt>
      <trkpt lat="43.67395" lon="5.75998">
        <ele>412.856049452</ele>
        <time>2013-07-25T11:58:18Z</time>
      </trkpt>
      <trkpt lat="43.67401" lon="5.75999">
        <ele>413.007992252</ele>
        <time>2013-07-25T11:58:21Z</time>
      </trkpt>
      <trkpt lat="43.67406" lon="5.75999">
        <ele>413.275972412</ele>
        <time>2013-07-25T11:58:24Z</time>
      </trkpt>
      <trkpt lat="43.67412" lon="5.75997">
        <ele>413.616007291</ele>
        <time>2013-07-25T11:58:27Z</time>
      </trkpt>
      <trkpt lat="43.67418" lon="5.75995">
        <ele>414.056077531</ele>
        <time>2013-07-25T11:58:30Z</time>
      </trkpt>
      <trkpt lat="43.67424" lon="5.75996">
        <ele>414.57198201</ele>
        <time>2013-07-25T11:58:33Z</time>
      </trkpt>
      <trkpt lat="43.67429" lon="5.75997">
        <ele>415.015923209</ele>
        <time>2013-07-25T11:58:36Z</time>
      </trkpt>
      <trkpt lat="43.67434" lon="5.76001">
        <ele>415.363974329</ele>
        <time>2013-07-25T11:58:39Z</time>
      </trkpt>
      <trkpt lat="43.6744" lon="5.76005">
        <ele>415.592056168</ele>
        <time>2013-07-25T11:58:42Z</time>
      </trkpt>
      <trkpt lat="43.67444" lon="5.7601">
        <ele>415.832025208</ele>
        <time>2013-07-25T11:58:45Z</time>
      </trkpt>
      <trkpt lat="43.67449" lon="5.76015">
        <ele>416.035966888</ele>
        <time>2013-07-25T11:58:48Z</time>
      </trkpt>
      <trkpt lat="43.67454" lon="5.7602">
        <ele>416.204003127</ele>
        <time>2013-07-25T11:58:51Z</time>
      </trkpt>
      <trkpt lat="43.6746" lon="5.76023">
        <ele>416.344028247</ele>
        <time>2013-07-25T11:58:54Z</time>
      </trkpt>
      <trkpt lat="43.67467" lon="5.76025">
        <ele>416.440009767</ele>
        <time>2013-07-25T11:58:57Z</time>
      </trkpt>
      <trkpt lat="43.67474" lon="5.76024">
        <ele>416.576011527</ele>
        <time>2013-07-25T11:59:00Z</time>
      </trkpt>
      <trkpt lat="43.67479" lon="5.76022">
        <ele>416.804032406</ele>
        <time>2013-07-25T11:59:03Z</time>
      </trkpt>
      <trkpt lat="43.67483" lon="5.7602">
        <ele>417.079998326</ele>
        <time>2013-07-25T11:59:06Z</time>
      </trkpt>
      <trkpt lat="43.67488" lon="5.76017">
        <ele>417.355994726</ele>
        <time>2013-07-25T11:59:09Z</time>
      </trkpt>
      <trkpt lat="43.67493" lon="5.76014">
        <ele>417.615958645</ele>
        <time>2013-07-25T11:59:12Z</time>
      </trkpt>
      <trkpt lat="43.67498" lon="5.76011">
        <ele>417.884030245</ele>
        <time>2013-07-25T11:59:15Z</time>
      </trkpt>
      <trkpt lat="43.67502" lon="5.76008">
        <ele>418.155972804</ele>
        <time>2013-07-25T11:59:18Z</time>
      </trkpt>
      <trkpt lat="43.67507" lon="5.76005">
        <ele>418.439985444</ele>
        <time>2013-07-25T11:59:21Z</time>
      </trkpt>
      <trkpt lat="43.67511" lon="5.76003">
        <ele>418.676022564</ele>
        <time>2013-07-25T11:59:24Z</time>
      </trkpt>
      <trkpt lat="43.67516" lon="5.76001">
        <ele>418.851983603</ele>
        <time>2013-07-25T11:59:27Z</time>
      </trkpt>
      <trkpt lat="43.67521" lon="5.75999">
        <ele>419.019989363</ele>
        <time>2013-07-25T11:59:30Z</time>
      </trkpt>
      <trkpt lat="43.67526" lon="5.75995">
        <ele>419.244017363</ele>
        <time>2013-07-25T11:59:33Z</time>
      </trkpt>
      <trkpt lat="43.67531" lon="5.75991">
        <ele>419.508035122</ele>
        <time>2013-07-25T11:59:36Z</time>
      </trkpt>
      <trkpt lat="43.67537" lon="5.75989">
        <ele>419.724046882</ele>
        <time>2013-07-25T11:59:39Z</time>
      </trkpt>
      <trkpt lat="43.67542" lon="5.75984">
        <ele>419.807988802</ele>
        <time>2013-07-25T11:59:42Z</time>
      </trkpt>
      <trkpt lat="43.67547" lon="5.7598">
        <ele>419.859987682</ele>
        <time>2013-07-25T11:59:45Z</time>
      </trkpt>
      <trkpt lat="43.67554" lon="5.75977">
        <ele>419.947983442</ele>
        <time>2013-07-25T11:59:48Z</time>
      </trkpt>
      <trkpt lat="43.67559" lon="5.75972">
        <ele>420.036009682</ele>
        <time>2013-07-25T11:59:51Z</time>
      </trkpt>
      <trkpt lat="43.67562" lon="5.75965">
        <ele>420.000043282</ele>
        <time>2013-07-25T11:59:54Z</time>
      </trkpt>
      <trkpt lat="43.67567" lon="5.7596">
        <ele>419.868034402</ele>
        <time>2013-07-25T11:59:57Z</time>
      </trkpt>
      <trkpt lat="43.67573" lon="5.75954">
        <ele>419.600023762</ele>
        <time>2013-07-25T12:00:00Z</time>
      </trkpt>
      <trkpt lat="43.67577" lon="5.75948">
        <ele>419.280014243</ele>
        <time>2013-07-25T12:00:03Z</time>
      </trkpt>
      <trkpt lat="43.6758" lon="5.7594">
        <ele>418.940009843</ele>
        <time>2013-07-25T12:00:06Z</time>
      </trkpt>
      <trkpt lat="43.6758" lon="5.75932">
        <ele>418.535966964</ele>
        <time>2013-07-25T12:00:09Z</time>
      </trkpt>
      <trkpt lat="43.67577" lon="5.75924">
        <ele>418.075993285</ele>
        <time>2013-07-25T12:00:12Z</time>
      </trkpt>
      <trkpt lat="43.67573" lon="5.75917">
        <ele>417.568013605</ele>
        <time>2013-07-25T12:00:15Z</time>
      </trkpt>
      <trkpt lat="43.6757" lon="5.75912">
        <ele>417.124011446</ele>
        <time>2013-07-25T12:00:18Z</time>
      </trkpt>
      <trkpt lat="43.67567" lon="5.75905">
        <ele>416.692048887</ele>
        <time>2013-07-25T12:00:21Z</time>
      </trkpt>
      <trkpt lat="43.67562" lon="5.75899">
        <ele>416.311963287</ele>
        <time>2013-07-25T12:00:24Z</time>
      </trkpt>
      <trkpt lat="43.67557" lon="5.75893">
        <ele>415.947971128</ele>
        <time>2013-07-25T12:00:27Z</time>
      </trkpt>
      <trkpt lat="43.67551" lon="5.75886">
        <ele>415.604034808</ele>
        <time>2013-07-25T12:00:30Z</time>
      </trkpt>
      <trkpt lat="43.67545" lon="5.75878">
        <ele>415.299966329</ele>
        <time>2013-07-25T12:00:33Z</time>
      </trkpt>
      <trkpt lat="43.67541" lon="5.75871">
        <ele>414.991996409</ele>
        <time>2013-07-25T12:00:36Z</time>
      </trkpt>
      <trkpt lat="43.67538" lon="5.75859">
        <ele>414.62800425</ele>
        <time>2013-07-25T12:00:39Z</time>
      </trkpt>
      <trkpt lat="43.67534" lon="5.75847">
        <ele>414.21999897</ele>
        <time>2013-07-25T12:00:42Z</time>
      </trkpt>
      <trkpt lat="43.67531" lon="5.75838">
        <ele>413.784043531</ele>
        <time>2013-07-25T12:00:45Z</time>
      </trkpt>
      <trkpt lat="43.67527" lon="5.7583">
        <ele>413.356012892</ele>
        <time>2013-07-25T12:00:48Z</time>
      </trkpt>
      <trkpt lat="43.67525" lon="5.75825">
        <ele>412.884030092</ele>
        <time>2013-07-25T12:00:51Z</time>
      </trkpt>
      <trkpt lat="43.67522" lon="5.75819">
        <ele>412.364010813</ele>
        <time>2013-07-25T12:00:54Z</time>
      </trkpt>
      <trkpt lat="43.67519" lon="5.7581">
        <ele>411.852038254</ele>
        <time>2013-07-25T12:00:57Z</time>
      </trkpt>
      <trkpt lat="43.67516" lon="5.75802">
        <ele>411.332018975</ele>
        <time>2013-07-25T12:01:00Z</time>
      </trkpt>
      <trkpt lat="43.67512" lon="5.75794">
        <ele>410.820015936</ele>
        <time>2013-07-25T12:01:03Z</time>
      </trkpt>
      <trkpt lat="43.67509" lon="5.75785">
        <ele>410.348063616</ele>
        <time>2013-07-25T12:01:06Z</time>
      </trkpt>
      <trkpt lat="43.67505" lon="5.75776">
        <ele>409.932042097</ele>
        <time>2013-07-25T12:01:09Z</time>
      </trkpt>
      <trkpt lat="43.675" lon="5.75769">
        <ele>409.467953618</ele>
        <time>2013-07-25T12:01:12Z</time>
      </trkpt>
      <trkpt lat="43.67497" lon="5.7576">
        <ele>409.019958578</ele>
        <time>2013-07-25T12:01:15Z</time>
      </trkpt>
      <trkpt lat="43.67498" lon="5.75752">
        <ele>408.587996019</ele>
        <time>2013-07-25T12:01:18Z</time>
      </trkpt>
      <trkpt lat="43.67507" lon="5.7575">
        <ele>407.67603442</ele>
        <time>2013-07-25T12:01:21Z</time>
      </trkpt>
      <trkpt lat="43.67514" lon="5.75749">
        <ele>406.436077542</ele>
        <time>2013-07-25T12:01:24Z</time>
      </trkpt>
      <trkpt lat="43.67522" lon="5.75752">
        <ele>404.904030825</ele>
        <time>2013-07-25T12:01:27Z</time>
      </trkpt>
      <trkpt lat="43.67529" lon="5.75754">
        <ele>403.063983707</ele>
        <time>2013-07-25T12:01:30Z</time>
      </trkpt>
      <trkpt lat="43.67537" lon="5.75753">
        <ele>401.05199891</ele>
        <time>2013-07-25T12:01:33Z</time>
      </trkpt>
      <trkpt lat="43.67544" lon="5.75752">
        <ele>399.007979634</ele>
        <time>2013-07-25T12:01:36Z</time>
      </trkpt>
      <trkpt lat="43.6755" lon="5.7575">
        <ele>397.000018197</ele>
        <time>2013-07-25T12:01:39Z</time>
      </trkpt>
      <trkpt lat="43.67556" lon="5.75749">
        <ele>395.05603428</ele>
        <time>2013-07-25T12:01:42Z</time>
      </trkpt>
      <trkpt lat="43.67563" lon="5.75748">
        <ele>393.475951082</ele>
        <time>2013-07-25T12:01:45Z</time>
      </trkpt>
      <trkpt lat="43.67571" lon="5.75747">
        <ele>392.336029564</ele>
        <time>2013-07-25T12:01:48Z</time>
      </trkpt>
      <trkpt lat="43.67577" lon="5.75747">
        <ele>391.480029245</ele>
        <time>2013-07-25T12:01:51Z</time>
      </trkpt>
      <trkpt lat="43.67583" lon="5.75747">
        <ele>390.984028206</ele>
        <time>2013-07-25T12:01:54Z</time>
      </trkpt>
      <trkpt lat="43.67589" lon="5.75747">
        <ele>390.723972846</ele>
        <time>2013-07-25T12:01:57Z</time>
      </trkpt>
      <trkpt lat="43.67595" lon="5.75746">
        <ele>390.567976206</ele>
        <time>2013-07-25T12:02:00Z</time>
      </trkpt>
      <trkpt lat="43.67599" lon="5.75742">
        <ele>390.463917486</ele>
        <time>2013-07-25T12:02:03Z</time>
      </trkpt>
      <trkpt lat="43.67601" lon="5.75734">
        <ele>390.407956207</ele>
        <time>2013-07-25T12:02:06Z</time>
      </trkpt>
      <trkpt lat="43.67604" lon="5.75727">
        <ele>390.363973567</ele>
        <time>2013-07-25T12:02:09Z</time>
      </trkpt>
      <trkpt lat="43.67607" lon="5.75721">
        <ele>390.408047647</ele>
        <time>2013-07-25T12:02:12Z</time>
      </trkpt>
      <trkpt lat="43.6761" lon="5.75714">
        <ele>390.508083006</ele>
        <time>2013-07-25T12:02:15Z</time>
      </trkpt>
      <trkpt lat="43.67613" lon="5.75707">
        <ele>390.652009566</ele>
        <time>2013-07-25T12:02:18Z</time>
      </trkpt>
      <trkpt lat="43.67617" lon="5.757">
        <ele>390.856012206</ele>
        <time>2013-07-25T12:02:21Z</time>
      </trkpt>
      <trkpt lat="43.6762" lon="5.75695">
        <ele>391.075986366</ele>
        <time>2013-07-25T12:02:24Z</time>
      </trkpt>
      <trkpt lat="43.67624" lon="5.75689">
        <ele>391.359999005</ele>
        <time>2013-07-25T12:02:27Z</time>
      </trkpt>
      <trkpt lat="43.67629" lon="5.75684">
        <ele>391.620054365</ele>
        <time>2013-07-25T12:02:30Z</time>
      </trkpt>
      <trkpt lat="43.67634" lon="5.75679">
        <ele>391.856000044</ele>
        <time>2013-07-25T12:02:33Z</time>
      </trkpt>
      <trkpt lat="43.67639" lon="5.75674">
        <ele>392.056040284</ele>
        <time>2013-07-25T12:02:36Z</time>
      </trkpt>
      <trkpt lat="43.67644" lon="5.75671">
        <ele>392.175948604</ele>
        <time>2013-07-25T12:02:39Z</time>
      </trkpt>
      <trkpt lat="43.67649" lon="5.75668">
        <ele>392.231970844</ele>
        <time>2013-07-25T12:02:42Z</time>
      </trkpt>
      <trkpt lat="43.67655" lon="5.75665">
        <ele>392.223985084</ele>
        <time>2013-07-25T12:02:45Z</time>
      </trkpt>
      <trkpt lat="43.67661" lon="5.75661">
        <ele>392.247942364</ele>
        <time>2013-07-25T12:02:48Z</time>
      </trkpt>
      <trkpt lat="43.67666" lon="5.75659">
        <ele>392.344015324</ele>
        <time>2013-07-25T12:02:51Z</time>
      </trkpt>
      <trkpt lat="43.67673" lon="5.75656">
        <ele>392.484009963</ele>
        <time>2013-07-25T12:02:54Z</time>
      </trkpt>
      <trkpt lat="43.67678" lon="5.75653">
        <ele>392.655947643</ele>
        <time>2013-07-25T12:02:57Z</time>
      </trkpt>
      <trkpt lat="43.67684" lon="5.75652">
        <ele>392.867966523</ele>
        <time>2013-07-25T12:03:00Z</time>
      </trkpt>
      <trkpt lat="43.6769" lon="5.7565">
        <ele>393.156033002</ele>
        <time>2013-07-25T12:03:03Z</time>
      </trkpt>
      <trkpt lat="43.67696" lon="5.75649">
        <ele>393.452024282</ele>
        <time>2013-07-25T12:03:06Z</time>
      </trkpt>
      <trkpt lat="43.67702" lon="5.75648">
        <ele>393.808000201</ele>
        <time>2013-07-25T12:03:09Z</time>
      </trkpt>
      <trkpt lat="43.67708" lon="5.75646">
        <ele>394.111916281</ele>
        <time>2013-07-25T12:03:12Z</time>
      </trkpt>
      <trkpt lat="43.67713" lon="5.75644">
        <ele>394.339998121</ele>
        <time>2013-07-25T12:03:15Z</time>
      </trkpt>
      <trkpt lat="43.67719" lon="5.75643">
        <ele>394.56003324</ele>
        <time>2013-07-25T12:03:18Z</time>
      </trkpt>
      <trkpt lat="43.67726" lon="5.75642">
        <ele>394.73206236</ele>
        <time>2013-07-25T12:03:21Z</time>
      </trkpt>
      <trkpt lat="43.67732" lon="5.7564">
        <ele>394.88799804</ele>
        <time>2013-07-25T12:03:24Z</time>
      </trkpt>
      <trkpt lat="43.67738" lon="5.75638">
        <ele>394.99202628</ele>
        <time>2013-07-25T12:03:27Z</time>
      </trkpt>
      <trkpt lat="43.67744" lon="5.75635">
        <ele>395.167987319</ele>
        <time>2013-07-25T12:03:30Z</time>
      </trkpt>
      <trkpt lat="43.6775" lon="5.7563">
        <ele>395.387991959</ele>
        <time>2013-07-25T12:03:33Z</time>
      </trkpt>
      <trkpt lat="43.67755" lon="5.75626">
        <ele>395.584008839</ele>
        <time>2013-07-25T12:03:36Z</time>
      </trkpt>
      <trkpt lat="43.67761" lon="5.75622">
        <ele>395.743967878</ele>
        <time>2013-07-25T12:03:39Z</time>
      </trkpt>
      <trkpt lat="43.67767" lon="5.75618">
        <ele>395.827970758</ele>
        <time>2013-07-25T12:03:42Z</time>
      </trkpt>
      <trkpt lat="43.67772" lon="5.75612">
        <ele>395.863998118</ele>
        <time>2013-07-25T12:03:45Z</time>
      </trkpt>
      <trkpt lat="43.67778" lon="5.75606">
        <ele>395.863998118</ele>
        <time>2013-07-25T12:03:48Z</time>
      </trkpt>
      <trkpt lat="43.67782" lon="5.756">
        <ele>395.844033718</ele>
        <time>2013-07-25T12:03:51Z</time>
      </trkpt>
      <trkpt lat="43.67787" lon="5.75593">
        <ele>395.792004358</ele>
        <time>2013-07-25T12:03:54Z</time>
      </trkpt>
      <trkpt lat="43.67792" lon="5.75587">
        <ele>395.691999479</ele>
        <time>2013-07-25T12:03:57Z</time>
      </trkpt>
      <trkpt lat="43.67797" lon="5.75581">
        <ele>395.575992599</ele>
        <time>2013-07-25T12:04:00Z</time>
      </trkpt>
      <trkpt lat="43.67802" lon="5.75575">
        <ele>395.475987719</ele>
        <time>2013-07-25T12:04:03Z</time>
      </trkpt>
      <trkpt lat="43.67807" lon="5.75567">
        <ele>395.419965479</ele>
        <time>2013-07-25T12:04:06Z</time>
      </trkpt>
      <trkpt lat="43.67811" lon="5.7556">
        <ele>395.332000199</ele>
        <time>2013-07-25T12:04:09Z</time>
      </trkpt>
      <trkpt lat="43.67817" lon="5.75554">
        <ele>395.215993319</ele>
        <time>2013-07-25T12:04:12Z</time>
      </trkpt>
      <trkpt lat="43.67823" lon="5.75548">
        <ele>395.095993559</ele>
        <time>2013-07-25T12:04:15Z</time>
      </trkpt>
      <trkpt lat="43.67828" lon="5.75543">
        <ele>394.92000204</ele>
        <time>2013-07-25T12:04:18Z</time>
      </trkpt>
      <trkpt lat="43.67833" lon="5.75535">
        <ele>394.6879578</ele>
        <time>2013-07-25T12:04:21Z</time>
      </trkpt>
      <trkpt lat="43.67837" lon="5.75528">
        <ele>394.44402636</ele>
        <time>2013-07-25T12:04:24Z</time>
      </trkpt>
      <trkpt lat="43.67843" lon="5.75522">
        <ele>394.191987241</ele>
        <time>2013-07-25T12:04:27Z</time>
      </trkpt>
      <trkpt lat="43.67848" lon="5.75516">
        <ele>393.851982841</ele>
        <time>2013-07-25T12:04:30Z</time>
      </trkpt>
      <trkpt lat="43.67854" lon="5.7551">
        <ele>393.476012042</ele>
        <time>2013-07-25T12:04:33Z</time>
      </trkpt>
      <trkpt lat="43.67859" lon="5.75504">
        <ele>393.055967163</ele>
        <time>2013-07-25T12:04:36Z</time>
      </trkpt>
      <trkpt lat="43.67865" lon="5.75498">
        <ele>392.616049323</ele>
        <time>2013-07-25T12:04:39Z</time>
      </trkpt>
      <trkpt lat="43.67869" lon="5.75492">
        <ele>392.224015564</ele>
        <time>2013-07-25T12:04:42Z</time>
      </trkpt>
      <trkpt lat="43.67874" lon="5.75486">
        <ele>391.820003164</ele>
        <time>2013-07-25T12:04:45Z</time>
      </trkpt>
      <trkpt lat="43.67879" lon="5.7548">
        <ele>391.392033485</ele>
        <time>2013-07-25T12:04:48Z</time>
      </trkpt>
      <trkpt lat="43.67883" lon="5.75476">
        <ele>390.980004846</ele>
        <time>2013-07-25T12:04:51Z</time>
      </trkpt>
      <trkpt lat="43.67888" lon="5.7547">
        <ele>390.623998446</ele>
        <time>2013-07-25T12:04:54Z</time>
      </trkpt>
      <trkpt lat="43.67892" lon="5.75464">
        <ele>390.296003167</ele>
        <time>2013-07-25T12:04:57Z</time>
      </trkpt>
      <trkpt lat="43.67897" lon="5.75458">
        <ele>390.111903967</ele>
        <time>2013-07-25T12:05:00Z</time>
      </trkpt>
      <trkpt lat="43.67902" lon="5.75451">
        <ele>389.991995647</ele>
        <time>2013-07-25T12:05:03Z</time>
      </trkpt>
      <trkpt lat="43.67906" lon="5.75444">
        <ele>389.891990767</ele>
        <time>2013-07-25T12:05:06Z</time>
      </trkpt>
      <trkpt lat="43.6791" lon="5.75439">
        <ele>389.771930048</ele>
        <time>2013-07-25T12:05:09Z</time>
      </trkpt>
      <trkpt lat="43.67914" lon="5.75434">
        <ele>389.704020608</ele>
        <time>2013-07-25T12:05:12Z</time>
      </trkpt>
      <trkpt lat="43.67918" lon="5.75428">
        <ele>389.683995248</ele>
        <time>2013-07-25T12:05:15Z</time>
      </trkpt>
      <trkpt lat="43.67922" lon="5.75423">
        <ele>389.676009488</ele>
        <time>2013-07-25T12:05:18Z</time>
      </trkpt>
      <trkpt lat="43.67926" lon="5.75416">
        <ele>389.763913808</ele>
        <time>2013-07-25T12:05:21Z</time>
      </trkpt>
      <trkpt lat="43.67931" lon="5.75411">
        <ele>389.836029487</ele>
        <time>2013-07-25T12:05:24Z</time>
      </trkpt>
      <trkpt lat="43.67935" lon="5.75404">
        <ele>389.875958287</ele>
        <time>2013-07-25T12:05:27Z</time>
      </trkpt>
      <trkpt lat="43.67939" lon="5.75398">
        <ele>389.939966287</ele>
        <time>2013-07-25T12:05:30Z</time>
      </trkpt>
      <trkpt lat="43.67943" lon="5.75392">
        <ele>390.143999407</ele>
        <time>2013-07-25T12:05:33Z</time>
      </trkpt>
      <trkpt lat="43.67946" lon="5.75387">
        <ele>390.468032286</ele>
        <time>2013-07-25T12:05:36Z</time>
      </trkpt>
      <trkpt lat="43.6795" lon="5.7538">
        <ele>390.892039566</ele>
        <time>2013-07-25T12:05:39Z</time>
      </trkpt>
      <trkpt lat="43.67953" lon="5.75374">
        <ele>391.292028605</ele>
        <time>2013-07-25T12:05:42Z</time>
      </trkpt>
      <trkpt lat="43.67956" lon="5.75367">
        <ele>391.583996525</ele>
        <time>2013-07-25T12:05:45Z</time>
      </trkpt>
      <trkpt lat="43.67958" lon="5.75361">
        <ele>391.863985804</ele>
        <time>2013-07-25T12:05:48Z</time>
      </trkpt>
      <trkpt lat="43.67961" lon="5.75355">
        <ele>392.216029804</ele>
        <time>2013-07-25T12:05:51Z</time>
      </trkpt>
      <trkpt lat="43.67965" lon="5.75349">
        <ele>392.636013723</ele>
        <time>2013-07-25T12:05:54Z</time>
      </trkpt>
      <trkpt lat="43.67968" lon="5.75342">
        <ele>392.975987643</ele>
        <time>2013-07-25T12:05:57Z</time>
      </trkpt>
      <trkpt lat="43.67971" lon="5.75335">
        <ele>393.283927082</ele>
        <time>2013-07-25T12:06:00Z</time>
      </trkpt>
      <trkpt lat="43.67975" lon="5.75328">
        <ele>393.551937722</ele>
        <time>2013-07-25T12:06:03Z</time>
      </trkpt>
      <trkpt lat="43.67977" lon="5.75322">
        <ele>393.791998201</ele>
        <time>2013-07-25T12:06:06Z</time>
      </trkpt>
      <trkpt lat="43.6798" lon="5.75315">
        <ele>394.051992601</ele>
        <time>2013-07-25T12:06:09Z</time>
      </trkpt>
      <trkpt lat="43.67984" lon="5.7531">
        <ele>394.320033721</ele>
        <time>2013-07-25T12:06:12Z</time>
      </trkpt>
      <trkpt lat="43.67988" lon="5.75303">
        <ele>394.59599964</ele>
        <time>2013-07-25T12:06:15Z</time>
      </trkpt>
      <trkpt lat="43.67992" lon="5.75296">
        <ele>394.76406636</ele>
        <time>2013-07-25T12:06:18Z</time>
      </trkpt>
      <trkpt lat="43.67995" lon="5.7529">
        <ele>394.91597868</ele>
        <time>2013-07-25T12:06:21Z</time>
      </trkpt>
      <trkpt lat="43.67998" lon="5.75283">
        <ele>395.01208212</ele>
        <time>2013-07-25T12:06:24Z</time>
      </trkpt>
      <trkpt lat="43.67999" lon="5.75276">
        <ele>395.02403028</ele>
        <time>2013-07-25T12:06:27Z</time>
      </trkpt>
      <trkpt lat="43.68001" lon="5.7527">
        <ele>395.00001204</ele>
        <time>2013-07-25T12:06:30Z</time>
      </trkpt>
      <trkpt lat="43.68002" lon="5.75262">
        <ele>394.9799562</ele>
        <time>2013-07-25T12:06:33Z</time>
      </trkpt>
      <trkpt lat="43.68003" lon="5.75253">
        <ele>394.9799562</ele>
        <time>2013-07-25T12:06:36Z</time>
      </trkpt>
      <trkpt lat="43.68002" lon="5.75245">
        <ele>394.93597356</ele>
        <time>2013-07-25T12:06:39Z</time>
      </trkpt>
      <trkpt lat="43.68003" lon="5.75238">
        <ele>394.9080234</ele>
        <time>2013-07-25T12:06:42Z</time>
      </trkpt>
      <trkpt lat="43.68004" lon="5.7523">
        <ele>394.88397468</ele>
        <time>2013-07-25T12:06:45Z</time>
      </trkpt>
      <trkpt lat="43.68004" lon="5.75221">
        <ele>394.85995644</ele>
        <time>2013-07-25T12:06:48Z</time>
      </trkpt>
      <trkpt lat="43.68003" lon="5.75212">
        <ele>394.8199362</ele>
        <time>2013-07-25T12:06:51Z</time>
      </trkpt>
      <trkpt lat="43.68002" lon="5.75203">
        <ele>394.83200628</ele>
        <time>2013-07-25T12:06:54Z</time>
      </trkpt>
      <trkpt lat="43.68001" lon="5.75194">
        <ele>394.87196556</ele>
        <time>2013-07-25T12:06:57Z</time>
      </trkpt>
      <trkpt lat="43.68" lon="5.75185">
        <ele>394.99202628</ele>
        <time>2013-07-25T12:07:00Z</time>
      </trkpt>
      <trkpt lat="43.67998" lon="5.75178">
        <ele>395.103948839</ele>
        <time>2013-07-25T12:07:03Z</time>
      </trkpt>
      <trkpt lat="43.67997" lon="5.7517">
        <ele>395.175942599</ele>
        <time>2013-07-25T12:07:06Z</time>
      </trkpt>
      <trkpt lat="43.67994" lon="5.75161">
        <ele>395.231934359</ele>
        <time>2013-07-25T12:07:09Z</time>
      </trkpt>
      <trkpt lat="43.67993" lon="5.75153">
        <ele>395.271954599</ele>
        <time>2013-07-25T12:07:12Z</time>
      </trkpt>
      <trkpt lat="43.67991" lon="5.75146">
        <ele>395.323953479</ele>
        <time>2013-07-25T12:07:15Z</time>
      </trkpt>
      <trkpt lat="43.67989" lon="5.75137">
        <ele>395.348032679</ele>
        <time>2013-07-25T12:07:18Z</time>
      </trkpt>
      <trkpt lat="43.67986" lon="5.75127">
        <ele>395.288048039</ele>
        <time>2013-07-25T12:07:21Z</time>
      </trkpt>
      <trkpt lat="43.67984" lon="5.75118">
        <ele>395.140037159</ele>
        <time>2013-07-25T12:07:24Z</time>
      </trkpt>
      <trkpt lat="43.67982" lon="5.75109">
        <ele>394.99598868</ele>
        <time>2013-07-25T12:07:27Z</time>
      </trkpt>
      <trkpt lat="43.6798" lon="5.751">
        <ele>394.87196556</ele>
        <time>2013-07-25T12:07:30Z</time>
      </trkpt>
      <trkpt lat="43.67978" lon="5.7509">
        <ele>394.7999718</ele>
        <time>2013-07-25T12:07:32Z</time>
      </trkpt>
      <trkpt lat="43.67977" lon="5.75081">
        <ele>394.72398516</ele>
        <time>2013-07-25T12:07:35Z</time>
      </trkpt>
      <trkpt lat="43.67977" lon="5.75072">
        <ele>394.64007372</ele>
        <time>2013-07-25T12:07:38Z</time>
      </trkpt>
      <trkpt lat="43.67977" lon="5.75064">
        <ele>394.61200164</ele>
        <time>2013-07-25T12:07:41Z</time>
      </trkpt>
      <trkpt lat="43.67977" lon="5.75057">
        <ele>394.55198652</ele>
        <time>2013-07-25T12:07:44Z</time>
      </trkpt>
      <trkpt lat="43.67978" lon="5.75049">
        <ele>394.54000788</ele>
        <time>2013-07-25T12:07:47Z</time>
      </trkpt>
      <trkpt lat="43.67979" lon="5.75041">
        <ele>394.45198164</ele>
        <time>2013-07-25T12:07:50Z</time>
      </trkpt>
      <trkpt lat="43.67981" lon="5.75033">
        <ele>394.40796852</ele>
        <time>2013-07-25T12:07:53Z</time>
      </trkpt>
      <trkpt lat="43.67983" lon="5.75025">
        <ele>394.287968761</ele>
        <time>2013-07-25T12:07:56Z</time>
      </trkpt>
      <trkpt lat="43.67986" lon="5.75017">
        <ele>394.244016601</ele>
        <time>2013-07-25T12:07:59Z</time>
      </trkpt>
      <trkpt lat="43.67989" lon="5.7501">
        <ele>394.203996361</ele>
        <time>2013-07-25T12:08:02Z</time>
      </trkpt>
      <trkpt lat="43.67992" lon="5.75003">
        <ele>394.119993481</ele>
        <time>2013-07-25T12:08:05Z</time>
      </trkpt>
      <trkpt lat="43.67996" lon="5.74995">
        <ele>393.959943001</ele>
        <time>2013-07-25T12:08:08Z</time>
      </trkpt>
      <trkpt lat="43.68" lon="5.74988">
        <ele>393.771942361</ele>
        <time>2013-07-25T12:08:11Z</time>
      </trkpt>
      <trkpt lat="43.68006" lon="5.74982">
        <ele>393.547944842</ele>
        <time>2013-07-25T12:08:14Z</time>
      </trkpt>
      <trkpt lat="43.6801" lon="5.74976">
        <ele>393.335956442</ele>
        <time>2013-07-25T12:08:17Z</time>
      </trkpt>
      <trkpt lat="43.68016" lon="5.74971">
        <ele>393.171974042</ele>
        <time>2013-07-25T12:08:20Z</time>
      </trkpt>
      <trkpt lat="43.68022" lon="5.74966">
        <ele>393.015946923</ele>
        <time>2013-07-25T12:08:23Z</time>
      </trkpt>
      <trkpt lat="43.68029" lon="5.74961">
        <ele>392.808012363</ele>
        <time>2013-07-25T12:08:26Z</time>
      </trkpt>
      <trkpt lat="43.68037" lon="5.74958">
        <ele>392.703984123</ele>
        <time>2013-07-25T12:08:29Z</time>
      </trkpt>
      <trkpt lat="43.68044" lon="5.74956">
        <ele>392.696028843</ele>
        <time>2013-07-25T12:08:32Z</time>
      </trkpt>
      <trkpt lat="43.68051" lon="5.74954">
        <ele>392.799996123</ele>
        <time>2013-07-25T12:08:35Z</time>
      </trkpt>
      <trkpt lat="43.68059" lon="5.74953">
        <ele>392.968001883</ele>
        <time>2013-07-25T12:08:38Z</time>
      </trkpt>
      <trkpt lat="43.68065" lon="5.74952">
        <ele>393.136007642</ele>
        <time>2013-07-25T12:08:41Z</time>
      </trkpt>
      <trkpt lat="43.68072" lon="5.74951">
        <ele>393.227965802</ele>
        <time>2013-07-25T12:08:44Z</time>
      </trkpt>
      <trkpt lat="43.68079" lon="5.7495">
        <ele>393.227965802</ele>
        <time>2013-07-25T12:08:47Z</time>
      </trkpt>
      <trkpt lat="43.68087" lon="5.7495">
        <ele>393.164018762</ele>
        <time>2013-07-25T12:08:50Z</time>
      </trkpt>
      <trkpt lat="43.68094" lon="5.74949">
        <ele>393.071969163</ele>
        <time>2013-07-25T12:08:53Z</time>
      </trkpt>
      <trkpt lat="43.68101" lon="5.74947">
        <ele>392.915911563</ele>
        <time>2013-07-25T12:08:56Z</time>
      </trkpt>
      <trkpt lat="43.68108" lon="5.74943">
        <ele>392.775977883</ele>
        <time>2013-07-25T12:08:59Z</time>
      </trkpt>
      <trkpt lat="43.68115" lon="5.74938">
        <ele>392.587977243</ele>
        <time>2013-07-25T12:09:02Z</time>
      </trkpt>
      <trkpt lat="43.6812" lon="5.74934">
        <ele>392.391960364</ele>
        <time>2013-07-25T12:09:05Z</time>
      </trkpt>
      <trkpt lat="43.68126" lon="5.74929">
        <ele>392.167993324</ele>
        <time>2013-07-25T12:09:08Z</time>
      </trkpt>
      <trkpt lat="43.68132" lon="5.74921">
        <ele>392.008003804</ele>
        <time>2013-07-25T12:09:11Z</time>
      </trkpt>
      <trkpt lat="43.68137" lon="5.74915">
        <ele>391.980053644</ele>
        <time>2013-07-25T12:09:14Z</time>
      </trkpt>
      <trkpt lat="43.68141" lon="5.74907">
        <ele>391.968044524</ele>
        <time>2013-07-25T12:09:17Z</time>
      </trkpt>
      <trkpt lat="43.68144" lon="5.74899">
        <ele>391.875994924</ele>
        <time>2013-07-25T12:09:20Z</time>
      </trkpt>
      <trkpt lat="43.68148" lon="5.74891">
        <ele>391.739962685</ele>
        <time>2013-07-25T12:09:23Z</time>
      </trkpt>
      <trkpt lat="43.68151" lon="5.74883">
        <ele>391.600029005</ele>
        <time>2013-07-25T12:09:26Z</time>
      </trkpt>
      <trkpt lat="43.68154" lon="5.74875">
        <ele>391.443971405</ele>
        <time>2013-07-25T12:09:29Z</time>
      </trkpt>
      <trkpt lat="43.68156" lon="5.74866">
        <ele>391.215981005</ele>
        <time>2013-07-25T12:09:32Z</time>
      </trkpt>
      <trkpt lat="43.6816" lon="5.74858">
        <ele>390.940045566</ele>
        <time>2013-07-25T12:09:35Z</time>
      </trkpt>
      <trkpt lat="43.68163" lon="5.74849">
        <ele>390.559959966</ele>
        <time>2013-07-25T12:09:38Z</time>
      </trkpt>
      <trkpt lat="43.68166" lon="5.74841">
        <ele>390.131929327</ele>
        <time>2013-07-25T12:09:41Z</time>
      </trkpt>
      <trkpt lat="43.6817" lon="5.74833">
        <ele>389.696004368</ele>
        <time>2013-07-25T12:09:44Z</time>
      </trkpt>
      <trkpt lat="43.68173" lon="5.74826">
        <ele>389.255934128</ele>
        <time>2013-07-25T12:09:47Z</time>
      </trkpt>
      <trkpt lat="43.68176" lon="5.74818">
        <ele>388.868015169</ele>
        <time>2013-07-25T12:09:50Z</time>
      </trkpt>
      <trkpt lat="43.68181" lon="5.7481">
        <ele>388.48399765</ele>
        <time>2013-07-25T12:09:53Z</time>
      </trkpt>
      <trkpt lat="43.68186" lon="5.74803">
        <ele>388.21199413</ele>
        <time>2013-07-25T12:09:56Z</time>
      </trkpt>
      <trkpt lat="43.68191" lon="5.74796">
        <ele>388.00799149</ele>
        <time>2013-07-25T12:09:59Z</time>
      </trkpt>
      <trkpt lat="43.68197" lon="5.7479">
        <ele>387.84803245</ele>
        <time>2013-07-25T12:10:02Z</time>
      </trkpt>
      <trkpt lat="43.68203" lon="5.74784">
        <ele>387.683989091</ele>
        <time>2013-07-25T12:10:05Z</time>
      </trkpt>
      <trkpt lat="43.68209" lon="5.74778">
        <ele>387.512020931</ele>
        <time>2013-07-25T12:10:08Z</time>
      </trkpt>
      <trkpt lat="43.68215" lon="5.74773">
        <ele>387.327982691</ele>
        <time>2013-07-25T12:10:11Z</time>
      </trkpt>
      <trkpt lat="43.6822" lon="5.74767">
        <ele>387.092037012</ele>
        <time>2013-07-25T12:10:14Z</time>
      </trkpt>
      <trkpt lat="43.68226" lon="5.74762">
        <ele>386.780043732</ele>
        <time>2013-07-25T12:10:17Z</time>
      </trkpt>
      <trkpt lat="43.68232" lon="5.74758">
        <ele>386.355975493</ele>
        <time>2013-07-25T12:10:20Z</time>
      </trkpt>
      <trkpt lat="43.68239" lon="5.74753">
        <ele>385.884023173</ele>
        <time>2013-07-25T12:10:23Z</time>
      </trkpt>
      <trkpt lat="43.68245" lon="5.74747">
        <ele>385.356018134</ele>
        <time>2013-07-25T12:10:26Z</time>
      </trkpt>
      <trkpt lat="43.6825" lon="5.74743">
        <ele>384.796009095</ele>
        <time>2013-07-25T12:10:29Z</time>
      </trkpt>
      <trkpt lat="43.68256" lon="5.74738">
        <ele>384.163975816</ele>
        <time>2013-07-25T12:10:32Z</time>
      </trkpt>
      <trkpt lat="43.68262" lon="5.74732">
        <ele>383.555960777</ele>
        <time>2013-07-25T12:10:35Z</time>
      </trkpt>
      <trkpt lat="43.68268" lon="5.74727">
        <ele>382.971963978</ele>
        <time>2013-07-25T12:10:38Z</time>
      </trkpt>
      <trkpt lat="43.68274" lon="5.74721">
        <ele>382.340022139</ele>
        <time>2013-07-25T12:10:41Z</time>
      </trkpt>
      <trkpt lat="43.68279" lon="5.74715">
        <ele>381.76800398</ele>
        <time>2013-07-25T12:10:44Z</time>
      </trkpt>
      <trkpt lat="43.68286" lon="5.74707">
        <ele>381.207994941</ele>
        <time>2013-07-25T12:10:47Z</time>
      </trkpt>
      <trkpt lat="43.68292" lon="5.747">
        <ele>380.596017501</ele>
        <time>2013-07-25T12:10:50Z</time>
      </trkpt>
      <trkpt lat="43.68297" lon="5.74694">
        <ele>379.980047182</ele>
        <time>2013-07-25T12:10:53Z</time>
      </trkpt>
      <trkpt lat="43.68302" lon="5.74687">
        <ele>379.420038143</ele>
        <time>2013-07-25T12:10:56Z</time>
      </trkpt>
      <trkpt lat="43.68308" lon="5.7468">
        <ele>378.836071824</ele>
        <time>2013-07-25T12:10:59Z</time>
      </trkpt>
      <trkpt lat="43.68312" lon="5.74672">
        <ele>378.248021185</ele>
        <time>2013-07-25T12:11:02Z</time>
      </trkpt>
      <trkpt lat="43.68316" lon="5.74665">
        <ele>377.731994786</ele>
        <time>2013-07-25T12:11:05Z</time>
      </trkpt>
      <trkpt lat="43.68321" lon="5.74657">
        <ele>377.264035347</ele>
        <time>2013-07-25T12:11:08Z</time>
      </trkpt>
      <trkpt lat="43.68326" lon="5.74649">
        <ele>376.848074787</ele>
        <time>2013-07-25T12:11:11Z</time>
      </trkpt>
      <trkpt lat="43.6833" lon="5.74641">
        <ele>376.495969828</ele>
        <time>2013-07-25T12:11:14Z</time>
      </trkpt>
      <trkpt lat="43.68334" lon="5.74633">
        <ele>376.151972548</ele>
        <time>2013-07-25T12:11:17Z</time>
      </trkpt>
      <trkpt lat="43.68338" lon="5.74625">
        <ele>375.844002629</ele>
        <time>2013-07-25T12:11:20Z</time>
      </trkpt>
      <trkpt lat="43.68341" lon="5.74618">
        <ele>375.595895429</ele>
        <time>2013-07-25T12:11:23Z</time>
      </trkpt>
      <trkpt lat="43.68344" lon="5.7461">
        <ele>375.411948629</ele>
        <time>2013-07-25T12:11:26Z</time>
      </trkpt>
      <trkpt lat="43.68347" lon="5.74603">
        <ele>375.21199983</ele>
        <time>2013-07-25T12:11:29Z</time>
      </trkpt>
      <trkpt lat="43.6835" lon="5.74595">
        <ele>374.94801255</ele>
        <time>2013-07-25T12:11:32Z</time>
      </trkpt>
      <trkpt lat="43.68353" lon="5.74587">
        <ele>374.651960311</ele>
        <time>2013-07-25T12:11:35Z</time>
      </trkpt>
      <trkpt lat="43.68357" lon="5.7458">
        <ele>374.360022871</ele>
        <time>2013-07-25T12:11:38Z</time>
      </trkpt>
      <trkpt lat="43.68362" lon="5.74573">
        <ele>374.107953271</ele>
        <time>2013-07-25T12:11:41Z</time>
      </trkpt>
      <trkpt lat="43.68366" lon="5.74565">
        <ele>373.927999352</ele>
        <time>2013-07-25T12:11:44Z</time>
      </trkpt>
      <trkpt lat="43.68371" lon="5.74557">
        <ele>373.772002712</ele>
        <time>2013-07-25T12:11:47Z</time>
      </trkpt>
      <trkpt lat="43.68374" lon="5.7455">
        <ele>373.651972472</ele>
        <time>2013-07-25T12:11:50Z</time>
      </trkpt>
      <trkpt lat="43.68378" lon="5.74544">
        <ele>373.535965592</ele>
        <time>2013-07-25T12:11:53Z</time>
      </trkpt>
      <trkpt lat="43.68381" lon="5.74536">
        <ele>373.495975832</ele>
        <time>2013-07-25T12:11:56Z</time>
      </trkpt>
      <trkpt lat="43.68384" lon="5.7453">
        <ele>373.512008312</ele>
        <time>2013-07-25T12:11:59Z</time>
      </trkpt>
      <trkpt lat="43.68388" lon="5.74523">
        <ele>373.543981832</ele>
        <time>2013-07-25T12:12:02Z</time>
      </trkpt>
      <trkpt lat="43.68391" lon="5.74516">
        <ele>373.571962472</ele>
        <time>2013-07-25T12:12:05Z</time>
      </trkpt>
      <trkpt lat="43.68394" lon="5.74509">
        <ele>373.603996952</ele>
        <time>2013-07-25T12:12:08Z</time>
      </trkpt>
      <trkpt lat="43.68398" lon="5.74501">
        <ele>373.604088392</ele>
        <time>2013-07-25T12:12:11Z</time>
      </trkpt>
      <trkpt lat="43.68399" lon="5.74493">
        <ele>373.568000072</ele>
        <time>2013-07-25T12:12:14Z</time>
      </trkpt>
      <trkpt lat="43.68397" lon="5.74486">
        <ele>373.555960472</ele>
        <time>2013-07-25T12:12:17Z</time>
      </trkpt>
      <trkpt lat="43.68396" lon="5.74479">
        <ele>373.572023432</ele>
        <time>2013-07-25T12:12:20Z</time>
      </trkpt>
      <trkpt lat="43.68397" lon="5.74472">
        <ele>373.543981832</ele>
        <time>2013-07-25T12:12:23Z</time>
      </trkpt>
      <trkpt lat="43.68398" lon="5.74464">
        <ele>373.551937112</ele>
        <time>2013-07-25T12:12:26Z</time>
      </trkpt>
      <trkpt lat="43.684" lon="5.74458">
        <ele>373.624052792</ele>
        <time>2013-07-25T12:12:29Z</time>
      </trkpt>
      <trkpt lat="43.68401" lon="5.74451">
        <ele>373.712048552</ele>
        <time>2013-07-25T12:12:32Z</time>
      </trkpt>
      <trkpt lat="43.68402" lon="5.74443">
        <ele>373.827994472</ele>
        <time>2013-07-25T12:12:35Z</time>
      </trkpt>
      <trkpt lat="43.68401" lon="5.74437">
        <ele>374.000023592</ele>
        <time>2013-07-25T12:12:38Z</time>
      </trkpt>
      <trkpt lat="43.684" lon="5.74432">
        <ele>374.167998871</ele>
        <time>2013-07-25T12:12:41Z</time>
      </trkpt>
      <trkpt lat="43.68398" lon="5.74429">
        <ele>374.312047351</ele>
        <time>2013-07-25T12:12:44Z</time>
      </trkpt>
      <trkpt lat="43.68394" lon="5.74429">
        <ele>374.576065111</ele>
        <time>2013-07-25T12:12:47Z</time>
      </trkpt>
      <trkpt lat="43.68389" lon="5.7443">
        <ele>374.99199519</ele>
        <time>2013-07-25T12:12:50Z</time>
      </trkpt>
      <trkpt lat="43.68384" lon="5.74431">
        <ele>375.484033829</ele>
        <time>2013-07-25T12:12:53Z</time>
      </trkpt>
      <trkpt lat="43.68379" lon="5.7443">
        <ele>376.008045988</ele>
        <time>2013-07-25T12:12:56Z</time>
      </trkpt>
      <trkpt lat="43.68375" lon="5.74428">
        <ele>376.620023428</ele>
        <time>2013-07-25T12:12:59Z</time>
      </trkpt>
      <trkpt lat="43.68372" lon="5.74424">
        <ele>377.219991747</ele>
        <time>2013-07-25T12:13:02Z</time>
      </trkpt>
      <trkpt lat="43.68369" lon="5.74423">
        <ele>377.840015906</ele>
        <time>2013-07-25T12:13:05Z</time>
      </trkpt>
      <trkpt lat="43.68367" lon="5.74421">
        <ele>378.471957745</ele>
        <time>2013-07-25T12:13:08Z</time>
      </trkpt>
      <trkpt lat="43.68365" lon="5.7442">
        <ele>379.072017504</ele>
        <time>2013-07-25T12:13:11Z</time>
      </trkpt>
      <trkpt lat="43.68365" lon="5.74417">
        <ele>379.563995183</ele>
        <time>2013-07-25T12:13:14Z</time>
      </trkpt>
      <trkpt lat="43.68362" lon="5.74415">
        <ele>379.944019822</ele>
        <time>2013-07-25T12:13:17Z</time>
      </trkpt>
      <trkpt lat="43.68358" lon="5.74412">
        <ele>380.351994622</ele>
        <time>2013-07-25T12:13:20Z</time>
      </trkpt>
      <trkpt lat="43.68355" lon="5.74411">
        <ele>380.748021261</ele>
        <time>2013-07-25T12:13:23Z</time>
      </trkpt>
      <trkpt lat="43.68352" lon="5.7441">
        <ele>381.147979821</ele>
        <time>2013-07-25T12:13:26Z</time>
      </trkpt>
      <trkpt lat="43.68348" lon="5.7441">
        <ele>381.6559595</ele>
        <time>2013-07-25T12:13:29Z</time>
      </trkpt>
      <trkpt lat="43.68345" lon="5.74408">
        <ele>382.167993019</ele>
        <time>2013-07-25T12:13:32Z</time>
      </trkpt>
      <trkpt lat="43.68343" lon="5.74407">
        <ele>382.732025418</ele>
        <time>2013-07-25T12:13:35Z</time>
      </trkpt>
      <trkpt lat="43.68341" lon="5.74406">
        <ele>383.292034457</ele>
        <time>2013-07-25T12:13:38Z</time>
      </trkpt>
      <trkpt lat="43.68338" lon="5.74405">
        <ele>383.827994777</ele>
        <time>2013-07-25T12:13:41Z</time>
      </trkpt>
      <trkpt lat="43.68338" lon="5.74403">
        <ele>384.351945976</ele>
        <time>2013-07-25T12:13:44Z</time>
      </trkpt>
      <trkpt lat="43.68341" lon="5.74404">
        <ele>384.811919655</ele>
        <time>2013-07-25T12:13:47Z</time>
      </trkpt>
      <trkpt lat="43.68346" lon="5.74405">
        <ele>385.203953414</ele>
        <time>2013-07-25T12:13:50Z</time>
      </trkpt>
      <trkpt lat="43.68351" lon="5.74407">
        <ele>385.404024134</ele>
        <time>2013-07-25T12:13:53Z</time>
      </trkpt>
      <trkpt lat="43.68357" lon="5.74408">
        <ele>385.480010774</ele>
        <time>2013-07-25T12:13:56Z</time>
      </trkpt>
      <trkpt lat="43.68361" lon="5.74411">
        <ele>385.452030134</ele>
        <time>2013-07-25T12:13:59Z</time>
      </trkpt>
      <trkpt lat="43.68366" lon="5.74416">
        <ele>385.340016134</ele>
        <time>2013-07-25T12:14:02Z</time>
      </trkpt>
      <trkpt lat="43.6837" lon="5.74422">
        <ele>385.131990135</ele>
        <time>2013-07-25T12:14:05Z</time>
      </trkpt>
      <trkpt lat="43.68374" lon="5.74426">
        <ele>384.820057815</ele>
        <time>2013-07-25T12:14:08Z</time>
      </trkpt>
      <trkpt lat="43.68378" lon="5.74429">
        <ele>384.476030056</ele>
        <time>2013-07-25T12:14:11Z</time>
      </trkpt>
      <trkpt lat="43.68384" lon="5.7443">
        <ele>384.076010536</ele>
        <time>2013-07-25T12:14:14Z</time>
      </trkpt>
      <trkpt lat="43.68392" lon="5.7443">
        <ele>383.680044857</ele>
        <time>2013-07-25T12:14:17Z</time>
      </trkpt>
      <trkpt lat="43.68399" lon="5.7443">
        <ele>383.316022217</ele>
        <time>2013-07-25T12:14:20Z</time>
      </trkpt>
      <trkpt lat="43.68406" lon="5.74428">
        <ele>382.939959978</ele>
        <time>2013-07-25T12:14:23Z</time>
      </trkpt>
      <trkpt lat="43.68412" lon="5.74425">
        <ele>382.523968939</ele>
        <time>2013-07-25T12:14:26Z</time>
      </trkpt>
      <trkpt lat="43.68417" lon="5.7442">
        <ele>382.095968779</ele>
        <time>2013-07-25T12:14:29Z</time>
      </trkpt>
      <trkpt lat="43.68421" lon="5.74417">
        <ele>381.7359695</ele>
        <time>2013-07-25T12:14:32Z</time>
      </trkpt>
      <trkpt lat="43.68424" lon="5.74411">
        <ele>381.33598046</ele>
        <time>2013-07-25T12:14:35Z</time>
      </trkpt>
      <trkpt lat="43.68425" lon="5.74404">
        <ele>380.863967181</ele>
        <time>2013-07-25T12:14:38Z</time>
      </trkpt>
      <trkpt lat="43.68428" lon="5.74398">
        <ele>380.351994622</ele>
        <time>2013-07-25T12:14:41Z</time>
      </trkpt>
      <trkpt lat="43.6843" lon="5.74391">
        <ele>379.864040303</ele>
        <time>2013-07-25T12:14:44Z</time>
      </trkpt>
      <trkpt lat="43.68431" lon="5.74383">
        <ele>379.376055503</ele>
        <time>2013-07-25T12:14:47Z</time>
      </trkpt>
      <trkpt lat="43.68433" lon="5.74375">
        <ele>378.871977264</ele>
        <time>2013-07-25T12:14:50Z</time>
      </trkpt>
      <trkpt lat="43.68436" lon="5.74368">
        <ele>378.443977105</ele>
        <time>2013-07-25T12:14:53Z</time>
      </trkpt>
      <trkpt lat="43.6844" lon="5.74363">
        <ele>377.939990306</ele>
        <time>2013-07-25T12:14:56Z</time>
      </trkpt>
      <trkpt lat="43.68443" lon="5.74355">
        <ele>377.319996626</ele>
        <time>2013-07-25T12:14:59Z</time>
      </trkpt>
      <trkpt lat="43.68446" lon="5.7435">
        <ele>376.680008067</ele>
        <time>2013-07-25T12:15:02Z</time>
      </trkpt>
      <trkpt lat="43.68449" lon="5.74346">
        <ele>376.048005268</ele>
        <time>2013-07-25T12:15:05Z</time>
      </trkpt>
      <trkpt lat="43.68453" lon="5.74341">
        <ele>375.396038069</ele>
        <time>2013-07-25T12:15:08Z</time>
      </trkpt>
      <trkpt lat="43.68458" lon="5.74335">
        <ele>374.74806375</ele>
        <time>2013-07-25T12:15:11Z</time>
      </trkpt>
      <trkpt lat="43.68462" lon="5.74329">
        <ele>374.136055831</ele>
        <time>2013-07-25T12:15:14Z</time>
      </trkpt>
      <trkpt lat="43.68466" lon="5.74321">
        <ele>373.460070392</ele>
        <time>2013-07-25T12:15:17Z</time>
      </trkpt>
      <trkpt lat="43.6847" lon="5.74314">
        <ele>372.835961913</ele>
        <time>2013-07-25T12:15:20Z</time>
      </trkpt>
      <trkpt lat="43.68472" lon="5.74306">
        <ele>372.303963994</ele>
        <time>2013-07-25T12:15:23Z</time>
      </trkpt>
      <trkpt lat="43.68474" lon="5.74299">
        <ele>371.815979195</ele>
        <time>2013-07-25T12:15:26Z</time>
      </trkpt>
      <trkpt lat="43.68476" lon="5.74292">
        <ele>371.447994155</ele>
        <time>2013-07-25T12:15:29Z</time>
      </trkpt>
      <trkpt lat="43.68478" lon="5.74285">
        <ele>371.179983516</ele>
        <time>2013-07-25T12:15:32Z</time>
      </trkpt>
      <trkpt lat="43.68479" lon="5.74278">
        <ele>370.904017596</ele>
        <time>2013-07-25T12:15:35Z</time>
      </trkpt>
      <trkpt lat="43.68479" lon="5.74271">
        <ele>370.600040557</ele>
        <time>2013-07-25T12:15:38Z</time>
      </trkpt>
      <trkpt lat="43.68479" lon="5.74265">
        <ele>370.371989197</ele>
        <time>2013-07-25T12:15:41Z</time>
      </trkpt>
      <trkpt lat="43.68477" lon="5.74258">
        <ele>370.184019037</ele>
        <time>2013-07-25T12:15:44Z</time>
      </trkpt>
      <trkpt lat="43.68478" lon="5.7425">
        <ele>369.971969678</ele>
        <time>2013-07-25T12:15:47Z</time>
      </trkpt>
      <trkpt lat="43.68478" lon="5.74242">
        <ele>369.752056478</ele>
        <time>2013-07-25T12:15:50Z</time>
      </trkpt>
      <trkpt lat="43.68478" lon="5.74236">
        <ele>369.536014238</ele>
        <time>2013-07-25T12:15:53Z</time>
      </trkpt>
      <trkpt lat="43.68479" lon="5.74227">
        <ele>369.299977119</ele>
        <time>2013-07-25T12:15:56Z</time>
      </trkpt>
      <trkpt lat="43.68478" lon="5.7422">
        <ele>369.119992719</ele>
        <time>2013-07-25T12:15:59Z</time>
      </trkpt>
      <trkpt lat="43.68478" lon="5.74212">
        <ele>369.012002079</ele>
        <time>2013-07-25T12:16:02Z</time>
      </trkpt>
      <trkpt lat="43.68476" lon="5.74204">
        <ele>368.951986959</ele>
        <time>2013-07-25T12:16:05Z</time>
      </trkpt>
      <trkpt lat="43.68475" lon="5.74195">
        <ele>368.975974719</ele>
        <time>2013-07-25T12:16:08Z</time>
      </trkpt>
      <trkpt lat="43.68472" lon="5.74187">
        <ele>369.063970479</ele>
        <time>2013-07-25T12:16:11Z</time>
      </trkpt>
      <trkpt lat="43.68467" lon="5.74181">
        <ele>369.248039199</ele>
        <time>2013-07-25T12:16:14Z</time>
      </trkpt>
      <trkpt lat="43.68462" lon="5.74177">
        <ele>369.428054078</ele>
        <time>2013-07-25T12:16:17Z</time>
      </trkpt>
      <trkpt lat="43.68458" lon="5.74175">
        <ele>369.671985518</ele>
        <time>2013-07-25T12:16:20Z</time>
      </trkpt>
      <trkpt lat="43.68452" lon="5.74175">
        <ele>369.871964798</ele>
        <time>2013-07-25T12:16:23Z</time>
      </trkpt>
      <trkpt lat="43.68447" lon="5.74176">
        <ele>370.083953197</ele>
        <time>2013-07-25T12:16:26Z</time>
      </trkpt>
      <trkpt lat="43.68442" lon="5.74173">
        <ele>370.292009677</ele>
        <time>2013-07-25T12:16:29Z</time>
      </trkpt>
      <trkpt lat="43.68439" lon="5.74166">
        <ele>370.428011437</ele>
        <time>2013-07-25T12:16:32Z</time>
      </trkpt>
      <trkpt lat="43.68436" lon="5.74157">
        <ele>370.539903517</ele>
        <time>2013-07-25T12:16:35Z</time>
      </trkpt>
      <trkpt lat="43.68435" lon="5.74148">
        <ele>370.607965357</ele>
        <time>2013-07-25T12:16:38Z</time>
      </trkpt>
      <trkpt lat="43.68434" lon="5.74139">
        <ele>370.660025197</ele>
        <time>2013-07-25T12:16:41Z</time>
      </trkpt>
      <trkpt lat="43.68433" lon="5.7413">
        <ele>370.704007837</ele>
        <time>2013-07-25T12:16:44Z</time>
      </trkpt>
      <trkpt lat="43.68431" lon="5.74122">
        <ele>370.752013836</ele>
        <time>2013-07-25T12:16:47Z</time>
      </trkpt>
      <trkpt lat="43.68429" lon="5.74114">
        <ele>370.708000717</ele>
        <time>2013-07-25T12:16:50Z</time>
      </trkpt>
      <trkpt lat="43.68428" lon="5.74104">
        <ele>370.600010077</ele>
        <time>2013-07-25T12:16:53Z</time>
      </trkpt>
      <trkpt lat="43.68428" lon="5.74096">
        <ele>370.552004077</ele>
        <time>2013-07-25T12:16:56Z</time>
      </trkpt>
      <trkpt lat="43.68428" lon="5.74088">
        <ele>370.516068157</ele>
        <time>2013-07-25T12:16:59Z</time>
      </trkpt>
      <trkpt lat="43.68428" lon="5.74079">
        <ele>370.531978717</ele>
        <time>2013-07-25T12:17:02Z</time>
      </trkpt>
      <trkpt lat="43.68431" lon="5.74072">
        <ele>370.636006957</ele>
        <time>2013-07-25T12:17:05Z</time>
      </trkpt>
      <trkpt lat="43.68435" lon="5.74069">
        <ele>370.687944877</ele>
        <time>2013-07-25T12:17:08Z</time>
      </trkpt>
      <trkpt lat="43.68441" lon="5.74069">
        <ele>370.687944877</ele>
        <time>2013-07-25T12:17:11Z</time>
      </trkpt>
      <trkpt lat="43.68446" lon="5.74069">
        <ele>370.727965116</ele>
        <time>2013-07-25T12:17:14Z</time>
      </trkpt>
      <trkpt lat="43.68451" lon="5.74073">
        <ele>370.695930637</ele>
        <time>2013-07-25T12:17:17Z</time>
      </trkpt>
      <trkpt lat="43.68458" lon="5.74076">
        <ele>370.575930877</ele>
        <time>2013-07-25T12:17:20Z</time>
      </trkpt>
      <trkpt lat="43.68464" lon="5.74077">
        <ele>370.359980077</ele>
        <time>2013-07-25T12:17:23Z</time>
      </trkpt>
      <trkpt lat="43.68469" lon="5.74076">
        <ele>370.028022398</ele>
        <time>2013-07-25T12:17:26Z</time>
      </trkpt>
      <trkpt lat="43.68473" lon="5.74071">
        <ele>369.607977518</ele>
        <time>2013-07-25T12:17:29Z</time>
      </trkpt>
      <trkpt lat="43.68473" lon="5.74061">
        <ele>369.007978719</ele>
        <time>2013-07-25T12:17:32Z</time>
      </trkpt>
      <trkpt lat="43.68472" lon="5.7405">
        <ele>368.25600664</ele>
        <time>2013-07-25T12:17:35Z</time>
      </trkpt>
      <trkpt lat="43.6847" lon="5.7404">
        <ele>367.396043922</ele>
        <time>2013-07-25T12:17:38Z</time>
      </trkpt>
      <trkpt lat="43.6847" lon="5.74033">
        <ele>366.588019123</ele>
        <time>2013-07-25T12:17:41Z</time>
      </trkpt>
      <trkpt lat="43.68472" lon="5.74026">
        <ele>365.892008324</ele>
        <time>2013-07-25T12:17:44Z</time>
      </trkpt>
      <trkpt lat="43.68474" lon="5.7402">
        <ele>365.219985285</ele>
        <time>2013-07-25T12:17:47Z</time>
      </trkpt>
      <trkpt lat="43.68474" lon="5.74014">
        <ele>364.559971366</ele>
        <time>2013-07-25T12:17:50Z</time>
      </trkpt>
      <trkpt lat="43.68474" lon="5.74005">
        <ele>363.863960567</ele>
        <time>2013-07-25T12:17:53Z</time>
      </trkpt>
      <trkpt lat="43.68476" lon="5.73998">
        <ele>363.256006488</ele>
        <time>2013-07-25T12:17:56Z</time>
      </trkpt>
      <trkpt lat="43.68479" lon="5.7399">
        <ele>362.876012328</ele>
        <time>2013-07-25T12:17:59Z</time>
      </trkpt>
      <trkpt lat="43.68481" lon="5.73982">
        <ele>362.744033929</ele>
        <time>2013-07-25T12:18:02Z</time>
      </trkpt>
      <trkpt lat="43.68485" lon="5.73975">
        <ele>362.808041929</ele>
        <time>2013-07-25T12:18:05Z</time>
      </trkpt>
      <trkpt lat="43.68488" lon="5.73969">
        <ele>362.912039688</ele>
        <time>2013-07-25T12:18:08Z</time>
      </trkpt>
      <trkpt lat="43.68491" lon="5.73963">
        <ele>363.107965128</ele>
        <time>2013-07-25T12:18:11Z</time>
      </trkpt>
      <trkpt lat="43.68493" lon="5.73956">
        <ele>363.351988008</ele>
        <time>2013-07-25T12:18:14Z</time>
      </trkpt>
      <trkpt lat="43.68496" lon="5.73948">
        <ele>363.687999527</ele>
        <time>2013-07-25T12:18:17Z</time>
      </trkpt>
      <trkpt lat="43.68499" lon="5.73941">
        <ele>364.128039287</ele>
        <time>2013-07-25T12:18:20Z</time>
      </trkpt>
      <trkpt lat="43.68501" lon="5.73933">
        <ele>364.620016966</ele>
        <time>2013-07-25T12:18:23Z</time>
      </trkpt>
      <trkpt lat="43.68503" lon="5.73926">
        <ele>365.040000885</ele>
        <time>2013-07-25T12:18:26Z</time>
      </trkpt>
      <trkpt lat="43.68506" lon="5.73918">
        <ele>365.275946565</ele>
        <time>2013-07-25T12:18:29Z</time>
      </trkpt>
      <trkpt lat="43.68507" lon="5.73909">
        <ele>365.419995045</ele>
        <time>2013-07-25T12:18:32Z</time>
      </trkpt>
      <trkpt lat="43.68509" lon="5.73903">
        <ele>365.491988804</ele>
        <time>2013-07-25T12:18:35Z</time>
      </trkpt>
      <trkpt lat="43.6851" lon="5.73895">
        <ele>365.496012164</ele>
        <time>2013-07-25T12:18:38Z</time>
      </trkpt>
      <trkpt lat="43.68512" lon="5.73888">
        <ele>365.543987684</ele>
        <time>2013-07-25T12:18:41Z</time>
      </trkpt>
      <trkpt lat="43.68514" lon="5.7388">
        <ele>365.623936724</ele>
        <time>2013-07-25T12:18:44Z</time>
      </trkpt>
      <trkpt lat="43.68515" lon="5.73872">
        <ele>365.727964964</ele>
        <time>2013-07-25T12:18:47Z</time>
      </trkpt>
      <trkpt lat="43.68517" lon="5.73864">
        <ele>365.844002324</ele>
        <time>2013-07-25T12:18:50Z</time>
      </trkpt>
      <trkpt lat="43.68518" lon="5.73858">
        <ele>365.987959364</ele>
        <time>2013-07-25T12:18:53Z</time>
      </trkpt>
      <trkpt lat="43.68518" lon="5.7385">
        <ele>366.188030083</ele>
        <time>2013-07-25T12:18:56Z</time>
      </trkpt>
      <trkpt lat="43.68518" lon="5.73843">
        <ele>366.424006243</ele>
        <time>2013-07-25T12:18:59Z</time>
      </trkpt>
      <trkpt lat="43.68518" lon="5.73837">
        <ele>366.699972163</ele>
        <time>2013-07-25T12:19:02Z</time>
      </trkpt>
      <trkpt lat="43.68517" lon="5.7383">
        <ele>366.971975682</ele>
        <time>2013-07-25T12:19:05Z</time>
      </trkpt>
      <trkpt lat="43.68515" lon="5.73823">
        <ele>367.208012802</ele>
        <time>2013-07-25T12:19:08Z</time>
      </trkpt>
      <trkpt lat="43.68512" lon="5.73815">
        <ele>367.496018321</ele>
        <time>2013-07-25T12:19:11Z</time>
      </trkpt>
      <trkpt lat="43.68509" lon="5.73807">
        <ele>367.792009601</ele>
        <time>2013-07-25T12:19:14Z</time>
      </trkpt>
      <trkpt lat="43.68507" lon="5.73801">
        <ele>368.12799064</ele>
        <time>2013-07-25T12:19:17Z</time>
      </trkpt>
      <trkpt lat="43.68507" lon="5.73793">
        <ele>368.43596056</ele>
        <time>2013-07-25T12:19:20Z</time>
      </trkpt>
      <trkpt lat="43.68508" lon="5.73784">
        <ele>368.64800992</ele>
        <time>2013-07-25T12:19:23Z</time>
      </trkpt>
      <trkpt lat="43.68508" lon="5.73776">
        <ele>368.795990319</ele>
        <time>2013-07-25T12:19:26Z</time>
      </trkpt>
      <trkpt lat="43.68509" lon="5.73768">
        <ele>368.927999199</ele>
        <time>2013-07-25T12:19:29Z</time>
      </trkpt>
      <trkpt lat="43.68508" lon="5.7376">
        <ele>369.123985599</ele>
        <time>2013-07-25T12:19:32Z</time>
      </trkpt>
      <trkpt lat="43.68507" lon="5.73751">
        <ele>369.327988239</ele>
        <time>2013-07-25T12:19:35Z</time>
      </trkpt>
      <trkpt lat="43.68506" lon="5.73742">
        <ele>369.503979758</ele>
        <time>2013-07-25T12:19:38Z</time>
      </trkpt>
      <trkpt lat="43.68504" lon="5.73733">
        <ele>369.655983518</ele>
        <time>2013-07-25T12:19:41Z</time>
      </trkpt>
      <trkpt lat="43.68505" lon="5.73724">
        <ele>369.747972158</ele>
        <time>2013-07-25T12:19:44Z</time>
      </trkpt>
      <trkpt lat="43.68505" lon="5.73717">
        <ele>369.819996398</ele>
        <time>2013-07-25T12:19:47Z</time>
      </trkpt>
      <trkpt lat="43.68506" lon="5.73709">
        <ele>369.939996158</ele>
        <time>2013-07-25T12:19:50Z</time>
      </trkpt>
      <trkpt lat="43.68505" lon="5.73702">
        <ele>370.072005037</ele>
        <time>2013-07-25T12:19:53Z</time>
      </trkpt>
      <trkpt lat="43.68506" lon="5.73694">
        <ele>370.079960317</ele>
        <time>2013-07-25T12:19:56Z</time>
      </trkpt>
      <trkpt lat="43.68506" lon="5.73687">
        <ele>369.923994158</ele>
        <time>2013-07-25T12:19:59Z</time>
      </trkpt>
      <trkpt lat="43.68508" lon="5.7368">
        <ele>369.623979518</ele>
        <time>2013-07-25T12:20:02Z</time>
      </trkpt>
      <trkpt lat="43.6851" lon="5.73672">
        <ele>369.283975119</ele>
        <time>2013-07-25T12:20:05Z</time>
      </trkpt>
      <trkpt lat="43.68512" lon="5.73664">
        <ele>368.831987199</ele>
        <time>2013-07-25T12:20:08Z</time>
      </trkpt>
      <trkpt lat="43.68515" lon="5.73657">
        <ele>368.38402264</ele>
        <time>2013-07-25T12:20:11Z</time>
      </trkpt>
      <trkpt lat="43.68516" lon="5.73649">
        <ele>367.983972641</ele>
        <time>2013-07-25T12:20:14Z</time>
      </trkpt>
      <trkpt lat="43.68518" lon="5.73641">
        <ele>367.612025201</ele>
        <time>2013-07-25T12:20:17Z</time>
      </trkpt>
      <trkpt lat="43.68522" lon="5.73634">
        <ele>367.287992322</ele>
        <time>2013-07-25T12:20:20Z</time>
      </trkpt>
      <trkpt lat="43.68526" lon="5.73629">
        <ele>367.052046642</ele>
        <time>2013-07-25T12:20:23Z</time>
      </trkpt>
      <trkpt lat="43.6853" lon="5.73625">
        <ele>366.891996162</ele>
        <time>2013-07-25T12:20:26Z</time>
      </trkpt>
      <trkpt lat="43.68535" lon="5.73621">
        <ele>366.795923202</ele>
        <time>2013-07-25T12:20:29Z</time>
      </trkpt>
      <trkpt lat="43.6854" lon="5.73616">
        <ele>366.743924323</ele>
        <time>2013-07-25T12:20:32Z</time>
      </trkpt>
      <trkpt lat="43.68545" lon="5.73611">
        <ele>366.799977042</ele>
        <time>2013-07-25T12:20:35Z</time>
      </trkpt>
      <trkpt lat="43.68549" lon="5.73605">
        <ele>366.887972802</ele>
        <time>2013-07-25T12:20:38Z</time>
      </trkpt>
      <trkpt lat="43.68554" lon="5.73599">
        <ele>366.963959442</ele>
        <time>2013-07-25T12:20:41Z</time>
      </trkpt>
      <trkpt lat="43.68559" lon="5.73595">
        <ele>367.007972562</ele>
        <time>2013-07-25T12:20:44Z</time>
      </trkpt>
      <trkpt lat="43.68563" lon="5.7359">
        <ele>367.047962322</ele>
        <time>2013-07-25T12:20:47Z</time>
      </trkpt>
      <trkpt lat="43.68567" lon="5.73583">
        <ele>367.079966322</ele>
        <time>2013-07-25T12:20:50Z</time>
      </trkpt>
      <trkpt lat="43.68568" lon="5.73575">
        <ele>367.056070002</ele>
        <time>2013-07-25T12:20:53Z</time>
      </trkpt>
      <trkpt lat="43.68571" lon="5.73568">
        <ele>366.996054882</ele>
        <time>2013-07-25T12:20:56Z</time>
      </trkpt>
      <trkpt lat="43.68573" lon="5.73561">
        <ele>366.988038642</ele>
        <time>2013-07-25T12:20:59Z</time>
      </trkpt>
      <trkpt lat="43.68574" lon="5.73553">
        <ele>366.968043762</ele>
        <time>2013-07-25T12:21:02Z</time>
      </trkpt>
      <trkpt lat="43.68575" lon="5.73544">
        <ele>366.904035762</ele>
        <time>2013-07-25T12:21:05Z</time>
      </trkpt>
      <trkpt lat="43.68577" lon="5.73537">
        <ele>366.908028642</ele>
        <time>2013-07-25T12:21:08Z</time>
      </trkpt>
      <trkpt lat="43.68578" lon="5.73529">
        <ele>366.955943202</ele>
        <time>2013-07-25T12:21:11Z</time>
      </trkpt>
      <trkpt lat="43.6858" lon="5.73522">
        <ele>367.019951202</ele>
        <time>2013-07-25T12:21:14Z</time>
      </trkpt>
      <trkpt lat="43.68584" lon="5.73514">
        <ele>367.103984562</ele>
        <time>2013-07-25T12:21:17Z</time>
      </trkpt>
      <trkpt lat="43.68589" lon="5.73507">
        <ele>367.203989442</ele>
        <time>2013-07-25T12:21:20Z</time>
      </trkpt>
      <trkpt lat="43.68595" lon="5.73504">
        <ele>367.196003682</ele>
        <time>2013-07-25T12:21:23Z</time>
      </trkpt>
      <trkpt lat="43.686" lon="5.73501">
        <ele>367.119986562</ele>
        <time>2013-07-25T12:21:26Z</time>
      </trkpt>
      <trkpt lat="43.68606" lon="5.73503">
        <ele>367.103954082</ele>
        <time>2013-07-25T12:21:29Z</time>
      </trkpt>
      <trkpt lat="43.68611" lon="5.73507">
        <ele>367.067987682</ele>
        <time>2013-07-25T12:21:32Z</time>
      </trkpt>
      <trkpt lat="43.68616" lon="5.73512">
        <ele>366.932016402</ele>
        <time>2013-07-25T12:21:35Z</time>
      </trkpt>
      <trkpt lat="43.6862" lon="5.73518">
        <ele>366.771996403</ele>
        <time>2013-07-25T12:21:38Z</time>
      </trkpt>
      <trkpt lat="43.68625" lon="5.73525">
        <ele>366.635994643</ele>
        <time>2013-07-25T12:21:41Z</time>
      </trkpt>
      <trkpt lat="43.6863" lon="5.73531">
        <ele>366.555984643</ele>
        <time>2013-07-25T12:21:44Z</time>
      </trkpt>
      <trkpt lat="43.68636" lon="5.73538">
        <ele>366.591951043</ele>
        <time>2013-07-25T12:21:47Z</time>
      </trkpt>
      <trkpt lat="43.68639" lon="5.73546">
        <ele>366.687932563</ele>
        <time>2013-07-25T12:21:50Z</time>
      </trkpt>
      <trkpt lat="43.68644" lon="5.73553">
        <ele>366.751971043</ele>
        <time>2013-07-25T12:21:53Z</time>
      </trkpt>
      <trkpt lat="43.68649" lon="5.7356">
        <ele>366.671991523</ele>
        <time>2013-07-25T12:21:56Z</time>
      </trkpt>
      <trkpt lat="43.68653" lon="5.73568">
        <ele>366.535989763</ele>
        <time>2013-07-25T12:21:59Z</time>
      </trkpt>
      <trkpt lat="43.68657" lon="5.73576">
        <ele>366.347958643</ele>
        <time>2013-07-25T12:22:02Z</time>
      </trkpt>
      <trkpt lat="43.68662" lon="5.73584">
        <ele>366.100003844</ele>
        <time>2013-07-25T12:22:05Z</time>
      </trkpt>
      <trkpt lat="43.68667" lon="5.73592">
        <ele>365.795965844</ele>
        <time>2013-07-25T12:22:08Z</time>
      </trkpt>
      <trkpt lat="43.68671" lon="5.73601">
        <ele>365.495981684</ele>
        <time>2013-07-25T12:22:11Z</time>
      </trkpt>
      <trkpt lat="43.68675" lon="5.73608">
        <ele>365.196058485</ele>
        <time>2013-07-25T12:22:14Z</time>
      </trkpt>
      <trkpt lat="43.68681" lon="5.73613">
        <ele>364.907961525</ele>
        <time>2013-07-25T12:22:17Z</time>
      </trkpt>
      <trkpt lat="43.68688" lon="5.73615">
        <ele>364.631965126</ele>
        <time>2013-07-25T12:22:20Z</time>
      </trkpt>
      <trkpt lat="43.68696" lon="5.73615">
        <ele>364.416014326</ele>
        <time>2013-07-25T12:22:23Z</time>
      </trkpt>
      <trkpt lat="43.68704" lon="5.73614">
        <ele>364.284035926</ele>
        <time>2013-07-25T12:22:26Z</time>
      </trkpt>
      <trkpt lat="43.68711" lon="5.73612">
        <ele>364.187993446</ele>
        <time>2013-07-25T12:22:29Z</time>
      </trkpt>
      <trkpt lat="43.68719" lon="5.7361">
        <ele>364.111976327</ele>
        <time>2013-07-25T12:22:32Z</time>
      </trkpt>
      <trkpt lat="43.68726" lon="5.73608">
        <ele>363.932052887</ele>
        <time>2013-07-25T12:22:35Z</time>
      </trkpt>
      <trkpt lat="43.68733" lon="5.73606">
        <ele>363.756030887</ele>
        <time>2013-07-25T12:22:38Z</time>
      </trkpt>
      <trkpt lat="43.6874" lon="5.73604">
        <ele>363.600034247</ele>
        <time>2013-07-25T12:22:41Z</time>
      </trkpt>
      <trkpt lat="43.68747" lon="5.73601">
        <ele>363.503991767</ele>
        <time>2013-07-25T12:22:44Z</time>
      </trkpt>
      <trkpt lat="43.68754" lon="5.73599">
        <ele>363.451962408</ele>
        <time>2013-07-25T12:22:47Z</time>
      </trkpt>
      <trkpt lat="43.68761" lon="5.73597">
        <ele>363.431937048</ele>
        <time>2013-07-25T12:22:50Z</time>
      </trkpt>
      <trkpt lat="43.68768" lon="5.73595">
        <ele>363.452023368</ele>
        <time>2013-07-25T12:22:53Z</time>
      </trkpt>
      <trkpt lat="43.68773" lon="5.73593">
        <ele>363.567938807</ele>
        <time>2013-07-25T12:22:56Z</time>
      </trkpt>
      <trkpt lat="43.6878" lon="5.73591">
        <ele>363.768009527</ele>
        <time>2013-07-25T12:22:59Z</time>
      </trkpt>
      <trkpt lat="43.68787" lon="5.7359">
        <ele>363.955979687</ele>
        <time>2013-07-25T12:23:02Z</time>
      </trkpt>
      <trkpt lat="43.68794" lon="5.73588">
        <ele>364.080002807</ele>
        <time>2013-07-25T12:23:05Z</time>
      </trkpt>
      <trkpt lat="43.68802" lon="5.73586">
        <ele>364.128069767</ele>
        <time>2013-07-25T12:23:08Z</time>
      </trkpt>
      <trkpt lat="43.68808" lon="5.73585">
        <ele>364.176014806</ele>
        <time>2013-07-25T12:23:11Z</time>
      </trkpt>
      <trkpt lat="43.68813" lon="5.73587">
        <ele>364.259956726</ele>
        <time>2013-07-25T12:23:14Z</time>
      </trkpt>
      <trkpt lat="43.68819" lon="5.73591">
        <ele>364.340027686</ele>
        <time>2013-07-25T12:23:17Z</time>
      </trkpt>
      <trkpt lat="43.68825" lon="5.73597">
        <ele>364.395958486</ele>
        <time>2013-07-25T12:23:20Z</time>
      </trkpt>
      <trkpt lat="43.68831" lon="5.736">
        <ele>364.344020566</ele>
        <time>2013-07-25T12:23:23Z</time>
      </trkpt>
      <trkpt lat="43.68838" lon="5.736">
        <ele>364.275958726</ele>
        <time>2013-07-25T12:23:26Z</time>
      </trkpt>
      <trkpt lat="43.68844" lon="5.73599">
        <ele>364.256055286</ele>
        <time>2013-07-25T12:23:29Z</time>
      </trkpt>
      <trkpt lat="43.68849" lon="5.73599">
        <ele>364.236029926</ele>
        <time>2013-07-25T12:23:32Z</time>
      </trkpt>
      <trkpt lat="43.68854" lon="5.73597">
        <ele>364.207988326</ele>
        <time>2013-07-25T12:23:35Z</time>
      </trkpt>
      <trkpt lat="43.6886" lon="5.73594">
        <ele>364.092042407</ele>
        <time>2013-07-25T12:23:38Z</time>
      </trkpt>
      <trkpt lat="43.68866" lon="5.73591">
        <ele>364.019987687</ele>
        <time>2013-07-25T12:23:41Z</time>
      </trkpt>
      <trkpt lat="43.68872" lon="5.73587">
        <ele>363.871976807</ele>
        <time>2013-07-25T12:23:44Z</time>
      </trkpt>
      <trkpt lat="43.68878" lon="5.73582">
        <ele>363.851981927</ele>
        <time>2013-07-25T12:23:47Z</time>
      </trkpt>
      <trkpt lat="43.68884" lon="5.73577">
        <ele>363.896025527</ele>
        <time>2013-07-25T12:23:50Z</time>
      </trkpt>
      <trkpt lat="43.68889" lon="5.73571">
        <ele>363.911997047</ele>
        <time>2013-07-25T12:23:53Z</time>
      </trkpt>
      <trkpt lat="43.68894" lon="5.73568">
        <ele>363.899987927</ele>
        <time>2013-07-25T12:23:56Z</time>
      </trkpt>
      <trkpt lat="43.68899" lon="5.73566">
        <ele>363.908034647</ele>
        <time>2013-07-25T12:23:59Z</time>
      </trkpt>
      <trkpt lat="43.68904" lon="5.73562">
        <ele>363.899957447</ele>
        <time>2013-07-25T12:24:02Z</time>
      </trkpt>
      <trkpt lat="43.6891" lon="5.73558">
        <ele>363.875969687</ele>
        <time>2013-07-25T12:24:05Z</time>
      </trkpt>
      <trkpt lat="43.68917" lon="5.73555">
        <ele>363.879962567</ele>
        <time>2013-07-25T12:24:08Z</time>
      </trkpt>
      <trkpt lat="43.68924" lon="5.73552">
        <ele>363.872037767</ele>
        <time>2013-07-25T12:24:11Z</time>
      </trkpt>
      <trkpt lat="43.68929" lon="5.73549">
        <ele>363.772002407</ele>
        <time>2013-07-25T12:24:14Z</time>
      </trkpt>
      <trkpt lat="43.68936" lon="5.73545">
        <ele>363.647979287</ele>
        <time>2013-07-25T12:24:17Z</time>
      </trkpt>
      <trkpt lat="43.68943" lon="5.73542">
        <ele>363.619998647</ele>
        <time>2013-07-25T12:24:20Z</time>
      </trkpt>
      <trkpt lat="43.6895" lon="5.7354">
        <ele>363.640024007</ele>
        <time>2013-07-25T12:24:23Z</time>
      </trkpt>
      <trkpt lat="43.68957" lon="5.73538">
        <ele>363.756000407</ele>
        <time>2013-07-25T12:24:26Z</time>
      </trkpt>
      <trkpt lat="43.68964" lon="5.73535">
        <ele>364.012001927</ele>
        <time>2013-07-25T12:24:29Z</time>
      </trkpt>
      <trkpt lat="43.6897" lon="5.73533">
        <ele>364.311986086</ele>
        <time>2013-07-25T12:24:32Z</time>
      </trkpt>
      <trkpt lat="43.68976" lon="5.73531">
        <ele>364.596029206</ele>
        <time>2013-07-25T12:24:35Z</time>
      </trkpt>
      <trkpt lat="43.68982" lon="5.7353">
        <ele>364.844044965</ele>
        <time>2013-07-25T12:24:38Z</time>
      </trkpt>
      <trkpt lat="43.68988" lon="5.73528">
        <ele>365.131989525</ele>
        <time>2013-07-25T12:24:41Z</time>
      </trkpt>
      <trkpt lat="43.68994" lon="5.73524">
        <ele>365.383998165</ele>
        <time>2013-07-25T12:24:44Z</time>
      </trkpt>
      <trkpt lat="43.68999" lon="5.73522">
        <ele>365.683982324</ele>
        <time>2013-07-25T12:24:47Z</time>
      </trkpt>
      <trkpt lat="43.69004" lon="5.73518">
        <ele>366.003991844</ele>
        <time>2013-07-25T12:24:50Z</time>
      </trkpt>
      <trkpt lat="43.69008" lon="5.73512">
        <ele>366.255970003</ele>
        <time>2013-07-25T12:24:53Z</time>
      </trkpt>
      <trkpt lat="43.69015" lon="5.73507">
        <ele>366.304006483</ele>
        <time>2013-07-25T12:24:56Z</time>
      </trkpt>
      <trkpt lat="43.6902" lon="5.73501">
        <ele>366.267979123</ele>
        <time>2013-07-25T12:24:59Z</time>
      </trkpt>
      <trkpt lat="43.69025" lon="5.73495">
        <ele>366.215980243</ele>
        <time>2013-07-25T12:25:02Z</time>
      </trkpt>
      <trkpt lat="43.69029" lon="5.7349">
        <ele>366.196015843</ele>
        <time>2013-07-25T12:25:05Z</time>
      </trkpt>
      <trkpt lat="43.69034" lon="5.73484">
        <ele>366.124022083</ele>
        <time>2013-07-25T12:25:08Z</time>
      </trkpt>
      <trkpt lat="43.6904" lon="5.73481">
        <ele>365.980034564</ele>
        <time>2013-07-25T12:25:11Z</time>
      </trkpt>
      <trkpt lat="43.69047" lon="5.73479">
        <ele>365.707970084</ele>
        <time>2013-07-25T12:25:14Z</time>
      </trkpt>
      <trkpt lat="43.69055" lon="5.7348">
        <ele>365.403993045</ele>
        <time>2013-07-25T12:25:17Z</time>
      </trkpt>
      <trkpt lat="43.69063" lon="5.73481">
        <ele>365.103978405</ele>
        <time>2013-07-25T12:25:20Z</time>
      </trkpt>
      <trkpt lat="43.69071" lon="5.73483">
        <ele>364.883973765</ele>
        <time>2013-07-25T12:25:23Z</time>
      </trkpt>
      <trkpt lat="43.69079" lon="5.73486">
        <ele>364.699996486</ele>
        <time>2013-07-25T12:25:26Z</time>
      </trkpt>
      <trkpt lat="43.69084" lon="5.73489">
        <ele>364.451950246</ele>
        <time>2013-07-25T12:25:29Z</time>
      </trkpt>
      <trkpt lat="43.69088" lon="5.73495">
        <ele>364.208018806</ele>
        <time>2013-07-25T12:25:32Z</time>
      </trkpt>
      <trkpt lat="43.69094" lon="5.73498">
        <ele>364.011971447</ele>
        <time>2013-07-25T12:25:35Z</time>
      </trkpt>
      <trkpt lat="43.69099" lon="5.735">
        <ele>363.916020407</ele>
        <time>2013-07-25T12:25:38Z</time>
      </trkpt>
      <trkpt lat="43.69106" lon="5.73501">
        <ele>363.863960567</ele>
        <time>2013-07-25T12:25:41Z</time>
      </trkpt>
      <trkpt lat="43.69113" lon="5.73501">
        <ele>363.856035767</ele>
        <time>2013-07-25T12:25:44Z</time>
      </trkpt>
      <trkpt lat="43.69119" lon="5.73501">
        <ele>363.872037767</ele>
        <time>2013-07-25T12:25:47Z</time>
      </trkpt>
      <trkpt lat="43.69126" lon="5.73502">
        <ele>363.796020647</ele>
        <time>2013-07-25T12:25:50Z</time>
      </trkpt>
      <trkpt lat="43.69133" lon="5.73504">
        <ele>363.751946567</ele>
        <time>2013-07-25T12:25:53Z</time>
      </trkpt>
      <trkpt lat="43.6914" lon="5.73507">
        <ele>363.739998407</ele>
        <time>2013-07-25T12:25:56Z</time>
      </trkpt>
      <trkpt lat="43.69148" lon="5.7351">
        <ele>363.668004647</ele>
        <time>2013-07-25T12:25:59Z</time>
      </trkpt>
      <trkpt lat="43.69156" lon="5.73513">
        <ele>363.584032247</ele>
        <time>2013-07-25T12:26:02Z</time>
      </trkpt>
      <trkpt lat="43.69163" lon="5.73516">
        <ele>363.444037608</ele>
        <time>2013-07-25T12:26:05Z</time>
      </trkpt>
      <trkpt lat="43.69171" lon="5.7352">
        <ele>363.216077688</ele>
        <time>2013-07-25T12:26:08Z</time>
      </trkpt>
      <trkpt lat="43.69178" lon="5.73524">
        <ele>362.875981848</ele>
        <time>2013-07-25T12:26:11Z</time>
      </trkpt>
      <trkpt lat="43.69186" lon="5.73529">
        <ele>362.572035289</ele>
        <time>2013-07-25T12:26:14Z</time>
      </trkpt>
      <trkpt lat="43.69193" lon="5.73532">
        <ele>362.211944569</ele>
        <time>2013-07-25T12:26:17Z</time>
      </trkpt>
      <trkpt lat="43.692" lon="5.73535">
        <ele>361.77193529</ele>
        <time>2013-07-25T12:26:20Z</time>
      </trkpt>
      <trkpt lat="43.69208" lon="5.73538">
        <ele>361.327963611</ele>
        <time>2013-07-25T12:26:23Z</time>
      </trkpt>
      <trkpt lat="43.69216" lon="5.73541">
        <ele>360.835985932</ele>
        <time>2013-07-25T12:26:26Z</time>
      </trkpt>
      <trkpt lat="43.69224" lon="5.73544">
        <ele>360.284023612</ele>
        <time>2013-07-25T12:26:29Z</time>
      </trkpt>
      <trkpt lat="43.69232" lon="5.73546">
        <ele>359.772020573</ele>
        <time>2013-07-25T12:26:32Z</time>
      </trkpt>
      <trkpt lat="43.6924" lon="5.73547">
        <ele>359.263979934</ele>
        <time>2013-07-25T12:26:35Z</time>
      </trkpt>
      <trkpt lat="43.69249" lon="5.73545">
        <ele>358.771910815</ele>
        <time>2013-07-25T12:26:38Z</time>
      </trkpt>
      <trkpt lat="43.69256" lon="5.73544">
        <ele>358.344002095</ele>
        <time>2013-07-25T12:26:41Z</time>
      </trkpt>
      <trkpt lat="43.69264" lon="5.73543">
        <ele>357.976017056</ele>
        <time>2013-07-25T12:26:44Z</time>
      </trkpt>
      <trkpt lat="43.69272" lon="5.73544">
        <ele>357.667986176</ele>
        <time>2013-07-25T12:26:47Z</time>
      </trkpt>
      <trkpt lat="43.69278" lon="5.73544">
        <ele>357.475962177</ele>
        <time>2013-07-25T12:26:50Z</time>
      </trkpt>
      <trkpt lat="43.69285" lon="5.73544">
        <ele>357.391989777</ele>
        <time>2013-07-25T12:26:53Z</time>
      </trkpt>
      <trkpt lat="43.69293" lon="5.73545">
        <ele>357.480016017</ele>
        <time>2013-07-25T12:26:56Z</time>
      </trkpt>
      <trkpt lat="43.69303" lon="5.73546">
        <ele>357.808011296</ele>
        <time>2013-07-25T12:26:59Z</time>
      </trkpt>
      <trkpt lat="43.69312" lon="5.73548">
        <ele>358.260029695</ele>
        <time>2013-07-25T12:27:02Z</time>
      </trkpt>
      <trkpt lat="43.6932" lon="5.73549">
        <ele>358.700008495</ele>
        <time>2013-07-25T12:27:05Z</time>
      </trkpt>
      <trkpt lat="43.69328" lon="5.73552">
        <ele>359.075979294</ele>
        <time>2013-07-25T12:27:08Z</time>
      </trkpt>
      <trkpt lat="43.69337" lon="5.73554">
        <ele>359.383979694</ele>
        <time>2013-07-25T12:27:11Z</time>
      </trkpt>
      <trkpt lat="43.69343" lon="5.73553">
        <ele>359.411990814</ele>
        <time>2013-07-25T12:27:14Z</time>
      </trkpt>
      <trkpt lat="43.6935" lon="5.73552">
        <ele>359.248069374</ele>
        <time>2013-07-25T12:27:17Z</time>
      </trkpt>
      <trkpt lat="43.69357" lon="5.73551">
        <ele>358.824062095</ele>
        <time>2013-07-25T12:27:20Z</time>
      </trkpt>
      <trkpt lat="43.69366" lon="5.73551">
        <ele>358.068036176</ele>
        <time>2013-07-25T12:27:23Z</time>
      </trkpt>
      <trkpt lat="43.69373" lon="5.73552">
        <ele>357.043999617</ele>
        <time>2013-07-25T12:27:26Z</time>
      </trkpt>
      <trkpt lat="43.69381" lon="5.73557">
        <ele>355.919958179</ele>
        <time>2013-07-25T12:27:29Z</time>
      </trkpt>
      <trkpt lat="43.69388" lon="5.73564">
        <ele>354.728007301</ele>
        <time>2013-07-25T12:27:32Z</time>
      </trkpt>
      <trkpt lat="43.69393" lon="5.73571">
        <ele>353.468025063</ele>
        <time>2013-07-25T12:27:35Z</time>
      </trkpt>
      <trkpt lat="43.69397" lon="5.73581">
        <ele>352.319995864</ele>
        <time>2013-07-25T12:27:38Z</time>
      </trkpt>
      <trkpt lat="43.69401" lon="5.73589">
        <ele>351.235974666</ele>
        <time>2013-07-25T12:27:41Z</time>
      </trkpt>
      <trkpt lat="43.69406" lon="5.73596">
        <ele>350.124003308</ele>
        <time>2013-07-25T12:27:44Z</time>
      </trkpt>
      <trkpt lat="43.69411" lon="5.73603">
        <ele>349.051991229</ele>
        <time>2013-07-25T12:27:47Z</time>
      </trkpt>
      <trkpt lat="43.69417" lon="5.73609">
        <ele>348.052033871</ele>
        <time>2013-07-25T12:27:50Z</time>
      </trkpt>
      <trkpt lat="43.69423" lon="5.73615">
        <ele>347.088012432</ele>
        <time>2013-07-25T12:27:53Z</time>
      </trkpt>
      <trkpt lat="43.6943" lon="5.7362">
        <ele>346.184006114</ele>
        <time>2013-07-25T12:27:56Z</time>
      </trkpt>
      <trkpt lat="43.69438" lon="5.73625">
        <ele>345.347970195</ele>
        <time>2013-07-25T12:27:59Z</time>
      </trkpt>
      <trkpt lat="43.69445" lon="5.73631">
        <ele>344.564024596</ele>
        <time>2013-07-25T12:28:02Z</time>
      </trkpt>
      <trkpt lat="43.69451" lon="5.73638">
        <ele>343.820007797</ele>
        <time>2013-07-25T12:28:05Z</time>
      </trkpt>
      <trkpt lat="43.69455" lon="5.73644">
        <ele>343.064012359</ele>
        <time>2013-07-25T12:28:08Z</time>
      </trkpt>
      <trkpt lat="43.69462" lon="5.73649">
        <ele>342.36400868</ele>
        <time>2013-07-25T12:28:11Z</time>
      </trkpt>
      <trkpt lat="43.69468" lon="5.73651">
        <ele>341.700001881</ele>
        <time>2013-07-25T12:28:14Z</time>
      </trkpt>
      <trkpt lat="43.69474" lon="5.73654">
        <ele>341.055989962</ele>
        <time>2013-07-25T12:28:17Z</time>
      </trkpt>
      <trkpt lat="43.69481" lon="5.73655">
        <ele>340.480009402</ele>
        <time>2013-07-25T12:28:20Z</time>
      </trkpt>
      <trkpt lat="43.69487" lon="5.73655">
        <ele>339.948011483</ele>
        <time>2013-07-25T12:28:23Z</time>
      </trkpt>
      <trkpt lat="43.69496" lon="5.73655">
        <ele>339.372000444</ele>
        <time>2013-07-25T12:28:26Z</time>
      </trkpt>
      <trkpt lat="43.69504" lon="5.73655">
        <ele>338.784010765</ele>
        <time>2013-07-25T12:28:29Z</time>
      </trkpt>
      <trkpt lat="43.69512" lon="5.73653">
        <ele>338.275970126</ele>
        <time>2013-07-25T12:28:32Z</time>
      </trkpt>
      <trkpt lat="43.6952" lon="5.73649">
        <ele>337.828005567</ele>
        <time>2013-07-25T12:28:35Z</time>
      </trkpt>
      <trkpt lat="43.69528" lon="5.73644">
        <ele>337.360046127</ele>
        <time>2013-07-25T12:28:38Z</time>
      </trkpt>
      <trkpt lat="43.69537" lon="5.73641">
        <ele>336.852035968</ele>
        <time>2013-07-25T12:28:41Z</time>
      </trkpt>
      <trkpt lat="43.69544" lon="5.73641">
        <ele>336.328054289</ele>
        <time>2013-07-25T12:28:44Z</time>
      </trkpt>
      <trkpt lat="43.6955" lon="5.73643">
        <ele>335.79200253</ele>
        <time>2013-07-25T12:28:47Z</time>
      </trkpt>
      <trkpt lat="43.69558" lon="5.73645">
        <ele>335.24000973</ele>
        <time>2013-07-25T12:28:50Z</time>
      </trkpt>
      <trkpt lat="43.69563" lon="5.73649">
        <ele>334.763973091</ele>
        <time>2013-07-25T12:28:53Z</time>
      </trkpt>
      <trkpt lat="43.69564" lon="5.73658">
        <ele>334.291990292</ele>
        <time>2013-07-25T12:28:56Z</time>
      </trkpt>
      <trkpt lat="43.69561" lon="5.73667">
        <ele>333.815984133</ele>
        <time>2013-07-25T12:28:59Z</time>
      </trkpt>
      <trkpt lat="43.69561" lon="5.73675">
        <ele>333.339977973</ele>
        <time>2013-07-25T12:29:02Z</time>
      </trkpt>
      <trkpt lat="43.69565" lon="5.73684">
        <ele>332.932003174</ele>
        <time>2013-07-25T12:29:05Z</time>
      </trkpt>
      <trkpt lat="43.69572" lon="5.7369">
        <ele>332.442341975</ele>
        <time>2013-07-25T12:29:08Z</time>
      </trkpt>
      <trkpt lat="43.69576" lon="5.73689">
        <ele>332.099990615</ele>
        <time>2013-07-25T12:29:11Z</time>
      </trkpt>
      <trkpt lat="43.69582" lon="5.73686">
        <ele>331.756054296</ele>
        <time>2013-07-25T12:29:14Z</time>
      </trkpt>
      <trkpt lat="43.69589" lon="5.7368">
        <ele>331.412026536</ele>
        <time>2013-07-25T12:29:17Z</time>
      </trkpt>
      <trkpt lat="43.69596" lon="5.73676">
        <ele>331.020053737</ele>
        <time>2013-07-25T12:29:20Z</time>
      </trkpt>
      <trkpt lat="43.69604" lon="5.73671">
        <ele>330.712022857</ele>
        <time>2013-07-25T12:29:23Z</time>
      </trkpt>
      <trkpt lat="43.6961" lon="5.73666">
        <ele>330.467999978</ele>
        <time>2013-07-25T12:29:26Z</time>
      </trkpt>
      <trkpt lat="43.69616" lon="5.73661">
        <ele>330.216021818</ele>
        <time>2013-07-25T12:29:29Z</time>
      </trkpt>
      <trkpt lat="43.69622" lon="5.73656">
        <ele>330.020004938</ele>
        <time>2013-07-25T12:29:32Z</time>
      </trkpt>
      <trkpt lat="43.69627" lon="5.7365">
        <ele>329.767965819</ele>
        <time>2013-07-25T12:29:35Z</time>
      </trkpt>
      <trkpt lat="43.69634" lon="5.73645">
        <ele>329.416013259</ele>
        <time>2013-07-25T12:29:38Z</time>
      </trkpt>
      <trkpt lat="43.69641" lon="5.73641">
        <ele>329.0279419</ele>
        <time>2013-07-25T12:29:41Z</time>
      </trkpt>
      <trkpt lat="43.69648" lon="5.73636">
        <ele>328.70000758</ele>
        <time>2013-07-25T12:29:44Z</time>
      </trkpt>
      <trkpt lat="43.69655" lon="5.7363">
        <ele>328.331992061</ele>
        <time>2013-07-25T12:29:47Z</time>
      </trkpt>
      <trkpt lat="43.69661" lon="5.73625">
        <ele>327.880004142</ele>
        <time>2013-07-25T12:29:50Z</time>
      </trkpt>
      <trkpt lat="43.69667" lon="5.73622">
        <ele>327.395981742</ele>
        <time>2013-07-25T12:29:53Z</time>
      </trkpt>
      <trkpt lat="43.69667" lon="5.73622">
        <ele>327.395981742</ele>
        <time>2013-07-25T12:29:54Z</time>
      </trkpt>
    </trkseg>
  </trk>
</gpx>